<?xml version="1.0" encoding="UTF-8" standalone="no" ?>
<gpx xmlns="http://www.topografix.com/GPX/1/1" xmlns:xsi="http://www.w3.org/2001/XMLSchema-instance" xsi:schemaLocation="http://www.topografix.com/GPX/1/1 http://www.topografix.com/GPX/1/1/gpx.xsd" version="1.1" creator="VisuGPX - https://www.visugpx.com">
  <metadata>
    <name>grand bornand</name>
    <desc><![CDATA[sortie de début de saison quand les pistes ne sont pas ouvertes]]></desc>
  </metadata>
  <trk>
    <name><![CDATA[sur les pistes du grand bornand]]></name>
    <desc><![CDATA[grosse neige poudreuse, tout seul en2 boucle]]></desc>
    <trkseg>
      <trkpt lat="45.96902" lon="6.45171">
        <ele>1280.5999755859</ele>
        <time>2012-12-06T12:55:24.000Z</time>
      </trkpt>
      <trkpt lat="45.96903" lon="6.45173">
        <ele>1280.5999755859</ele>
        <time>2012-12-06T12:55:28.000Z</time>
      </trkpt>
      <trkpt lat="45.96904" lon="6.45175">
        <ele>1280.5999755859</ele>
        <time>2012-12-06T12:55:31.000Z</time>
      </trkpt>
      <trkpt lat="45.96905" lon="6.45177">
        <ele>1281</ele>
        <time>2012-12-06T12:55:36.000Z</time>
      </trkpt>
      <trkpt lat="45.96906" lon="6.45177">
        <ele>1281</ele>
        <time>2012-12-06T12:55:42.000Z</time>
      </trkpt>
      <trkpt lat="45.96908" lon="6.45178">
        <ele>1282</ele>
        <time>2012-12-06T12:55:47.000Z</time>
      </trkpt>
      <trkpt lat="45.9691" lon="6.4518">
        <ele>1282.4000244141</ele>
        <time>2012-12-06T12:55:52.000Z</time>
      </trkpt>
      <trkpt lat="45.96911" lon="6.45183">
        <ele>1283</ele>
        <time>2012-12-06T12:55:56.000Z</time>
      </trkpt>
      <trkpt lat="45.96905" lon="6.45183">
        <ele>1283.8000488281</ele>
        <time>2012-12-06T12:56:01.000Z</time>
      </trkpt>
      <trkpt lat="45.96902" lon="6.45182">
        <ele>1284.8000488281</ele>
        <time>2012-12-06T12:56:04.000Z</time>
      </trkpt>
      <trkpt lat="45.96895" lon="6.45178">
        <ele>1286.1999511719</ele>
        <time>2012-12-06T12:56:09.000Z</time>
      </trkpt>
      <trkpt lat="45.96886" lon="6.45175">
        <ele>1288.5999755859</ele>
        <time>2012-12-06T12:56:16.000Z</time>
      </trkpt>
      <trkpt lat="45.96883" lon="6.45173">
        <ele>1289.1999511719</ele>
        <time>2012-12-06T12:56:19.000Z</time>
      </trkpt>
      <trkpt lat="45.96876" lon="6.4517">
        <ele>1289.5999755859</ele>
        <time>2012-12-06T12:56:24.000Z</time>
      </trkpt>
      <trkpt lat="45.96867" lon="6.45166">
        <ele>1291</ele>
        <time>2012-12-06T12:56:31.000Z</time>
      </trkpt>
      <trkpt lat="45.96864" lon="6.45165">
        <ele>1291</ele>
        <time>2012-12-06T12:56:33.000Z</time>
      </trkpt>
      <trkpt lat="45.96858" lon="6.45161">
        <ele>1292.5999755859</ele>
        <time>2012-12-06T12:56:39.000Z</time>
      </trkpt>
      <trkpt lat="45.96854" lon="6.45159">
        <ele>1294</ele>
        <time>2012-12-06T12:56:43.000Z</time>
      </trkpt>
      <trkpt lat="45.96851" lon="6.45158">
        <ele>1294</ele>
        <time>2012-12-06T12:56:45.000Z</time>
      </trkpt>
      <trkpt lat="45.96846" lon="6.45155">
        <ele>1295</ele>
        <time>2012-12-06T12:56:49.000Z</time>
      </trkpt>
      <trkpt lat="45.9684" lon="6.45152">
        <ele>1295.8000488281</ele>
        <time>2012-12-06T12:56:54.000Z</time>
      </trkpt>
      <trkpt lat="45.96832" lon="6.45152">
        <ele>1295.8000488281</ele>
        <time>2012-12-06T12:57:00.000Z</time>
      </trkpt>
      <trkpt lat="45.96827" lon="6.45154">
        <ele>1295.8000488281</ele>
        <time>2012-12-06T12:57:05.000Z</time>
      </trkpt>
      <trkpt lat="45.96826" lon="6.45154">
        <ele>1295.8000488281</ele>
        <time>2012-12-06T12:57:06.000Z</time>
      </trkpt>
      <trkpt lat="45.96823" lon="6.45157">
        <ele>1296.4000244141</ele>
        <time>2012-12-06T12:57:09.000Z</time>
      </trkpt>
      <trkpt lat="45.96821" lon="6.45158">
        <ele>1296.4000244141</ele>
        <time>2012-12-06T12:57:11.000Z</time>
      </trkpt>
      <trkpt lat="45.96816" lon="6.45166">
        <ele>1297.8000488281</ele>
        <time>2012-12-06T12:57:18.000Z</time>
      </trkpt>
      <trkpt lat="45.96814" lon="6.45169">
        <ele>1298.8000488281</ele>
        <time>2012-12-06T12:57:21.000Z</time>
      </trkpt>
      <trkpt lat="45.96812" lon="6.45175">
        <ele>1299.8000488281</ele>
        <time>2012-12-06T12:57:25.000Z</time>
      </trkpt>
      <trkpt lat="45.9681" lon="6.4518">
        <ele>1301.1999511719</ele>
        <time>2012-12-06T12:57:29.000Z</time>
      </trkpt>
      <trkpt lat="45.96808" lon="6.45188">
        <ele>1302.5999755859</ele>
        <time>2012-12-06T12:57:35.000Z</time>
      </trkpt>
      <trkpt lat="45.96807" lon="6.45194">
        <ele>1304.5999755859</ele>
        <time>2012-12-06T12:57:40.000Z</time>
      </trkpt>
      <trkpt lat="45.96807" lon="6.452">
        <ele>1306.4000244141</ele>
        <time>2012-12-06T12:57:45.000Z</time>
      </trkpt>
      <trkpt lat="45.96807" lon="6.45205">
        <ele>1308.4000244141</ele>
        <time>2012-12-06T12:57:50.000Z</time>
      </trkpt>
      <trkpt lat="45.96805" lon="6.45213">
        <ele>1310.4000244141</ele>
        <time>2012-12-06T12:57:56.000Z</time>
      </trkpt>
      <trkpt lat="45.96804" lon="6.4522">
        <ele>1313.1999511719</ele>
        <time>2012-12-06T12:58:01.000Z</time>
      </trkpt>
      <trkpt lat="45.96802" lon="6.45227">
        <ele>1314.5999755859</ele>
        <time>2012-12-06T12:58:07.000Z</time>
      </trkpt>
      <trkpt lat="45.968" lon="6.45234">
        <ele>1316</ele>
        <time>2012-12-06T12:58:13.000Z</time>
      </trkpt>
      <trkpt lat="45.96798" lon="6.45242">
        <ele>1317.5999755859</ele>
        <time>2012-12-06T12:58:19.000Z</time>
      </trkpt>
      <trkpt lat="45.96796" lon="6.45248">
        <ele>1318.4000244141</ele>
        <time>2012-12-06T12:58:25.000Z</time>
      </trkpt>
      <trkpt lat="45.96795" lon="6.45253">
        <ele>1320</ele>
        <time>2012-12-06T12:58:30.000Z</time>
      </trkpt>
      <trkpt lat="45.96794" lon="6.45256">
        <ele>1320.8000488281</ele>
        <time>2012-12-06T12:58:33.000Z</time>
      </trkpt>
      <trkpt lat="45.96794" lon="6.45259">
        <ele>1322.4000244141</ele>
        <time>2012-12-06T12:58:37.000Z</time>
      </trkpt>
      <trkpt lat="45.96793" lon="6.45263">
        <ele>1323.8000488281</ele>
        <time>2012-12-06T12:58:41.000Z</time>
      </trkpt>
      <trkpt lat="45.96792" lon="6.45266">
        <ele>1323.8000488281</ele>
        <time>2012-12-06T12:58:45.000Z</time>
      </trkpt>
      <trkpt lat="45.96791" lon="6.45268">
        <ele>1323.8000488281</ele>
        <time>2012-12-06T12:58:46.000Z</time>
      </trkpt>
      <trkpt lat="45.9679" lon="6.45272">
        <ele>1324.8000488281</ele>
        <time>2012-12-06T12:58:51.000Z</time>
      </trkpt>
      <trkpt lat="45.96788" lon="6.45278">
        <ele>1325.1999511719</ele>
        <time>2012-12-06T12:58:56.000Z</time>
      </trkpt>
      <trkpt lat="45.96786" lon="6.45286">
        <ele>1326.5999755859</ele>
        <time>2012-12-06T12:59:03.000Z</time>
      </trkpt>
      <trkpt lat="45.96784" lon="6.45296">
        <ele>1328.5999755859</ele>
        <time>2012-12-06T12:59:10.000Z</time>
      </trkpt>
      <trkpt lat="45.96782" lon="6.45304">
        <ele>1330.5999755859</ele>
        <time>2012-12-06T12:59:16.000Z</time>
      </trkpt>
      <trkpt lat="45.9678" lon="6.45311">
        <ele>1332</ele>
        <time>2012-12-06T12:59:21.000Z</time>
      </trkpt>
      <trkpt lat="45.9678" lon="6.45316">
        <ele>1333</ele>
        <time>2012-12-06T12:59:24.000Z</time>
      </trkpt>
      <trkpt lat="45.96777" lon="6.45321">
        <ele>1333.8000488281</ele>
        <time>2012-12-06T12:59:28.000Z</time>
      </trkpt>
      <trkpt lat="45.96775" lon="6.45324">
        <ele>1333.4000244141</ele>
        <time>2012-12-06T12:59:30.000Z</time>
      </trkpt>
      <trkpt lat="45.96771" lon="6.45339">
        <ele>1337.1999511719</ele>
        <time>2012-12-06T12:59:39.000Z</time>
      </trkpt>
      <trkpt lat="45.96768" lon="6.45348">
        <ele>1338.5999755859</ele>
        <time>2012-12-06T12:59:45.000Z</time>
      </trkpt>
      <trkpt lat="45.96766" lon="6.45355">
        <ele>1339.5999755859</ele>
        <time>2012-12-06T12:59:50.000Z</time>
      </trkpt>
      <trkpt lat="45.96763" lon="6.45361">
        <ele>1340.1999511719</ele>
        <time>2012-12-06T12:59:56.000Z</time>
      </trkpt>
      <trkpt lat="45.9676" lon="6.45369">
        <ele>1341.5999755859</ele>
        <time>2012-12-06T13:00:02.000Z</time>
      </trkpt>
      <trkpt lat="45.96757" lon="6.45375">
        <ele>1343</ele>
        <time>2012-12-06T13:00:07.000Z</time>
      </trkpt>
      <trkpt lat="45.96755" lon="6.45382">
        <ele>1343.4000244141</ele>
        <time>2012-12-06T13:00:13.000Z</time>
      </trkpt>
      <trkpt lat="45.96754" lon="6.45389">
        <ele>1345</ele>
        <time>2012-12-06T13:00:18.000Z</time>
      </trkpt>
      <trkpt lat="45.96754" lon="6.45396">
        <ele>1345.8000488281</ele>
        <time>2012-12-06T13:00:22.000Z</time>
      </trkpt>
      <trkpt lat="45.96754" lon="6.45396">
        <ele>1345.8000488281</ele>
        <time>2012-12-06T13:00:23.000Z</time>
      </trkpt>
      <trkpt lat="45.96748" lon="6.45396">
        <ele>1349.1999511719</ele>
        <time>2012-12-06T13:00:28.000Z</time>
      </trkpt>
      <trkpt lat="45.96747" lon="6.45399">
        <ele>1350.1999511719</ele>
        <time>2012-12-06T13:00:30.000Z</time>
      </trkpt>
      <trkpt lat="45.96746" lon="6.45403">
        <ele>1351.1999511719</ele>
        <time>2012-12-06T13:00:33.000Z</time>
      </trkpt>
      <trkpt lat="45.96743" lon="6.45403">
        <ele>1352.1999511719</ele>
        <time>2012-12-06T13:00:38.000Z</time>
      </trkpt>
      <trkpt lat="45.96741" lon="6.45404">
        <ele>1353.5999755859</ele>
        <time>2012-12-06T13:00:41.000Z</time>
      </trkpt>
      <trkpt lat="45.9674" lon="6.45408">
        <ele>1354.5999755859</ele>
        <time>2012-12-06T13:00:45.000Z</time>
      </trkpt>
      <trkpt lat="45.96739" lon="6.4541">
        <ele>1354.5999755859</ele>
        <time>2012-12-06T13:00:50.000Z</time>
      </trkpt>
      <trkpt lat="45.9674" lon="6.45411">
        <ele>1354.5999755859</ele>
        <time>2012-12-06T13:01:01.000Z</time>
      </trkpt>
      <trkpt lat="45.9674" lon="6.45414">
        <ele>1354</ele>
        <time>2012-12-06T13:01:12.000Z</time>
      </trkpt>
      <trkpt lat="45.9674" lon="6.45415">
        <ele>1353.5999755859</ele>
        <time>2012-12-06T13:01:17.000Z</time>
      </trkpt>
      <trkpt lat="45.9674" lon="6.45415">
        <ele>1353</ele>
        <time>2012-12-06T13:01:23.000Z</time>
      </trkpt>
      <trkpt lat="45.9674" lon="6.45419">
        <ele>1353</ele>
        <time>2012-12-06T13:01:36.000Z</time>
      </trkpt>
      <trkpt lat="45.96741" lon="6.45424">
        <ele>1353.5999755859</ele>
        <time>2012-12-06T13:01:39.000Z</time>
      </trkpt>
      <trkpt lat="45.96743" lon="6.45431">
        <ele>1354</ele>
        <time>2012-12-06T13:01:43.000Z</time>
      </trkpt>
      <trkpt lat="45.96743" lon="6.45434">
        <ele>1354</ele>
        <time>2012-12-06T13:01:46.000Z</time>
      </trkpt>
      <trkpt lat="45.96743" lon="6.4544">
        <ele>1354</ele>
        <time>2012-12-06T13:01:51.000Z</time>
      </trkpt>
      <trkpt lat="45.96744" lon="6.45447">
        <ele>1356</ele>
        <time>2012-12-06T13:01:57.000Z</time>
      </trkpt>
      <trkpt lat="45.96746" lon="6.45453">
        <ele>1357.8000488281</ele>
        <time>2012-12-06T13:02:02.000Z</time>
      </trkpt>
      <trkpt lat="45.96745" lon="6.45455">
        <ele>1358.4000244141</ele>
        <time>2012-12-06T13:02:04.000Z</time>
      </trkpt>
      <trkpt lat="45.96746" lon="6.4546">
        <ele>1360.4000244141</ele>
        <time>2012-12-06T13:02:09.000Z</time>
      </trkpt>
      <trkpt lat="45.96747" lon="6.45464">
        <ele>1361.1999511719</ele>
        <time>2012-12-06T13:02:13.000Z</time>
      </trkpt>
      <trkpt lat="45.96747" lon="6.45469">
        <ele>1361.8000488281</ele>
        <time>2012-12-06T13:02:17.000Z</time>
      </trkpt>
      <trkpt lat="45.96747" lon="6.45473">
        <ele>1361.8000488281</ele>
        <time>2012-12-06T13:02:21.000Z</time>
      </trkpt>
      <trkpt lat="45.96748" lon="6.45479">
        <ele>1362.8000488281</ele>
        <time>2012-12-06T13:02:26.000Z</time>
      </trkpt>
      <trkpt lat="45.9675" lon="6.45483">
        <ele>1363.1999511719</ele>
        <time>2012-12-06T13:02:31.000Z</time>
      </trkpt>
      <trkpt lat="45.9675" lon="6.45487">
        <ele>1363.5999755859</ele>
        <time>2012-12-06T13:02:35.000Z</time>
      </trkpt>
      <trkpt lat="45.9675" lon="6.45491">
        <ele>1363.5999755859</ele>
        <time>2012-12-06T13:02:39.000Z</time>
      </trkpt>
      <trkpt lat="45.96749" lon="6.45494">
        <ele>1363.5999755859</ele>
        <time>2012-12-06T13:02:42.000Z</time>
      </trkpt>
      <trkpt lat="45.96748" lon="6.45499">
        <ele>1364.5999755859</ele>
        <time>2012-12-06T13:02:47.000Z</time>
      </trkpt>
      <trkpt lat="45.96748" lon="6.45501">
        <ele>1365.1999511719</ele>
        <time>2012-12-06T13:02:50.000Z</time>
      </trkpt>
      <trkpt lat="45.96752" lon="6.45504">
        <ele>1366.5999755859</ele>
        <time>2012-12-06T13:02:54.000Z</time>
      </trkpt>
      <trkpt lat="45.96753" lon="6.45509">
        <ele>1368</ele>
        <time>2012-12-06T13:03:00.000Z</time>
      </trkpt>
      <trkpt lat="45.96754" lon="6.45512">
        <ele>1368</ele>
        <time>2012-12-06T13:03:05.000Z</time>
      </trkpt>
      <trkpt lat="45.96754" lon="6.45515">
        <ele>1367.5999755859</ele>
        <time>2012-12-06T13:03:09.000Z</time>
      </trkpt>
      <trkpt lat="45.96755" lon="6.45522">
        <ele>1367</ele>
        <time>2012-12-06T13:03:16.000Z</time>
      </trkpt>
      <trkpt lat="45.96756" lon="6.45523">
        <ele>1367</ele>
        <time>2012-12-06T13:03:19.000Z</time>
      </trkpt>
      <trkpt lat="45.96757" lon="6.45526">
        <ele>1368</ele>
        <time>2012-12-06T13:03:23.000Z</time>
      </trkpt>
      <trkpt lat="45.96756" lon="6.45529">
        <ele>1368.4000244141</ele>
        <time>2012-12-06T13:03:26.000Z</time>
      </trkpt>
      <trkpt lat="45.96756" lon="6.45531">
        <ele>1368.4000244141</ele>
        <time>2012-12-06T13:03:30.000Z</time>
      </trkpt>
      <trkpt lat="45.96754" lon="6.45534">
        <ele>1368.4000244141</ele>
        <time>2012-12-06T13:03:33.000Z</time>
      </trkpt>
      <trkpt lat="45.96754" lon="6.45535">
        <ele>1369</ele>
        <time>2012-12-06T13:03:36.000Z</time>
      </trkpt>
      <trkpt lat="45.96756" lon="6.45539">
        <ele>1372.4000244141</ele>
        <time>2012-12-06T13:03:40.000Z</time>
      </trkpt>
      <trkpt lat="45.96758" lon="6.45542">
        <ele>1374.1999511719</ele>
        <time>2012-12-06T13:03:45.000Z</time>
      </trkpt>
      <trkpt lat="45.9676" lon="6.45543">
        <ele>1375.1999511719</ele>
        <time>2012-12-06T13:03:48.000Z</time>
      </trkpt>
      <trkpt lat="45.9676" lon="6.45547">
        <ele>1375.1999511719</ele>
        <time>2012-12-06T13:03:53.000Z</time>
      </trkpt>
      <trkpt lat="45.96762" lon="6.45548">
        <ele>1375.5999755859</ele>
        <time>2012-12-06T13:03:56.000Z</time>
      </trkpt>
      <trkpt lat="45.96762" lon="6.45551">
        <ele>1375.1999511719</ele>
        <time>2012-12-06T13:04:00.000Z</time>
      </trkpt>
      <trkpt lat="45.96762" lon="6.45554">
        <ele>1375.1999511719</ele>
        <time>2012-12-06T13:04:05.000Z</time>
      </trkpt>
      <trkpt lat="45.96763" lon="6.45555">
        <ele>1375.1999511719</ele>
        <time>2012-12-06T13:04:08.000Z</time>
      </trkpt>
      <trkpt lat="45.96763" lon="6.45558">
        <ele>1375.5999755859</ele>
        <time>2012-12-06T13:04:12.000Z</time>
      </trkpt>
      <trkpt lat="45.96763" lon="6.45561">
        <ele>1376.1999511719</ele>
        <time>2012-12-06T13:04:16.000Z</time>
      </trkpt>
      <trkpt lat="45.96763" lon="6.45564">
        <ele>1375.1999511719</ele>
        <time>2012-12-06T13:04:20.000Z</time>
      </trkpt>
      <trkpt lat="45.96763" lon="6.45567">
        <ele>1376.5999755859</ele>
        <time>2012-12-06T13:04:24.000Z</time>
      </trkpt>
      <trkpt lat="45.96764" lon="6.45571">
        <ele>1378</ele>
        <time>2012-12-06T13:04:28.000Z</time>
      </trkpt>
      <trkpt lat="45.96764" lon="6.45574">
        <ele>1380</ele>
        <time>2012-12-06T13:04:32.000Z</time>
      </trkpt>
      <trkpt lat="45.96765" lon="6.45577">
        <ele>1380</ele>
        <time>2012-12-06T13:04:39.000Z</time>
      </trkpt>
      <trkpt lat="45.96766" lon="6.45579">
        <ele>1380</ele>
        <time>2012-12-06T13:04:43.000Z</time>
      </trkpt>
      <trkpt lat="45.96767" lon="6.45582">
        <ele>1381.4000244141</ele>
        <time>2012-12-06T13:04:48.000Z</time>
      </trkpt>
      <trkpt lat="45.96769" lon="6.45588">
        <ele>1383.4000244141</ele>
        <time>2012-12-06T13:04:54.000Z</time>
      </trkpt>
      <trkpt lat="45.9677" lon="6.45592">
        <ele>1384.4000244141</ele>
        <time>2012-12-06T13:04:59.000Z</time>
      </trkpt>
      <trkpt lat="45.96771" lon="6.45595">
        <ele>1384.4000244141</ele>
        <time>2012-12-06T13:05:03.000Z</time>
      </trkpt>
      <trkpt lat="45.96772" lon="6.45598">
        <ele>1384.8000488281</ele>
        <time>2012-12-06T13:05:07.000Z</time>
      </trkpt>
      <trkpt lat="45.96771" lon="6.456">
        <ele>1386.8000488281</ele>
        <time>2012-12-06T13:05:09.000Z</time>
      </trkpt>
      <trkpt lat="45.96773" lon="6.45602">
        <ele>1387.8000488281</ele>
        <time>2012-12-06T13:05:13.000Z</time>
      </trkpt>
      <trkpt lat="45.96772" lon="6.45602">
        <ele>1386.8000488281</ele>
        <time>2012-12-06T13:05:22.000Z</time>
      </trkpt>
      <trkpt lat="45.96771" lon="6.45602">
        <ele>1385.8000488281</ele>
        <time>2012-12-06T13:05:29.000Z</time>
      </trkpt>
      <trkpt lat="45.96771" lon="6.456">
        <ele>1384.4000244141</ele>
        <time>2012-12-06T13:05:41.000Z</time>
      </trkpt>
      <trkpt lat="45.96773" lon="6.45597">
        <ele>1385.8000488281</ele>
        <time>2012-12-06T13:05:51.000Z</time>
      </trkpt>
      <trkpt lat="45.96773" lon="6.45596">
        <ele>1385.8000488281</ele>
        <time>2012-12-06T13:05:57.000Z</time>
      </trkpt>
      <trkpt lat="45.96775" lon="6.45597">
        <ele>1387.8000488281</ele>
        <time>2012-12-06T13:06:09.000Z</time>
      </trkpt>
      <trkpt lat="45.96773" lon="6.45603">
        <ele>1387.8000488281</ele>
        <time>2012-12-06T13:06:13.000Z</time>
      </trkpt>
      <trkpt lat="45.96773" lon="6.45606">
        <ele>1388.5999755859</ele>
        <time>2012-12-06T13:06:17.000Z</time>
      </trkpt>
      <trkpt lat="45.96774" lon="6.4561">
        <ele>1387.8000488281</ele>
        <time>2012-12-06T13:06:22.000Z</time>
      </trkpt>
      <trkpt lat="45.96775" lon="6.45612">
        <ele>1387.8000488281</ele>
        <time>2012-12-06T13:06:25.000Z</time>
      </trkpt>
      <trkpt lat="45.96776" lon="6.45616">
        <ele>1387.8000488281</ele>
        <time>2012-12-06T13:06:29.000Z</time>
      </trkpt>
      <trkpt lat="45.96776" lon="6.45621">
        <ele>1388.5999755859</ele>
        <time>2012-12-06T13:06:34.000Z</time>
      </trkpt>
      <trkpt lat="45.96775" lon="6.45624">
        <ele>1389.1999511719</ele>
        <time>2012-12-06T13:06:37.000Z</time>
      </trkpt>
      <trkpt lat="45.96774" lon="6.45629">
        <ele>1389.1999511719</ele>
        <time>2012-12-06T13:06:42.000Z</time>
      </trkpt>
      <trkpt lat="45.96774" lon="6.45634">
        <ele>1388.5999755859</ele>
        <time>2012-12-06T13:06:46.000Z</time>
      </trkpt>
      <trkpt lat="45.96775" lon="6.45639">
        <ele>1389.5999755859</ele>
        <time>2012-12-06T13:06:50.000Z</time>
      </trkpt>
      <trkpt lat="45.96773" lon="6.45645">
        <ele>1389.5999755859</ele>
        <time>2012-12-06T13:06:56.000Z</time>
      </trkpt>
      <trkpt lat="45.96772" lon="6.4565">
        <ele>1390.1999511719</ele>
        <time>2012-12-06T13:07:00.000Z</time>
      </trkpt>
      <trkpt lat="45.9677" lon="6.45655">
        <ele>1390.1999511719</ele>
        <time>2012-12-06T13:07:05.000Z</time>
      </trkpt>
      <trkpt lat="45.96769" lon="6.45657">
        <ele>1389.5999755859</ele>
        <time>2012-12-06T13:07:06.000Z</time>
      </trkpt>
      <trkpt lat="45.96766" lon="6.4566">
        <ele>1390.5999755859</ele>
        <time>2012-12-06T13:07:10.000Z</time>
      </trkpt>
      <trkpt lat="45.96767" lon="6.45663">
        <ele>1392</ele>
        <time>2012-12-06T13:07:14.000Z</time>
      </trkpt>
      <trkpt lat="45.96768" lon="6.45666">
        <ele>1393.4000244141</ele>
        <time>2012-12-06T13:07:18.000Z</time>
      </trkpt>
      <trkpt lat="45.9677" lon="6.45672">
        <ele>1395.4000244141</ele>
        <time>2012-12-06T13:07:24.000Z</time>
      </trkpt>
      <trkpt lat="45.9677" lon="6.45677">
        <ele>1396.8000488281</ele>
        <time>2012-12-06T13:07:29.000Z</time>
      </trkpt>
      <trkpt lat="45.9677" lon="6.45682">
        <ele>1396.8000488281</ele>
        <time>2012-12-06T13:07:34.000Z</time>
      </trkpt>
      <trkpt lat="45.9677" lon="6.45685">
        <ele>1396.8000488281</ele>
        <time>2012-12-06T13:07:38.000Z</time>
      </trkpt>
      <trkpt lat="45.9677" lon="6.4569">
        <ele>1397.4000244141</ele>
        <time>2012-12-06T13:07:43.000Z</time>
      </trkpt>
      <trkpt lat="45.9677" lon="6.45695">
        <ele>1397.8000488281</ele>
        <time>2012-12-06T13:07:47.000Z</time>
      </trkpt>
      <trkpt lat="45.96768" lon="6.457">
        <ele>1397.8000488281</ele>
        <time>2012-12-06T13:07:52.000Z</time>
      </trkpt>
      <trkpt lat="45.96766" lon="6.45706">
        <ele>1398.1999511719</ele>
        <time>2012-12-06T13:07:58.000Z</time>
      </trkpt>
      <trkpt lat="45.96765" lon="6.4571">
        <ele>1399.1999511719</ele>
        <time>2012-12-06T13:08:03.000Z</time>
      </trkpt>
      <trkpt lat="45.96763" lon="6.4571">
        <ele>1399.8000488281</ele>
        <time>2012-12-06T13:08:07.000Z</time>
      </trkpt>
      <trkpt lat="45.9676" lon="6.45712">
        <ele>1400.1999511719</ele>
        <time>2012-12-06T13:08:11.000Z</time>
      </trkpt>
      <trkpt lat="45.96756" lon="6.45713">
        <ele>1401.5999755859</ele>
        <time>2012-12-06T13:08:16.000Z</time>
      </trkpt>
      <trkpt lat="45.96754" lon="6.45713">
        <ele>1404</ele>
        <time>2012-12-06T13:08:19.000Z</time>
      </trkpt>
      <trkpt lat="45.96751" lon="6.45714">
        <ele>1406.4000244141</ele>
        <time>2012-12-06T13:08:23.000Z</time>
      </trkpt>
      <trkpt lat="45.9675" lon="6.45719">
        <ele>1407.8000488281</ele>
        <time>2012-12-06T13:08:26.000Z</time>
      </trkpt>
      <trkpt lat="45.96746" lon="6.45721">
        <ele>1411.8000488281</ele>
        <time>2012-12-06T13:08:31.000Z</time>
      </trkpt>
      <trkpt lat="45.96743" lon="6.45725">
        <ele>1416</ele>
        <time>2012-12-06T13:08:36.000Z</time>
      </trkpt>
      <trkpt lat="45.96741" lon="6.45726">
        <ele>1417.5999755859</ele>
        <time>2012-12-06T13:08:39.000Z</time>
      </trkpt>
      <trkpt lat="45.96739" lon="6.45731">
        <ele>1417.5999755859</ele>
        <time>2012-12-06T13:08:44.000Z</time>
      </trkpt>
      <trkpt lat="45.96738" lon="6.45733">
        <ele>1417.5999755859</ele>
        <time>2012-12-06T13:08:48.000Z</time>
      </trkpt>
      <trkpt lat="45.96736" lon="6.45739">
        <ele>1417</ele>
        <time>2012-12-06T13:08:54.000Z</time>
      </trkpt>
      <trkpt lat="45.96737" lon="6.45742">
        <ele>1416</ele>
        <time>2012-12-06T13:08:58.000Z</time>
      </trkpt>
      <trkpt lat="45.96738" lon="6.45745">
        <ele>1415.5999755859</ele>
        <time>2012-12-06T13:09:02.000Z</time>
      </trkpt>
      <trkpt lat="45.96739" lon="6.45749">
        <ele>1415</ele>
        <time>2012-12-06T13:09:06.000Z</time>
      </trkpt>
      <trkpt lat="45.96741" lon="6.45754">
        <ele>1415</ele>
        <time>2012-12-06T13:09:11.000Z</time>
      </trkpt>
      <trkpt lat="45.96741" lon="6.45759">
        <ele>1416</ele>
        <time>2012-12-06T13:09:15.000Z</time>
      </trkpt>
      <trkpt lat="45.96741" lon="6.45762">
        <ele>1415.5999755859</ele>
        <time>2012-12-06T13:09:19.000Z</time>
      </trkpt>
      <trkpt lat="45.9674" lon="6.45767">
        <ele>1416</ele>
        <time>2012-12-06T13:09:24.000Z</time>
      </trkpt>
      <trkpt lat="45.96739" lon="6.45771">
        <ele>1417</ele>
        <time>2012-12-06T13:09:29.000Z</time>
      </trkpt>
      <trkpt lat="45.96738" lon="6.45776">
        <ele>1418.4000244141</ele>
        <time>2012-12-06T13:09:35.000Z</time>
      </trkpt>
      <trkpt lat="45.96737" lon="6.4578">
        <ele>1419</ele>
        <time>2012-12-06T13:09:39.000Z</time>
      </trkpt>
      <trkpt lat="45.96739" lon="6.45783">
        <ele>1420</ele>
        <time>2012-12-06T13:09:43.000Z</time>
      </trkpt>
      <trkpt lat="45.96738" lon="6.45786">
        <ele>1420</ele>
        <time>2012-12-06T13:09:47.000Z</time>
      </trkpt>
      <trkpt lat="45.96735" lon="6.4579">
        <ele>1420.8000488281</ele>
        <time>2012-12-06T13:09:51.000Z</time>
      </trkpt>
      <trkpt lat="45.96732" lon="6.45792">
        <ele>1421.4000244141</ele>
        <time>2012-12-06T13:09:55.000Z</time>
      </trkpt>
      <trkpt lat="45.96731" lon="6.45792">
        <ele>1421.8000488281</ele>
        <time>2012-12-06T13:09:57.000Z</time>
      </trkpt>
      <trkpt lat="45.96734" lon="6.45799">
        <ele>1422.8000488281</ele>
        <time>2012-12-06T13:10:02.000Z</time>
      </trkpt>
      <trkpt lat="45.96734" lon="6.45801">
        <ele>1423.8000488281</ele>
        <time>2012-12-06T13:10:06.000Z</time>
      </trkpt>
      <trkpt lat="45.96735" lon="6.45805">
        <ele>1425.5999755859</ele>
        <time>2012-12-06T13:10:11.000Z</time>
      </trkpt>
      <trkpt lat="45.96735" lon="6.45806">
        <ele>1425.1999511719</ele>
        <time>2012-12-06T13:10:18.000Z</time>
      </trkpt>
      <trkpt lat="45.96734" lon="6.4581">
        <ele>1425.5999755859</ele>
        <time>2012-12-06T13:10:22.000Z</time>
      </trkpt>
      <trkpt lat="45.96734" lon="6.45813">
        <ele>1425.5999755859</ele>
        <time>2012-12-06T13:10:25.000Z</time>
      </trkpt>
      <trkpt lat="45.96735" lon="6.45817">
        <ele>1425.5999755859</ele>
        <time>2012-12-06T13:10:30.000Z</time>
      </trkpt>
      <trkpt lat="45.96735" lon="6.45822">
        <ele>1425.5999755859</ele>
        <time>2012-12-06T13:10:34.000Z</time>
      </trkpt>
      <trkpt lat="45.96735" lon="6.45829">
        <ele>1426.5999755859</ele>
        <time>2012-12-06T13:10:40.000Z</time>
      </trkpt>
      <trkpt lat="45.96735" lon="6.45832">
        <ele>1428</ele>
        <time>2012-12-06T13:10:44.000Z</time>
      </trkpt>
      <trkpt lat="45.96735" lon="6.45836">
        <ele>1429.5999755859</ele>
        <time>2012-12-06T13:10:49.000Z</time>
      </trkpt>
      <trkpt lat="45.96735" lon="6.45839">
        <ele>1430.4000244141</ele>
        <time>2012-12-06T13:10:53.000Z</time>
      </trkpt>
      <trkpt lat="45.96735" lon="6.45842">
        <ele>1431.4000244141</ele>
        <time>2012-12-06T13:10:57.000Z</time>
      </trkpt>
      <trkpt lat="45.96735" lon="6.45844">
        <ele>1431.4000244141</ele>
        <time>2012-12-06T13:11:00.000Z</time>
      </trkpt>
      <trkpt lat="45.96737" lon="6.45843">
        <ele>1431.4000244141</ele>
        <time>2012-12-06T13:11:04.000Z</time>
      </trkpt>
      <trkpt lat="45.96738" lon="6.45844">
        <ele>1431.4000244141</ele>
        <time>2012-12-06T13:11:10.000Z</time>
      </trkpt>
      <trkpt lat="45.96738" lon="6.4585">
        <ele>1432</ele>
        <time>2012-12-06T13:11:16.000Z</time>
      </trkpt>
      <trkpt lat="45.96735" lon="6.45854">
        <ele>1433.4000244141</ele>
        <time>2012-12-06T13:11:22.000Z</time>
      </trkpt>
      <trkpt lat="45.96731" lon="6.45854">
        <ele>1433.8000488281</ele>
        <time>2012-12-06T13:11:26.000Z</time>
      </trkpt>
      <trkpt lat="45.96727" lon="6.45855">
        <ele>1434.8000488281</ele>
        <time>2012-12-06T13:11:30.000Z</time>
      </trkpt>
      <trkpt lat="45.96726" lon="6.45855">
        <ele>1435.1999511719</ele>
        <time>2012-12-06T13:11:31.000Z</time>
      </trkpt>
      <trkpt lat="45.96718" lon="6.45857">
        <ele>1436.8000488281</ele>
        <time>2012-12-06T13:11:37.000Z</time>
      </trkpt>
      <trkpt lat="45.96715" lon="6.45858">
        <ele>1438.1999511719</ele>
        <time>2012-12-06T13:11:41.000Z</time>
      </trkpt>
      <trkpt lat="45.96709" lon="6.45861">
        <ele>1440.5999755859</ele>
        <time>2012-12-06T13:11:46.000Z</time>
      </trkpt>
      <trkpt lat="45.96699" lon="6.45869">
        <ele>1442.4000244141</ele>
        <time>2012-12-06T13:11:53.000Z</time>
      </trkpt>
      <trkpt lat="45.96692" lon="6.45874">
        <ele>1443</ele>
        <time>2012-12-06T13:11:58.000Z</time>
      </trkpt>
      <trkpt lat="45.96689" lon="6.45875">
        <ele>1443</ele>
        <time>2012-12-06T13:12:00.000Z</time>
      </trkpt>
      <trkpt lat="45.96684" lon="6.45877">
        <ele>1444</ele>
        <time>2012-12-06T13:12:04.000Z</time>
      </trkpt>
      <trkpt lat="45.96677" lon="6.45882">
        <ele>1446.4000244141</ele>
        <time>2012-12-06T13:12:11.000Z</time>
      </trkpt>
      <trkpt lat="45.9667" lon="6.45888">
        <ele>1449.1999511719</ele>
        <time>2012-12-06T13:12:17.000Z</time>
      </trkpt>
      <trkpt lat="45.96669" lon="6.45888">
        <ele>1449.1999511719</ele>
        <time>2012-12-06T13:12:18.000Z</time>
      </trkpt>
      <trkpt lat="45.96663" lon="6.45891">
        <ele>1452.1999511719</ele>
        <time>2012-12-06T13:12:24.000Z</time>
      </trkpt>
      <trkpt lat="45.96662" lon="6.45891">
        <ele>1452.5999755859</ele>
        <time>2012-12-06T13:12:26.000Z</time>
      </trkpt>
      <trkpt lat="45.96656" lon="6.45892">
        <ele>1455.4000244141</ele>
        <time>2012-12-06T13:12:32.000Z</time>
      </trkpt>
      <trkpt lat="45.96651" lon="6.45893">
        <ele>1457.4000244141</ele>
        <time>2012-12-06T13:12:37.000Z</time>
      </trkpt>
      <trkpt lat="45.96647" lon="6.45894">
        <ele>1457.8000488281</ele>
        <time>2012-12-06T13:12:42.000Z</time>
      </trkpt>
      <trkpt lat="45.96643" lon="6.45895">
        <ele>1459.4000244141</ele>
        <time>2012-12-06T13:12:47.000Z</time>
      </trkpt>
      <trkpt lat="45.96638" lon="6.45898">
        <ele>1461.8000488281</ele>
        <time>2012-12-06T13:12:53.000Z</time>
      </trkpt>
      <trkpt lat="45.96634" lon="6.459">
        <ele>1462.5999755859</ele>
        <time>2012-12-06T13:12:57.000Z</time>
      </trkpt>
      <trkpt lat="45.9663" lon="6.45902">
        <ele>1464.1999511719</ele>
        <time>2012-12-06T13:13:02.000Z</time>
      </trkpt>
      <trkpt lat="45.96627" lon="6.45905">
        <ele>1465.5999755859</ele>
        <time>2012-12-06T13:13:07.000Z</time>
      </trkpt>
      <trkpt lat="45.96624" lon="6.45908">
        <ele>1466</ele>
        <time>2012-12-06T13:13:11.000Z</time>
      </trkpt>
      <trkpt lat="45.96621" lon="6.45912">
        <ele>1466</ele>
        <time>2012-12-06T13:13:15.000Z</time>
      </trkpt>
      <trkpt lat="45.96618" lon="6.45916">
        <ele>1465.5999755859</ele>
        <time>2012-12-06T13:13:20.000Z</time>
      </trkpt>
      <trkpt lat="45.96616" lon="6.4592">
        <ele>1466</ele>
        <time>2012-12-06T13:13:25.000Z</time>
      </trkpt>
      <trkpt lat="45.96614" lon="6.45926">
        <ele>1467.4000244141</ele>
        <time>2012-12-06T13:13:31.000Z</time>
      </trkpt>
      <trkpt lat="45.96611" lon="6.45934">
        <ele>1468.4000244141</ele>
        <time>2012-12-06T13:13:37.000Z</time>
      </trkpt>
      <trkpt lat="45.9661" lon="6.45937">
        <ele>1469</ele>
        <time>2012-12-06T13:13:39.000Z</time>
      </trkpt>
      <trkpt lat="45.96607" lon="6.45944">
        <ele>1469.4000244141</ele>
        <time>2012-12-06T13:13:44.000Z</time>
      </trkpt>
      <trkpt lat="45.96604" lon="6.45954">
        <ele>1469.4000244141</ele>
        <time>2012-12-06T13:13:50.000Z</time>
      </trkpt>
      <trkpt lat="45.96601" lon="6.45962">
        <ele>1469.8000488281</ele>
        <time>2012-12-06T13:13:56.000Z</time>
      </trkpt>
      <trkpt lat="45.96597" lon="6.45972">
        <ele>1471.4000244141</ele>
        <time>2012-12-06T13:14:02.000Z</time>
      </trkpt>
      <trkpt lat="45.96594" lon="6.45981">
        <ele>1473.1999511719</ele>
        <time>2012-12-06T13:14:09.000Z</time>
      </trkpt>
      <trkpt lat="45.96591" lon="6.45988">
        <ele>1475.5999755859</ele>
        <time>2012-12-06T13:14:15.000Z</time>
      </trkpt>
      <trkpt lat="45.96588" lon="6.45994">
        <ele>1476.5999755859</ele>
        <time>2012-12-06T13:14:20.000Z</time>
      </trkpt>
      <trkpt lat="45.96586" lon="6.46001">
        <ele>1478.5999755859</ele>
        <time>2012-12-06T13:14:25.000Z</time>
      </trkpt>
      <trkpt lat="45.96583" lon="6.46007">
        <ele>1480</ele>
        <time>2012-12-06T13:14:30.000Z</time>
      </trkpt>
      <trkpt lat="45.96581" lon="6.46014">
        <ele>1481</ele>
        <time>2012-12-06T13:14:35.000Z</time>
      </trkpt>
      <trkpt lat="45.96578" lon="6.46019">
        <ele>1482</ele>
        <time>2012-12-06T13:14:41.000Z</time>
      </trkpt>
      <trkpt lat="45.96574" lon="6.46026">
        <ele>1482.8000488281</ele>
        <time>2012-12-06T13:14:47.000Z</time>
      </trkpt>
      <trkpt lat="45.9657" lon="6.46027">
        <ele>1483.8000488281</ele>
        <time>2012-12-06T13:14:51.000Z</time>
      </trkpt>
      <trkpt lat="45.96565" lon="6.46027">
        <ele>1485.1999511719</ele>
        <time>2012-12-06T13:14:55.000Z</time>
      </trkpt>
      <trkpt lat="45.9656" lon="6.46028">
        <ele>1486.1999511719</ele>
        <time>2012-12-06T13:15:00.000Z</time>
      </trkpt>
      <trkpt lat="45.96554" lon="6.46031">
        <ele>1489.1999511719</ele>
        <time>2012-12-06T13:15:05.000Z</time>
      </trkpt>
      <trkpt lat="45.96552" lon="6.46032">
        <ele>1489.5999755859</ele>
        <time>2012-12-06T13:15:07.000Z</time>
      </trkpt>
      <trkpt lat="45.96546" lon="6.46036">
        <ele>1491</ele>
        <time>2012-12-06T13:15:12.000Z</time>
      </trkpt>
      <trkpt lat="45.96541" lon="6.46038">
        <ele>1492</ele>
        <time>2012-12-06T13:15:16.000Z</time>
      </trkpt>
      <trkpt lat="45.96534" lon="6.46037">
        <ele>1491.5999755859</ele>
        <time>2012-12-06T13:15:22.000Z</time>
      </trkpt>
      <trkpt lat="45.96528" lon="6.46042">
        <ele>1491</ele>
        <time>2012-12-06T13:15:27.000Z</time>
      </trkpt>
      <trkpt lat="45.96523" lon="6.46046">
        <ele>1491.5999755859</ele>
        <time>2012-12-06T13:15:32.000Z</time>
      </trkpt>
      <trkpt lat="45.96517" lon="6.46054">
        <ele>1492.4000244141</ele>
        <time>2012-12-06T13:15:38.000Z</time>
      </trkpt>
      <trkpt lat="45.96514" lon="6.46057">
        <ele>1493</ele>
        <time>2012-12-06T13:15:41.000Z</time>
      </trkpt>
      <trkpt lat="45.96509" lon="6.46062">
        <ele>1494.4000244141</ele>
        <time>2012-12-06T13:15:48.000Z</time>
      </trkpt>
      <trkpt lat="45.96506" lon="6.46062">
        <ele>1495.4000244141</ele>
        <time>2012-12-06T13:15:51.000Z</time>
      </trkpt>
      <trkpt lat="45.96504" lon="6.46062">
        <ele>1495.4000244141</ele>
        <time>2012-12-06T13:15:54.000Z</time>
      </trkpt>
      <trkpt lat="45.96502" lon="6.46067">
        <ele>1495.8000488281</ele>
        <time>2012-12-06T13:15:59.000Z</time>
      </trkpt>
      <trkpt lat="45.96498" lon="6.46073">
        <ele>1496.8000488281</ele>
        <time>2012-12-06T13:16:05.000Z</time>
      </trkpt>
      <trkpt lat="45.96496" lon="6.46076">
        <ele>1497.1999511719</ele>
        <time>2012-12-06T13:16:08.000Z</time>
      </trkpt>
      <trkpt lat="45.96493" lon="6.46082">
        <ele>1497.8000488281</ele>
        <time>2012-12-06T13:16:12.000Z</time>
      </trkpt>
      <trkpt lat="45.96488" lon="6.46087">
        <ele>1497.8000488281</ele>
        <time>2012-12-06T13:16:17.000Z</time>
      </trkpt>
      <trkpt lat="45.96482" lon="6.46092">
        <ele>1496.4000244141</ele>
        <time>2012-12-06T13:16:22.000Z</time>
      </trkpt>
      <trkpt lat="45.96477" lon="6.46094">
        <ele>1494.8000488281</ele>
        <time>2012-12-06T13:16:27.000Z</time>
      </trkpt>
      <trkpt lat="45.96471" lon="6.46102">
        <ele>1495.8000488281</ele>
        <time>2012-12-06T13:16:35.000Z</time>
      </trkpt>
      <trkpt lat="45.96468" lon="6.46108">
        <ele>1497.8000488281</ele>
        <time>2012-12-06T13:16:41.000Z</time>
      </trkpt>
      <trkpt lat="45.96465" lon="6.46109">
        <ele>1498.8000488281</ele>
        <time>2012-12-06T13:16:48.000Z</time>
      </trkpt>
      <trkpt lat="45.96464" lon="6.4611">
        <ele>1498.8000488281</ele>
        <time>2012-12-06T13:16:51.000Z</time>
      </trkpt>
      <trkpt lat="45.96463" lon="6.46115">
        <ele>1499.5999755859</ele>
        <time>2012-12-06T13:16:55.000Z</time>
      </trkpt>
      <trkpt lat="45.9646" lon="6.46117">
        <ele>1502</ele>
        <time>2012-12-06T13:17:01.000Z</time>
      </trkpt>
      <trkpt lat="45.96458" lon="6.46118">
        <ele>1502.5999755859</ele>
        <time>2012-12-06T13:17:04.000Z</time>
      </trkpt>
      <trkpt lat="45.96457" lon="6.4612">
        <ele>1503.5999755859</ele>
        <time>2012-12-06T13:17:08.000Z</time>
      </trkpt>
      <trkpt lat="45.96458" lon="6.4612">
        <ele>1504</ele>
        <time>2012-12-06T13:17:12.000Z</time>
      </trkpt>
      <trkpt lat="45.96459" lon="6.46121">
        <ele>1503</ele>
        <time>2012-12-06T13:17:21.000Z</time>
      </trkpt>
      <trkpt lat="45.96458" lon="6.46125">
        <ele>1504</ele>
        <time>2012-12-06T13:17:27.000Z</time>
      </trkpt>
      <trkpt lat="45.96456" lon="6.46128">
        <ele>1505</ele>
        <time>2012-12-06T13:17:32.000Z</time>
      </trkpt>
      <trkpt lat="45.96455" lon="6.4613">
        <ele>1505.4000244141</ele>
        <time>2012-12-06T13:17:36.000Z</time>
      </trkpt>
      <trkpt lat="45.96453" lon="6.46134">
        <ele>1506</ele>
        <time>2012-12-06T13:17:40.000Z</time>
      </trkpt>
      <trkpt lat="45.96451" lon="6.46138">
        <ele>1506.4000244141</ele>
        <time>2012-12-06T13:17:45.000Z</time>
      </trkpt>
      <trkpt lat="45.96449" lon="6.46142">
        <ele>1507.4000244141</ele>
        <time>2012-12-06T13:17:51.000Z</time>
      </trkpt>
      <trkpt lat="45.96448" lon="6.46147">
        <ele>1508.4000244141</ele>
        <time>2012-12-06T13:17:55.000Z</time>
      </trkpt>
      <trkpt lat="45.96447" lon="6.46152">
        <ele>1507.8000488281</ele>
        <time>2012-12-06T13:18:01.000Z</time>
      </trkpt>
      <trkpt lat="45.96446" lon="6.46155">
        <ele>1508.4000244141</ele>
        <time>2012-12-06T13:18:05.000Z</time>
      </trkpt>
      <trkpt lat="45.96446" lon="6.46157">
        <ele>1509.4000244141</ele>
        <time>2012-12-06T13:18:10.000Z</time>
      </trkpt>
      <trkpt lat="45.9645" lon="6.4616">
        <ele>1511.1999511719</ele>
        <time>2012-12-06T13:18:16.000Z</time>
      </trkpt>
      <trkpt lat="45.96453" lon="6.46161">
        <ele>1512.1999511719</ele>
        <time>2012-12-06T13:18:20.000Z</time>
      </trkpt>
      <trkpt lat="45.96456" lon="6.46162">
        <ele>1513.5999755859</ele>
        <time>2012-12-06T13:18:24.000Z</time>
      </trkpt>
      <trkpt lat="45.96459" lon="6.46164">
        <ele>1514.5999755859</ele>
        <time>2012-12-06T13:18:28.000Z</time>
      </trkpt>
      <trkpt lat="45.96463" lon="6.46167">
        <ele>1516</ele>
        <time>2012-12-06T13:18:34.000Z</time>
      </trkpt>
      <trkpt lat="45.96467" lon="6.46171">
        <ele>1516.5999755859</ele>
        <time>2012-12-06T13:18:40.000Z</time>
      </trkpt>
      <trkpt lat="45.96471" lon="6.46176">
        <ele>1517</ele>
        <time>2012-12-06T13:18:46.000Z</time>
      </trkpt>
      <trkpt lat="45.96475" lon="6.46183">
        <ele>1517.4000244141</ele>
        <time>2012-12-06T13:18:52.000Z</time>
      </trkpt>
      <trkpt lat="45.96477" lon="6.46188">
        <ele>1518.4000244141</ele>
        <time>2012-12-06T13:18:57.000Z</time>
      </trkpt>
      <trkpt lat="45.96478" lon="6.4619">
        <ele>1518.4000244141</ele>
        <time>2012-12-06T13:18:58.000Z</time>
      </trkpt>
      <trkpt lat="45.9648" lon="6.46197">
        <ele>1519.8000488281</ele>
        <time>2012-12-06T13:19:04.000Z</time>
      </trkpt>
      <trkpt lat="45.96481" lon="6.46207">
        <ele>1521.8000488281</ele>
        <time>2012-12-06T13:19:10.000Z</time>
      </trkpt>
      <trkpt lat="45.96481" lon="6.46211">
        <ele>1523.8000488281</ele>
        <time>2012-12-06T13:19:14.000Z</time>
      </trkpt>
      <trkpt lat="45.96481" lon="6.46216">
        <ele>1525.5999755859</ele>
        <time>2012-12-06T13:19:18.000Z</time>
      </trkpt>
      <trkpt lat="45.9648" lon="6.46222">
        <ele>1527</ele>
        <time>2012-12-06T13:19:23.000Z</time>
      </trkpt>
      <trkpt lat="45.96479" lon="6.46228">
        <ele>1528.5999755859</ele>
        <time>2012-12-06T13:19:29.000Z</time>
      </trkpt>
      <trkpt lat="45.96479" lon="6.4623">
        <ele>1529.4000244141</ele>
        <time>2012-12-06T13:19:32.000Z</time>
      </trkpt>
      <trkpt lat="45.96478" lon="6.46235">
        <ele>1531</ele>
        <time>2012-12-06T13:19:37.000Z</time>
      </trkpt>
      <trkpt lat="45.96477" lon="6.46238">
        <ele>1532.4000244141</ele>
        <time>2012-12-06T13:19:41.000Z</time>
      </trkpt>
      <trkpt lat="45.96475" lon="6.46243">
        <ele>1533.8000488281</ele>
        <time>2012-12-06T13:19:47.000Z</time>
      </trkpt>
      <trkpt lat="45.96475" lon="6.46245">
        <ele>1535.1999511719</ele>
        <time>2012-12-06T13:19:50.000Z</time>
      </trkpt>
      <trkpt lat="45.96473" lon="6.46248">
        <ele>1535.8000488281</ele>
        <time>2012-12-06T13:19:53.000Z</time>
      </trkpt>
      <trkpt lat="45.96472" lon="6.4625">
        <ele>1536.1999511719</ele>
        <time>2012-12-06T13:19:56.000Z</time>
      </trkpt>
      <trkpt lat="45.96471" lon="6.46253">
        <ele>1537.1999511719</ele>
        <time>2012-12-06T13:20:00.000Z</time>
      </trkpt>
      <trkpt lat="45.96471" lon="6.46254">
        <ele>1537.5999755859</ele>
        <time>2012-12-06T13:20:06.000Z</time>
      </trkpt>
      <trkpt lat="45.96471" lon="6.46253">
        <ele>1537.1999511719</ele>
        <time>2012-12-06T13:20:16.000Z</time>
      </trkpt>
      <trkpt lat="45.96469" lon="6.46256">
        <ele>1538.5999755859</ele>
        <time>2012-12-06T13:20:21.000Z</time>
      </trkpt>
      <trkpt lat="45.96468" lon="6.46259">
        <ele>1539.1999511719</ele>
        <time>2012-12-06T13:20:24.000Z</time>
      </trkpt>
      <trkpt lat="45.96467" lon="6.46262">
        <ele>1541</ele>
        <time>2012-12-06T13:20:29.000Z</time>
      </trkpt>
      <trkpt lat="45.96466" lon="6.46265">
        <ele>1542.4000244141</ele>
        <time>2012-12-06T13:20:33.000Z</time>
      </trkpt>
      <trkpt lat="45.96465" lon="6.46267">
        <ele>1543.4000244141</ele>
        <time>2012-12-06T13:20:37.000Z</time>
      </trkpt>
      <trkpt lat="45.96463" lon="6.4627">
        <ele>1544.8000488281</ele>
        <time>2012-12-06T13:20:42.000Z</time>
      </trkpt>
      <trkpt lat="45.9646" lon="6.46274">
        <ele>1545.8000488281</ele>
        <time>2012-12-06T13:20:48.000Z</time>
      </trkpt>
      <trkpt lat="45.96458" lon="6.46277">
        <ele>1546.4000244141</ele>
        <time>2012-12-06T13:20:51.000Z</time>
      </trkpt>
      <trkpt lat="45.96456" lon="6.46279">
        <ele>1547.1999511719</ele>
        <time>2012-12-06T13:20:58.000Z</time>
      </trkpt>
      <trkpt lat="45.96455" lon="6.46283">
        <ele>1549.1999511719</ele>
        <time>2012-12-06T13:21:03.000Z</time>
      </trkpt>
      <trkpt lat="45.96454" lon="6.4629">
        <ele>1550.5999755859</ele>
        <time>2012-12-06T13:21:10.000Z</time>
      </trkpt>
      <trkpt lat="45.96453" lon="6.46294">
        <ele>1551.5999755859</ele>
        <time>2012-12-06T13:21:14.000Z</time>
      </trkpt>
      <trkpt lat="45.96452" lon="6.463">
        <ele>1553.5999755859</ele>
        <time>2012-12-06T13:21:19.000Z</time>
      </trkpt>
      <trkpt lat="45.96449" lon="6.46307">
        <ele>1555.4000244141</ele>
        <time>2012-12-06T13:21:26.000Z</time>
      </trkpt>
      <trkpt lat="45.96445" lon="6.46313">
        <ele>1557.4000244141</ele>
        <time>2012-12-06T13:21:32.000Z</time>
      </trkpt>
      <trkpt lat="45.96443" lon="6.46316">
        <ele>1557.4000244141</ele>
        <time>2012-12-06T13:21:36.000Z</time>
      </trkpt>
      <trkpt lat="45.96442" lon="6.46317">
        <ele>1558.8000488281</ele>
        <time>2012-12-06T13:21:41.000Z</time>
      </trkpt>
      <trkpt lat="45.96439" lon="6.46319">
        <ele>1559.1999511719</ele>
        <time>2012-12-06T13:21:45.000Z</time>
      </trkpt>
      <trkpt lat="45.96438" lon="6.46322">
        <ele>1560.1999511719</ele>
        <time>2012-12-06T13:21:49.000Z</time>
      </trkpt>
      <trkpt lat="45.96441" lon="6.46326">
        <ele>1562.1999511719</ele>
        <time>2012-12-06T13:21:53.000Z</time>
      </trkpt>
      <trkpt lat="45.9644" lon="6.46329">
        <ele>1563.5999755859</ele>
        <time>2012-12-06T13:21:57.000Z</time>
      </trkpt>
      <trkpt lat="45.96436" lon="6.46334">
        <ele>1564.5999755859</ele>
        <time>2012-12-06T13:22:02.000Z</time>
      </trkpt>
      <trkpt lat="45.96433" lon="6.46337">
        <ele>1565.5999755859</ele>
        <time>2012-12-06T13:22:08.000Z</time>
      </trkpt>
      <trkpt lat="45.9643" lon="6.46339">
        <ele>1566</ele>
        <time>2012-12-06T13:22:11.000Z</time>
      </trkpt>
      <trkpt lat="45.96428" lon="6.46341">
        <ele>1567</ele>
        <time>2012-12-06T13:22:16.000Z</time>
      </trkpt>
      <trkpt lat="45.96424" lon="6.46345">
        <ele>1568</ele>
        <time>2012-12-06T13:22:22.000Z</time>
      </trkpt>
      <trkpt lat="45.9642" lon="6.46346">
        <ele>1569.4000244141</ele>
        <time>2012-12-06T13:22:27.000Z</time>
      </trkpt>
      <trkpt lat="45.96417" lon="6.46348">
        <ele>1570.4000244141</ele>
        <time>2012-12-06T13:22:31.000Z</time>
      </trkpt>
      <trkpt lat="45.96414" lon="6.4635">
        <ele>1571.8000488281</ele>
        <time>2012-12-06T13:22:37.000Z</time>
      </trkpt>
      <trkpt lat="45.96414" lon="6.46354">
        <ele>1572.8000488281</ele>
        <time>2012-12-06T13:22:39.000Z</time>
      </trkpt>
      <trkpt lat="45.96411" lon="6.46359">
        <ele>1573.8000488281</ele>
        <time>2012-12-06T13:22:44.000Z</time>
      </trkpt>
      <trkpt lat="45.96409" lon="6.46361">
        <ele>1574.5999755859</ele>
        <time>2012-12-06T13:22:47.000Z</time>
      </trkpt>
      <trkpt lat="45.96403" lon="6.46363">
        <ele>1576.1999511719</ele>
        <time>2012-12-06T13:22:54.000Z</time>
      </trkpt>
      <trkpt lat="45.96397" lon="6.46365">
        <ele>1577.5999755859</ele>
        <time>2012-12-06T13:23:00.000Z</time>
      </trkpt>
      <trkpt lat="45.96392" lon="6.46369">
        <ele>1578</ele>
        <time>2012-12-06T13:23:06.000Z</time>
      </trkpt>
      <trkpt lat="45.96384" lon="6.46377">
        <ele>1579</ele>
        <time>2012-12-06T13:23:13.000Z</time>
      </trkpt>
      <trkpt lat="45.96378" lon="6.46382">
        <ele>1580</ele>
        <time>2012-12-06T13:23:19.000Z</time>
      </trkpt>
      <trkpt lat="45.9637" lon="6.4639">
        <ele>1580</ele>
        <time>2012-12-06T13:23:25.000Z</time>
      </trkpt>
      <trkpt lat="45.96364" lon="6.46397">
        <ele>1580</ele>
        <time>2012-12-06T13:23:31.000Z</time>
      </trkpt>
      <trkpt lat="45.96357" lon="6.46405">
        <ele>1580.4000244141</ele>
        <time>2012-12-06T13:23:37.000Z</time>
      </trkpt>
      <trkpt lat="45.96351" lon="6.46411">
        <ele>1580.4000244141</ele>
        <time>2012-12-06T13:23:41.000Z</time>
      </trkpt>
      <trkpt lat="45.96346" lon="6.46414">
        <ele>1580.4000244141</ele>
        <time>2012-12-06T13:23:45.000Z</time>
      </trkpt>
      <trkpt lat="45.96339" lon="6.4642">
        <ele>1581.4000244141</ele>
        <time>2012-12-06T13:23:51.000Z</time>
      </trkpt>
      <trkpt lat="45.96334" lon="6.46423">
        <ele>1582.8000488281</ele>
        <time>2012-12-06T13:23:57.000Z</time>
      </trkpt>
      <trkpt lat="45.96327" lon="6.46427">
        <ele>1585.1999511719</ele>
        <time>2012-12-06T13:24:03.000Z</time>
      </trkpt>
      <trkpt lat="45.96322" lon="6.46428">
        <ele>1587.1999511719</ele>
        <time>2012-12-06T13:24:09.000Z</time>
      </trkpt>
      <trkpt lat="45.96319" lon="6.46428">
        <ele>1587.5999755859</ele>
        <time>2012-12-06T13:24:13.000Z</time>
      </trkpt>
      <trkpt lat="45.96314" lon="6.46428">
        <ele>1588.1999511719</ele>
        <time>2012-12-06T13:24:18.000Z</time>
      </trkpt>
      <trkpt lat="45.96308" lon="6.46428">
        <ele>1589.5999755859</ele>
        <time>2012-12-06T13:24:24.000Z</time>
      </trkpt>
      <trkpt lat="45.96303" lon="6.46429">
        <ele>1592</ele>
        <time>2012-12-06T13:24:30.000Z</time>
      </trkpt>
      <trkpt lat="45.96298" lon="6.4643">
        <ele>1593.4000244141</ele>
        <time>2012-12-06T13:24:36.000Z</time>
      </trkpt>
      <trkpt lat="45.96295" lon="6.46431">
        <ele>1594.8000488281</ele>
        <time>2012-12-06T13:24:40.000Z</time>
      </trkpt>
      <trkpt lat="45.9629" lon="6.46433">
        <ele>1597.1999511719</ele>
        <time>2012-12-06T13:24:46.000Z</time>
      </trkpt>
      <trkpt lat="45.96286" lon="6.46435">
        <ele>1599.5999755859</ele>
        <time>2012-12-06T13:24:51.000Z</time>
      </trkpt>
      <trkpt lat="45.96282" lon="6.46437">
        <ele>1602</ele>
        <time>2012-12-06T13:24:57.000Z</time>
      </trkpt>
      <trkpt lat="45.96278" lon="6.46439">
        <ele>1603</ele>
        <time>2012-12-06T13:25:03.000Z</time>
      </trkpt>
      <trkpt lat="45.96275" lon="6.46442">
        <ele>1604.4000244141</ele>
        <time>2012-12-06T13:25:09.000Z</time>
      </trkpt>
      <trkpt lat="45.96271" lon="6.46445">
        <ele>1606</ele>
        <time>2012-12-06T13:25:15.000Z</time>
      </trkpt>
      <trkpt lat="45.96268" lon="6.46449">
        <ele>1606.4000244141</ele>
        <time>2012-12-06T13:25:21.000Z</time>
      </trkpt>
      <trkpt lat="45.96267" lon="6.46453">
        <ele>1607.8000488281</ele>
        <time>2012-12-06T13:25:26.000Z</time>
      </trkpt>
      <trkpt lat="45.96266" lon="6.46458">
        <ele>1609.1999511719</ele>
        <time>2012-12-06T13:25:32.000Z</time>
      </trkpt>
      <trkpt lat="45.96266" lon="6.46462">
        <ele>1611.1999511719</ele>
        <time>2012-12-06T13:25:37.000Z</time>
      </trkpt>
      <trkpt lat="45.96265" lon="6.46466">
        <ele>1612.5999755859</ele>
        <time>2012-12-06T13:25:41.000Z</time>
      </trkpt>
      <trkpt lat="45.96265" lon="6.46469">
        <ele>1613.5999755859</ele>
        <time>2012-12-06T13:25:45.000Z</time>
      </trkpt>
      <trkpt lat="45.96265" lon="6.46472">
        <ele>1614</ele>
        <time>2012-12-06T13:25:49.000Z</time>
      </trkpt>
      <trkpt lat="45.96265" lon="6.46476">
        <ele>1614.5999755859</ele>
        <time>2012-12-06T13:25:54.000Z</time>
      </trkpt>
      <trkpt lat="45.96265" lon="6.4648">
        <ele>1615.5999755859</ele>
        <time>2012-12-06T13:25:58.000Z</time>
      </trkpt>
      <trkpt lat="45.96264" lon="6.46483">
        <ele>1616.4000244141</ele>
        <time>2012-12-06T13:26:02.000Z</time>
      </trkpt>
      <trkpt lat="45.96263" lon="6.46487">
        <ele>1617.4000244141</ele>
        <time>2012-12-06T13:26:06.000Z</time>
      </trkpt>
      <trkpt lat="45.96261" lon="6.46493">
        <ele>1619.4000244141</ele>
        <time>2012-12-06T13:26:12.000Z</time>
      </trkpt>
      <trkpt lat="45.96259" lon="6.46499">
        <ele>1621.4000244141</ele>
        <time>2012-12-06T13:26:18.000Z</time>
      </trkpt>
      <trkpt lat="45.96257" lon="6.46506">
        <ele>1623.8000488281</ele>
        <time>2012-12-06T13:26:24.000Z</time>
      </trkpt>
      <trkpt lat="45.96257" lon="6.46512">
        <ele>1625.1999511719</ele>
        <time>2012-12-06T13:26:29.000Z</time>
      </trkpt>
      <trkpt lat="45.96256" lon="6.46517">
        <ele>1625.5999755859</ele>
        <time>2012-12-06T13:26:33.000Z</time>
      </trkpt>
      <trkpt lat="45.96254" lon="6.46522">
        <ele>1626.5999755859</ele>
        <time>2012-12-06T13:26:38.000Z</time>
      </trkpt>
      <trkpt lat="45.96253" lon="6.46528">
        <ele>1627.5999755859</ele>
        <time>2012-12-06T13:26:44.000Z</time>
      </trkpt>
      <trkpt lat="45.96253" lon="6.46537">
        <ele>1628.5999755859</ele>
        <time>2012-12-06T13:26:52.000Z</time>
      </trkpt>
      <trkpt lat="45.96252" lon="6.46546">
        <ele>1629.4000244141</ele>
        <time>2012-12-06T13:26:59.000Z</time>
      </trkpt>
      <trkpt lat="45.96252" lon="6.46554">
        <ele>1630.4000244141</ele>
        <time>2012-12-06T13:27:05.000Z</time>
      </trkpt>
      <trkpt lat="45.96253" lon="6.46562">
        <ele>1631.8000488281</ele>
        <time>2012-12-06T13:27:11.000Z</time>
      </trkpt>
      <trkpt lat="45.96254" lon="6.46569">
        <ele>1632.8000488281</ele>
        <time>2012-12-06T13:27:17.000Z</time>
      </trkpt>
      <trkpt lat="45.96256" lon="6.46576">
        <ele>1633.4000244141</ele>
        <time>2012-12-06T13:27:22.000Z</time>
      </trkpt>
      <trkpt lat="45.96259" lon="6.46582">
        <ele>1634.1999511719</ele>
        <time>2012-12-06T13:27:28.000Z</time>
      </trkpt>
      <trkpt lat="45.9626" lon="6.46588">
        <ele>1635.1999511719</ele>
        <time>2012-12-06T13:27:33.000Z</time>
      </trkpt>
      <trkpt lat="45.96262" lon="6.46593">
        <ele>1636.1999511719</ele>
        <time>2012-12-06T13:27:37.000Z</time>
      </trkpt>
      <trkpt lat="45.96264" lon="6.466">
        <ele>1637.1999511719</ele>
        <time>2012-12-06T13:27:42.000Z</time>
      </trkpt>
      <trkpt lat="45.96266" lon="6.46605">
        <ele>1637.5999755859</ele>
        <time>2012-12-06T13:27:47.000Z</time>
      </trkpt>
      <trkpt lat="45.96267" lon="6.46611">
        <ele>1639</ele>
        <time>2012-12-06T13:27:53.000Z</time>
      </trkpt>
      <trkpt lat="45.96269" lon="6.46616">
        <ele>1641</ele>
        <time>2012-12-06T13:27:59.000Z</time>
      </trkpt>
      <trkpt lat="45.96271" lon="6.46621">
        <ele>1642.4000244141</ele>
        <time>2012-12-06T13:28:04.000Z</time>
      </trkpt>
      <trkpt lat="45.96272" lon="6.46624">
        <ele>1644.4000244141</ele>
        <time>2012-12-06T13:28:08.000Z</time>
      </trkpt>
      <trkpt lat="45.96273" lon="6.46627">
        <ele>1645.4000244141</ele>
        <time>2012-12-06T13:28:12.000Z</time>
      </trkpt>
      <trkpt lat="45.96273" lon="6.46628">
        <ele>1645.4000244141</ele>
        <time>2012-12-06T13:28:13.000Z</time>
      </trkpt>
      <trkpt lat="45.96276" lon="6.46634">
        <ele>1646.8000488281</ele>
        <time>2012-12-06T13:28:19.000Z</time>
      </trkpt>
      <trkpt lat="45.96277" lon="6.46637">
        <ele>1648.1999511719</ele>
        <time>2012-12-06T13:28:23.000Z</time>
      </trkpt>
      <trkpt lat="45.96279" lon="6.46642">
        <ele>1649.5999755859</ele>
        <time>2012-12-06T13:28:29.000Z</time>
      </trkpt>
      <trkpt lat="45.96279" lon="6.46647">
        <ele>1650.5999755859</ele>
        <time>2012-12-06T13:28:34.000Z</time>
      </trkpt>
      <trkpt lat="45.9628" lon="6.46653">
        <ele>1652.5999755859</ele>
        <time>2012-12-06T13:28:40.000Z</time>
      </trkpt>
      <trkpt lat="45.96281" lon="6.4666">
        <ele>1653.5999755859</ele>
        <time>2012-12-06T13:28:46.000Z</time>
      </trkpt>
      <trkpt lat="45.9628" lon="6.46667">
        <ele>1654</ele>
        <time>2012-12-06T13:28:52.000Z</time>
      </trkpt>
      <trkpt lat="45.9628" lon="6.46672">
        <ele>1655</ele>
        <time>2012-12-06T13:28:57.000Z</time>
      </trkpt>
      <trkpt lat="45.9628" lon="6.46675">
        <ele>1656.4000244141</ele>
        <time>2012-12-06T13:29:01.000Z</time>
      </trkpt>
      <trkpt lat="45.96281" lon="6.46681">
        <ele>1657.4000244141</ele>
        <time>2012-12-06T13:29:06.000Z</time>
      </trkpt>
      <trkpt lat="45.96283" lon="6.46687">
        <ele>1658.4000244141</ele>
        <time>2012-12-06T13:29:11.000Z</time>
      </trkpt>
      <trkpt lat="45.96285" lon="6.46695">
        <ele>1657.8000488281</ele>
        <time>2012-12-06T13:29:17.000Z</time>
      </trkpt>
      <trkpt lat="45.96288" lon="6.46704">
        <ele>1658.4000244141</ele>
        <time>2012-12-06T13:29:23.000Z</time>
      </trkpt>
      <trkpt lat="45.9629" lon="6.46711">
        <ele>1658.8000488281</ele>
        <time>2012-12-06T13:29:29.000Z</time>
      </trkpt>
      <trkpt lat="45.96294" lon="6.46719">
        <ele>1660.1999511719</ele>
        <time>2012-12-06T13:29:37.000Z</time>
      </trkpt>
      <trkpt lat="45.96297" lon="6.46732">
        <ele>1659.8000488281</ele>
        <time>2012-12-06T13:29:42.000Z</time>
      </trkpt>
      <trkpt lat="45.96299" lon="6.46744">
        <ele>1659.1999511719</ele>
        <time>2012-12-06T13:29:47.000Z</time>
      </trkpt>
      <trkpt lat="45.96301" lon="6.46755">
        <ele>1659.8000488281</ele>
        <time>2012-12-06T13:29:52.000Z</time>
      </trkpt>
      <trkpt lat="45.96302" lon="6.46764">
        <ele>1660.1999511719</ele>
        <time>2012-12-06T13:29:57.000Z</time>
      </trkpt>
      <trkpt lat="45.96303" lon="6.46769">
        <ele>1659.8000488281</ele>
        <time>2012-12-06T13:30:00.000Z</time>
      </trkpt>
      <trkpt lat="45.96305" lon="6.46779">
        <ele>1659.8000488281</ele>
        <time>2012-12-06T13:30:06.000Z</time>
      </trkpt>
      <trkpt lat="45.96307" lon="6.46787">
        <ele>1661.1999511719</ele>
        <time>2012-12-06T13:30:14.000Z</time>
      </trkpt>
      <trkpt lat="45.96308" lon="6.4679">
        <ele>1661.5999755859</ele>
        <time>2012-12-06T13:30:17.000Z</time>
      </trkpt>
      <trkpt lat="45.96309" lon="6.46794">
        <ele>1663.1999511719</ele>
        <time>2012-12-06T13:30:22.000Z</time>
      </trkpt>
      <trkpt lat="45.9631" lon="6.46798">
        <ele>1663.1999511719</ele>
        <time>2012-12-06T13:30:26.000Z</time>
      </trkpt>
      <trkpt lat="45.9631" lon="6.468">
        <ele>1664</ele>
        <time>2012-12-06T13:30:29.000Z</time>
      </trkpt>
      <trkpt lat="45.96311" lon="6.46802">
        <ele>1664.5999755859</ele>
        <time>2012-12-06T13:30:32.000Z</time>
      </trkpt>
      <trkpt lat="45.96311" lon="6.46804">
        <ele>1666</ele>
        <time>2012-12-06T13:30:35.000Z</time>
      </trkpt>
      <trkpt lat="45.96312" lon="6.46805">
        <ele>1668</ele>
        <time>2012-12-06T13:30:39.000Z</time>
      </trkpt>
      <trkpt lat="45.96313" lon="6.46808">
        <ele>1670.4000244141</ele>
        <time>2012-12-06T13:30:44.000Z</time>
      </trkpt>
      <trkpt lat="45.96314" lon="6.46809">
        <ele>1672.1999511719</ele>
        <time>2012-12-06T13:30:48.000Z</time>
      </trkpt>
      <trkpt lat="45.96316" lon="6.46813">
        <ele>1674.5999755859</ele>
        <time>2012-12-06T13:30:54.000Z</time>
      </trkpt>
      <trkpt lat="45.96317" lon="6.46816">
        <ele>1675.5999755859</ele>
        <time>2012-12-06T13:30:58.000Z</time>
      </trkpt>
      <trkpt lat="45.96318" lon="6.46819">
        <ele>1676</ele>
        <time>2012-12-06T13:31:02.000Z</time>
      </trkpt>
      <trkpt lat="45.96319" lon="6.46823">
        <ele>1678</ele>
        <time>2012-12-06T13:31:07.000Z</time>
      </trkpt>
      <trkpt lat="45.9632" lon="6.46827">
        <ele>1678.4000244141</ele>
        <time>2012-12-06T13:31:11.000Z</time>
      </trkpt>
      <trkpt lat="45.9632" lon="6.46832">
        <ele>1679</ele>
        <time>2012-12-06T13:31:16.000Z</time>
      </trkpt>
      <trkpt lat="45.96321" lon="6.46839">
        <ele>1679.4000244141</ele>
        <time>2012-12-06T13:31:21.000Z</time>
      </trkpt>
      <trkpt lat="45.96322" lon="6.46847">
        <ele>1680.4000244141</ele>
        <time>2012-12-06T13:31:26.000Z</time>
      </trkpt>
      <trkpt lat="45.96322" lon="6.46849">
        <ele>1680.4000244141</ele>
        <time>2012-12-06T13:31:27.000Z</time>
      </trkpt>
      <trkpt lat="45.96323" lon="6.4686">
        <ele>1681.4000244141</ele>
        <time>2012-12-06T13:31:34.000Z</time>
      </trkpt>
      <trkpt lat="45.96324" lon="6.46868">
        <ele>1682.4000244141</ele>
        <time>2012-12-06T13:31:39.000Z</time>
      </trkpt>
      <trkpt lat="45.96324" lon="6.46875">
        <ele>1683.8000488281</ele>
        <time>2012-12-06T13:31:44.000Z</time>
      </trkpt>
      <trkpt lat="45.96325" lon="6.46884">
        <ele>1684.1999511719</ele>
        <time>2012-12-06T13:31:50.000Z</time>
      </trkpt>
      <trkpt lat="45.96325" lon="6.46893">
        <ele>1684.1999511719</ele>
        <time>2012-12-06T13:31:55.000Z</time>
      </trkpt>
      <trkpt lat="45.96326" lon="6.46902">
        <ele>1683.8000488281</ele>
        <time>2012-12-06T13:32:00.000Z</time>
      </trkpt>
      <trkpt lat="45.96327" lon="6.4691">
        <ele>1684.8000488281</ele>
        <time>2012-12-06T13:32:06.000Z</time>
      </trkpt>
      <trkpt lat="45.96327" lon="6.46913">
        <ele>1685.1999511719</ele>
        <time>2012-12-06T13:32:08.000Z</time>
      </trkpt>
      <trkpt lat="45.96328" lon="6.46919">
        <ele>1686.1999511719</ele>
        <time>2012-12-06T13:32:14.000Z</time>
      </trkpt>
      <trkpt lat="45.96328" lon="6.46924">
        <ele>1686.5999755859</ele>
        <time>2012-12-06T13:32:18.000Z</time>
      </trkpt>
      <trkpt lat="45.96329" lon="6.4693">
        <ele>1688.1999511719</ele>
        <time>2012-12-06T13:32:23.000Z</time>
      </trkpt>
      <trkpt lat="45.9633" lon="6.46935">
        <ele>1688.5999755859</ele>
        <time>2012-12-06T13:32:27.000Z</time>
      </trkpt>
      <trkpt lat="45.96332" lon="6.46939">
        <ele>1688.5999755859</ele>
        <time>2012-12-06T13:32:31.000Z</time>
      </trkpt>
      <trkpt lat="45.96335" lon="6.46943">
        <ele>1688.5999755859</ele>
        <time>2012-12-06T13:32:36.000Z</time>
      </trkpt>
      <trkpt lat="45.96337" lon="6.46943">
        <ele>1688.1999511719</ele>
        <time>2012-12-06T13:32:40.000Z</time>
      </trkpt>
      <trkpt lat="45.96343" lon="6.46939">
        <ele>1689.5999755859</ele>
        <time>2012-12-06T13:32:46.000Z</time>
      </trkpt>
      <trkpt lat="45.96347" lon="6.46935">
        <ele>1689.5999755859</ele>
        <time>2012-12-06T13:32:51.000Z</time>
      </trkpt>
      <trkpt lat="45.96352" lon="6.46931">
        <ele>1692.4000244141</ele>
        <time>2012-12-06T13:32:58.000Z</time>
      </trkpt>
      <trkpt lat="45.96354" lon="6.46931">
        <ele>1693</ele>
        <time>2012-12-06T13:33:12.000Z</time>
      </trkpt>
      <trkpt lat="45.96357" lon="6.46929">
        <ele>1691.4000244141</ele>
        <time>2012-12-06T13:33:18.000Z</time>
      </trkpt>
      <trkpt lat="45.96359" lon="6.46926">
        <ele>1692</ele>
        <time>2012-12-06T13:33:21.000Z</time>
      </trkpt>
      <trkpt lat="45.96362" lon="6.46924">
        <ele>1692</ele>
        <time>2012-12-06T13:33:25.000Z</time>
      </trkpt>
      <trkpt lat="45.96364" lon="6.46921">
        <ele>1693</ele>
        <time>2012-12-06T13:33:29.000Z</time>
      </trkpt>
      <trkpt lat="45.96367" lon="6.46918">
        <ele>1693.4000244141</ele>
        <time>2012-12-06T13:33:34.000Z</time>
      </trkpt>
      <trkpt lat="45.9637" lon="6.46915">
        <ele>1694.8000488281</ele>
        <time>2012-12-06T13:33:38.000Z</time>
      </trkpt>
      <trkpt lat="45.96372" lon="6.46914">
        <ele>1694.8000488281</ele>
        <time>2012-12-06T13:33:41.000Z</time>
      </trkpt>
      <trkpt lat="45.96375" lon="6.46911">
        <ele>1694.8000488281</ele>
        <time>2012-12-06T13:33:45.000Z</time>
      </trkpt>
      <trkpt lat="45.96377" lon="6.4691">
        <ele>1695.4000244141</ele>
        <time>2012-12-06T13:33:48.000Z</time>
      </trkpt>
      <trkpt lat="45.96381" lon="6.46908">
        <ele>1697.8000488281</ele>
        <time>2012-12-06T13:33:54.000Z</time>
      </trkpt>
      <trkpt lat="45.96384" lon="6.46905">
        <ele>1700.5999755859</ele>
        <time>2012-12-06T13:33:58.000Z</time>
      </trkpt>
      <trkpt lat="45.96386" lon="6.46903">
        <ele>1701</ele>
        <time>2012-12-06T13:34:02.000Z</time>
      </trkpt>
      <trkpt lat="45.96386" lon="6.469">
        <ele>1701.5999755859</ele>
        <time>2012-12-06T13:34:06.000Z</time>
      </trkpt>
      <trkpt lat="45.96388" lon="6.46895">
        <ele>1702.5999755859</ele>
        <time>2012-12-06T13:34:11.000Z</time>
      </trkpt>
      <trkpt lat="45.9639" lon="6.4689">
        <ele>1704.4000244141</ele>
        <time>2012-12-06T13:34:16.000Z</time>
      </trkpt>
      <trkpt lat="45.96391" lon="6.46887">
        <ele>1705</ele>
        <time>2012-12-06T13:34:21.000Z</time>
      </trkpt>
      <trkpt lat="45.96392" lon="6.46879">
        <ele>1705</ele>
        <time>2012-12-06T13:34:28.000Z</time>
      </trkpt>
      <trkpt lat="45.96395" lon="6.46872">
        <ele>1706.4000244141</ele>
        <time>2012-12-06T13:34:33.000Z</time>
      </trkpt>
      <trkpt lat="45.96397" lon="6.46867">
        <ele>1706.4000244141</ele>
        <time>2012-12-06T13:34:37.000Z</time>
      </trkpt>
      <trkpt lat="45.96402" lon="6.46866">
        <ele>1707.8000488281</ele>
        <time>2012-12-06T13:34:43.000Z</time>
      </trkpt>
      <trkpt lat="45.96405" lon="6.46866">
        <ele>1709.1999511719</ele>
        <time>2012-12-06T13:34:47.000Z</time>
      </trkpt>
      <trkpt lat="45.96409" lon="6.46863">
        <ele>1711.5999755859</ele>
        <time>2012-12-06T13:34:52.000Z</time>
      </trkpt>
      <trkpt lat="45.96411" lon="6.46861">
        <ele>1713.1999511719</ele>
        <time>2012-12-06T13:34:56.000Z</time>
      </trkpt>
      <trkpt lat="45.96413" lon="6.46862">
        <ele>1714</ele>
        <time>2012-12-06T13:34:59.000Z</time>
      </trkpt>
      <trkpt lat="45.96416" lon="6.46863">
        <ele>1715.5999755859</ele>
        <time>2012-12-06T13:35:04.000Z</time>
      </trkpt>
      <trkpt lat="45.96418" lon="6.46861">
        <ele>1716</ele>
        <time>2012-12-06T13:35:09.000Z</time>
      </trkpt>
      <trkpt lat="45.96421" lon="6.46855">
        <ele>1717</ele>
        <time>2012-12-06T13:35:15.000Z</time>
      </trkpt>
      <trkpt lat="45.96424" lon="6.46857">
        <ele>1717.4000244141</ele>
        <time>2012-12-06T13:35:20.000Z</time>
      </trkpt>
      <trkpt lat="45.96427" lon="6.46863">
        <ele>1718.4000244141</ele>
        <time>2012-12-06T13:35:26.000Z</time>
      </trkpt>
      <trkpt lat="45.96427" lon="6.46866">
        <ele>1719.4000244141</ele>
        <time>2012-12-06T13:35:29.000Z</time>
      </trkpt>
      <trkpt lat="45.96428" lon="6.46872">
        <ele>1719.8000488281</ele>
        <time>2012-12-06T13:35:34.000Z</time>
      </trkpt>
      <trkpt lat="45.96428" lon="6.46876">
        <ele>1721.1999511719</ele>
        <time>2012-12-06T13:35:38.000Z</time>
      </trkpt>
      <trkpt lat="45.96429" lon="6.46879">
        <ele>1722.1999511719</ele>
        <time>2012-12-06T13:35:43.000Z</time>
      </trkpt>
      <trkpt lat="45.96429" lon="6.46884">
        <ele>1723.1999511719</ele>
        <time>2012-12-06T13:35:48.000Z</time>
      </trkpt>
      <trkpt lat="45.96428" lon="6.46888">
        <ele>1723.1999511719</ele>
        <time>2012-12-06T13:35:52.000Z</time>
      </trkpt>
      <trkpt lat="45.96427" lon="6.46892">
        <ele>1724.1999511719</ele>
        <time>2012-12-06T13:35:56.000Z</time>
      </trkpt>
      <trkpt lat="45.96426" lon="6.46897">
        <ele>1724.5999755859</ele>
        <time>2012-12-06T13:36:01.000Z</time>
      </trkpt>
      <trkpt lat="45.96425" lon="6.469">
        <ele>1725.1999511719</ele>
        <time>2012-12-06T13:36:05.000Z</time>
      </trkpt>
      <trkpt lat="45.96424" lon="6.46909">
        <ele>1727</ele>
        <time>2012-12-06T13:36:11.000Z</time>
      </trkpt>
      <trkpt lat="45.96424" lon="6.46912">
        <ele>1728</ele>
        <time>2012-12-06T13:36:14.000Z</time>
      </trkpt>
      <trkpt lat="45.96422" lon="6.46915">
        <ele>1729.4000244141</ele>
        <time>2012-12-06T13:36:19.000Z</time>
      </trkpt>
      <trkpt lat="45.9642" lon="6.46919">
        <ele>1729</ele>
        <time>2012-12-06T13:36:24.000Z</time>
      </trkpt>
      <trkpt lat="45.96418" lon="6.46923">
        <ele>1729.4000244141</ele>
        <time>2012-12-06T13:36:28.000Z</time>
      </trkpt>
      <trkpt lat="45.96415" lon="6.46926">
        <ele>1730.4000244141</ele>
        <time>2012-12-06T13:36:32.000Z</time>
      </trkpt>
      <trkpt lat="45.96414" lon="6.46929">
        <ele>1730.8000488281</ele>
        <time>2012-12-06T13:36:35.000Z</time>
      </trkpt>
      <trkpt lat="45.96413" lon="6.46933">
        <ele>1730.8000488281</ele>
        <time>2012-12-06T13:36:38.000Z</time>
      </trkpt>
      <trkpt lat="45.96411" lon="6.46937">
        <ele>1731.4000244141</ele>
        <time>2012-12-06T13:36:41.000Z</time>
      </trkpt>
      <trkpt lat="45.96409" lon="6.46939">
        <ele>1731.8000488281</ele>
        <time>2012-12-06T13:36:44.000Z</time>
      </trkpt>
      <trkpt lat="45.96409" lon="6.46943">
        <ele>1732.8000488281</ele>
        <time>2012-12-06T13:36:48.000Z</time>
      </trkpt>
      <trkpt lat="45.9641" lon="6.46946">
        <ele>1734.1999511719</ele>
        <time>2012-12-06T13:36:52.000Z</time>
      </trkpt>
      <trkpt lat="45.96411" lon="6.46946">
        <ele>1734.8000488281</ele>
        <time>2012-12-06T13:36:57.000Z</time>
      </trkpt>
      <trkpt lat="45.96412" lon="6.46947">
        <ele>1735.1999511719</ele>
        <time>2012-12-06T13:37:04.000Z</time>
      </trkpt>
      <trkpt lat="45.96416" lon="6.46948">
        <ele>1736.1999511719</ele>
        <time>2012-12-06T13:37:10.000Z</time>
      </trkpt>
      <trkpt lat="45.96421" lon="6.4695">
        <ele>1737.5999755859</ele>
        <time>2012-12-06T13:37:16.000Z</time>
      </trkpt>
      <trkpt lat="45.96425" lon="6.46951">
        <ele>1739</ele>
        <time>2012-12-06T13:37:21.000Z</time>
      </trkpt>
      <trkpt lat="45.96429" lon="6.46953">
        <ele>1740</ele>
        <time>2012-12-06T13:37:27.000Z</time>
      </trkpt>
      <trkpt lat="45.96433" lon="6.46956">
        <ele>1740.5999755859</ele>
        <time>2012-12-06T13:37:33.000Z</time>
      </trkpt>
      <trkpt lat="45.96437" lon="6.46961">
        <ele>1741.4000244141</ele>
        <time>2012-12-06T13:37:40.000Z</time>
      </trkpt>
      <trkpt lat="45.96439" lon="6.46964">
        <ele>1742.4000244141</ele>
        <time>2012-12-06T13:37:44.000Z</time>
      </trkpt>
      <trkpt lat="45.96439" lon="6.46968">
        <ele>1742.4000244141</ele>
        <time>2012-12-06T13:37:48.000Z</time>
      </trkpt>
      <trkpt lat="45.96436" lon="6.46975">
        <ele>1743.8000488281</ele>
        <time>2012-12-06T13:37:52.000Z</time>
      </trkpt>
      <trkpt lat="45.96436" lon="6.46978">
        <ele>1744.4000244141</ele>
        <time>2012-12-06T13:37:55.000Z</time>
      </trkpt>
      <trkpt lat="45.96436" lon="6.46981">
        <ele>1745.4000244141</ele>
        <time>2012-12-06T13:37:58.000Z</time>
      </trkpt>
      <trkpt lat="45.96438" lon="6.46984">
        <ele>1745.8000488281</ele>
        <time>2012-12-06T13:38:02.000Z</time>
      </trkpt>
      <trkpt lat="45.96438" lon="6.46988">
        <ele>1746.8000488281</ele>
        <time>2012-12-06T13:38:06.000Z</time>
      </trkpt>
      <trkpt lat="45.96438" lon="6.46991">
        <ele>1748.5999755859</ele>
        <time>2012-12-06T13:38:10.000Z</time>
      </trkpt>
      <trkpt lat="45.96439" lon="6.46994">
        <ele>1750.1999511719</ele>
        <time>2012-12-06T13:38:14.000Z</time>
      </trkpt>
      <trkpt lat="45.9644" lon="6.46997">
        <ele>1751</ele>
        <time>2012-12-06T13:38:18.000Z</time>
      </trkpt>
      <trkpt lat="45.9644" lon="6.47001">
        <ele>1752</ele>
        <time>2012-12-06T13:38:22.000Z</time>
      </trkpt>
      <trkpt lat="45.96442" lon="6.47005">
        <ele>1752</ele>
        <time>2012-12-06T13:38:25.000Z</time>
      </trkpt>
      <trkpt lat="45.96443" lon="6.47008">
        <ele>1753.4000244141</ele>
        <time>2012-12-06T13:38:29.000Z</time>
      </trkpt>
      <trkpt lat="45.96444" lon="6.47009">
        <ele>1754.4000244141</ele>
        <time>2012-12-06T13:38:33.000Z</time>
      </trkpt>
      <trkpt lat="45.96444" lon="6.47013">
        <ele>1756.4000244141</ele>
        <time>2012-12-06T13:38:38.000Z</time>
      </trkpt>
      <trkpt lat="45.96444" lon="6.47015">
        <ele>1757.8000488281</ele>
        <time>2012-12-06T13:38:43.000Z</time>
      </trkpt>
      <trkpt lat="45.96444" lon="6.47019">
        <ele>1758.1999511719</ele>
        <time>2012-12-06T13:38:47.000Z</time>
      </trkpt>
      <trkpt lat="45.96443" lon="6.47022">
        <ele>1759.8000488281</ele>
        <time>2012-12-06T13:38:52.000Z</time>
      </trkpt>
      <trkpt lat="45.96443" lon="6.47023">
        <ele>1759.8000488281</ele>
        <time>2012-12-06T13:38:54.000Z</time>
      </trkpt>
      <trkpt lat="45.96441" lon="6.47028">
        <ele>1760.5999755859</ele>
        <time>2012-12-06T13:38:59.000Z</time>
      </trkpt>
      <trkpt lat="45.96443" lon="6.47031">
        <ele>1761.5999755859</ele>
        <time>2012-12-06T13:39:03.000Z</time>
      </trkpt>
      <trkpt lat="45.96448" lon="6.47033">
        <ele>1763</ele>
        <time>2012-12-06T13:39:10.000Z</time>
      </trkpt>
      <trkpt lat="45.96453" lon="6.47036">
        <ele>1764.5999755859</ele>
        <time>2012-12-06T13:39:17.000Z</time>
      </trkpt>
      <trkpt lat="45.96457" lon="6.47038">
        <ele>1766</ele>
        <time>2012-12-06T13:39:22.000Z</time>
      </trkpt>
      <trkpt lat="45.96461" lon="6.47041">
        <ele>1766.4000244141</ele>
        <time>2012-12-06T13:39:28.000Z</time>
      </trkpt>
      <trkpt lat="45.96464" lon="6.47044">
        <ele>1767.4000244141</ele>
        <time>2012-12-06T13:39:33.000Z</time>
      </trkpt>
      <trkpt lat="45.96467" lon="6.47049">
        <ele>1768.4000244141</ele>
        <time>2012-12-06T13:39:38.000Z</time>
      </trkpt>
      <trkpt lat="45.96469" lon="6.47054">
        <ele>1768.8000488281</ele>
        <time>2012-12-06T13:39:44.000Z</time>
      </trkpt>
      <trkpt lat="45.9647" lon="6.47059">
        <ele>1769.4000244141</ele>
        <time>2012-12-06T13:39:48.000Z</time>
      </trkpt>
      <trkpt lat="45.96472" lon="6.47066">
        <ele>1770.8000488281</ele>
        <time>2012-12-06T13:39:54.000Z</time>
      </trkpt>
      <trkpt lat="45.96473" lon="6.47071">
        <ele>1771.8000488281</ele>
        <time>2012-12-06T13:39:58.000Z</time>
      </trkpt>
      <trkpt lat="45.96474" lon="6.47076">
        <ele>1772.1999511719</ele>
        <time>2012-12-06T13:40:03.000Z</time>
      </trkpt>
      <trkpt lat="45.96472" lon="6.47079">
        <ele>1773.5999755859</ele>
        <time>2012-12-06T13:40:09.000Z</time>
      </trkpt>
      <trkpt lat="45.96472" lon="6.4708">
        <ele>1775.1999511719</ele>
        <time>2012-12-06T13:40:23.000Z</time>
      </trkpt>
      <trkpt lat="45.96472" lon="6.4708">
        <ele>1776</ele>
        <time>2012-12-06T13:40:39.000Z</time>
      </trkpt>
      <trkpt lat="45.96473" lon="6.47081">
        <ele>1777</ele>
        <time>2012-12-06T13:40:46.000Z</time>
      </trkpt>
      <trkpt lat="45.96476" lon="6.47087">
        <ele>1777.5999755859</ele>
        <time>2012-12-06T13:40:51.000Z</time>
      </trkpt>
      <trkpt lat="45.96477" lon="6.47092">
        <ele>1778</ele>
        <time>2012-12-06T13:40:56.000Z</time>
      </trkpt>
      <trkpt lat="45.96478" lon="6.47097">
        <ele>1779</ele>
        <time>2012-12-06T13:40:59.000Z</time>
      </trkpt>
      <trkpt lat="45.96479" lon="6.47102">
        <ele>1779.4000244141</ele>
        <time>2012-12-06T13:41:03.000Z</time>
      </trkpt>
      <trkpt lat="45.96478" lon="6.47107">
        <ele>1780.8000488281</ele>
        <time>2012-12-06T13:41:08.000Z</time>
      </trkpt>
      <trkpt lat="45.96478" lon="6.47111">
        <ele>1781.4000244141</ele>
        <time>2012-12-06T13:41:13.000Z</time>
      </trkpt>
      <trkpt lat="45.96477" lon="6.47115">
        <ele>1782.4000244141</ele>
        <time>2012-12-06T13:41:18.000Z</time>
      </trkpt>
      <trkpt lat="45.96477" lon="6.4712">
        <ele>1782.8000488281</ele>
        <time>2012-12-06T13:41:22.000Z</time>
      </trkpt>
      <trkpt lat="45.96478" lon="6.47128">
        <ele>1782.8000488281</ele>
        <time>2012-12-06T13:41:29.000Z</time>
      </trkpt>
      <trkpt lat="45.96479" lon="6.47134">
        <ele>1782.8000488281</ele>
        <time>2012-12-06T13:41:34.000Z</time>
      </trkpt>
      <trkpt lat="45.96479" lon="6.47133">
        <ele>1782.4000244141</ele>
        <time>2012-12-06T13:41:40.000Z</time>
      </trkpt>
      <trkpt lat="45.96479" lon="6.47134">
        <ele>1781.8000488281</ele>
        <time>2012-12-06T13:41:50.000Z</time>
      </trkpt>
      <trkpt lat="45.9648" lon="6.47139">
        <ele>1781.8000488281</ele>
        <time>2012-12-06T13:41:53.000Z</time>
      </trkpt>
      <trkpt lat="45.96477" lon="6.47147">
        <ele>1781.8000488281</ele>
        <time>2012-12-06T13:41:59.000Z</time>
      </trkpt>
      <trkpt lat="45.96474" lon="6.4715">
        <ele>1781.8000488281</ele>
        <time>2012-12-06T13:42:01.000Z</time>
      </trkpt>
      <trkpt lat="45.96471" lon="6.47152">
        <ele>1781.8000488281</ele>
        <time>2012-12-06T13:42:06.000Z</time>
      </trkpt>
      <trkpt lat="45.9647" lon="6.47152">
        <ele>1782.4000244141</ele>
        <time>2012-12-06T13:42:14.000Z</time>
      </trkpt>
      <trkpt lat="45.96466" lon="6.47159">
        <ele>1781.8000488281</ele>
        <time>2012-12-06T13:42:20.000Z</time>
      </trkpt>
      <trkpt lat="45.96461" lon="6.47168">
        <ele>1781.4000244141</ele>
        <time>2012-12-06T13:42:25.000Z</time>
      </trkpt>
      <trkpt lat="45.96458" lon="6.47174">
        <ele>1781.4000244141</ele>
        <time>2012-12-06T13:42:30.000Z</time>
      </trkpt>
      <trkpt lat="45.96458" lon="6.47176">
        <ele>1780.8000488281</ele>
        <time>2012-12-06T13:42:36.000Z</time>
      </trkpt>
      <trkpt lat="45.96457" lon="6.47172">
        <ele>1780.4000244141</ele>
        <time>2012-12-06T13:43:14.000Z</time>
      </trkpt>
      <trkpt lat="45.96457" lon="6.47173">
        <ele>1781.4000244141</ele>
        <time>2012-12-06T13:43:24.000Z</time>
      </trkpt>
      <trkpt lat="45.96456" lon="6.47173">
        <ele>1781.8000488281</ele>
        <time>2012-12-06T13:43:25.000Z</time>
      </trkpt>
      <trkpt lat="45.96452" lon="6.47165">
        <ele>1782.8000488281</ele>
        <time>2012-12-06T13:43:29.000Z</time>
      </trkpt>
      <trkpt lat="45.96451" lon="6.47163">
        <ele>1782.8000488281</ele>
        <time>2012-12-06T13:43:30.000Z</time>
      </trkpt>
      <trkpt lat="45.96448" lon="6.47155">
        <ele>1783.8000488281</ele>
        <time>2012-12-06T13:43:35.000Z</time>
      </trkpt>
      <trkpt lat="45.96446" lon="6.47149">
        <ele>1784.1999511719</ele>
        <time>2012-12-06T13:43:40.000Z</time>
      </trkpt>
      <trkpt lat="45.96441" lon="6.47146">
        <ele>1784.1999511719</ele>
        <time>2012-12-06T13:43:44.000Z</time>
      </trkpt>
      <trkpt lat="45.96441" lon="6.47147">
        <ele>1784.1999511719</ele>
        <time>2012-12-06T13:43:50.000Z</time>
      </trkpt>
      <trkpt lat="45.96442" lon="6.47149">
        <ele>1783.8000488281</ele>
        <time>2012-12-06T13:44:03.000Z</time>
      </trkpt>
      <trkpt lat="45.96443" lon="6.47149">
        <ele>1783.1999511719</ele>
        <time>2012-12-06T13:44:12.000Z</time>
      </trkpt>
      <trkpt lat="45.96443" lon="6.47153">
        <ele>1780.4000244141</ele>
        <time>2012-12-06T13:44:33.000Z</time>
      </trkpt>
      <trkpt lat="45.96444" lon="6.47155">
        <ele>1779</ele>
        <time>2012-12-06T13:44:42.000Z</time>
      </trkpt>
      <trkpt lat="45.96444" lon="6.47155">
        <ele>1778</ele>
        <time>2012-12-06T13:44:48.000Z</time>
      </trkpt>
      <trkpt lat="45.96444" lon="6.47154">
        <ele>1777.5999755859</ele>
        <time>2012-12-06T13:44:56.000Z</time>
      </trkpt>
      <trkpt lat="45.96444" lon="6.47154">
        <ele>1778</ele>
        <time>2012-12-06T13:45:08.000Z</time>
      </trkpt>
      <trkpt lat="45.96444" lon="6.47153">
        <ele>1778</ele>
        <time>2012-12-06T13:45:12.000Z</time>
      </trkpt>
      <trkpt lat="45.96444" lon="6.47153">
        <ele>1779.4000244141</ele>
        <time>2012-12-06T13:45:22.000Z</time>
      </trkpt>
      <trkpt lat="45.96443" lon="6.47151">
        <ele>1780.4000244141</ele>
        <time>2012-12-06T13:45:33.000Z</time>
      </trkpt>
      <trkpt lat="45.96443" lon="6.47152">
        <ele>1780.4000244141</ele>
        <time>2012-12-06T13:45:38.000Z</time>
      </trkpt>
      <trkpt lat="45.96443" lon="6.4715">
        <ele>1781.8000488281</ele>
        <time>2012-12-06T13:45:51.000Z</time>
      </trkpt>
      <trkpt lat="45.96444" lon="6.47151">
        <ele>1782.4000244141</ele>
        <time>2012-12-06T13:46:05.000Z</time>
      </trkpt>
      <trkpt lat="45.96443" lon="6.47149">
        <ele>1784.8000488281</ele>
        <time>2012-12-06T13:46:17.000Z</time>
      </trkpt>
      <trkpt lat="45.96443" lon="6.4715">
        <ele>1785.1999511719</ele>
        <time>2012-12-06T13:46:22.000Z</time>
      </trkpt>
      <trkpt lat="45.96443" lon="6.4715">
        <ele>1784.1999511719</ele>
        <time>2012-12-06T13:46:30.000Z</time>
      </trkpt>
      <trkpt lat="45.96443" lon="6.4715">
        <ele>1783.1999511719</ele>
        <time>2012-12-06T13:46:38.000Z</time>
      </trkpt>
      <trkpt lat="45.96443" lon="6.47149">
        <ele>1783.1999511719</ele>
        <time>2012-12-06T13:46:44.000Z</time>
      </trkpt>
      <trkpt lat="45.96443" lon="6.47149">
        <ele>1783.8000488281</ele>
        <time>2012-12-06T13:46:59.000Z</time>
      </trkpt>
      <trkpt lat="45.96442" lon="6.4715">
        <ele>1784.1999511719</ele>
        <time>2012-12-06T13:47:12.000Z</time>
      </trkpt>
      <trkpt lat="45.96443" lon="6.4715">
        <ele>1783.8000488281</ele>
        <time>2012-12-06T13:47:22.000Z</time>
      </trkpt>
      <trkpt lat="45.96442" lon="6.47148">
        <ele>1782.8000488281</ele>
        <time>2012-12-06T13:47:29.000Z</time>
      </trkpt>
      <trkpt lat="45.96442" lon="6.4715">
        <ele>1782.4000244141</ele>
        <time>2012-12-06T13:47:35.000Z</time>
      </trkpt>
      <trkpt lat="45.96439" lon="6.47151">
        <ele>1782.8000488281</ele>
        <time>2012-12-06T13:47:40.000Z</time>
      </trkpt>
      <trkpt lat="45.96437" lon="6.47153">
        <ele>1782.8000488281</ele>
        <time>2012-12-06T13:47:42.000Z</time>
      </trkpt>
      <trkpt lat="45.96432" lon="6.47155">
        <ele>1782.4000244141</ele>
        <time>2012-12-06T13:47:45.000Z</time>
      </trkpt>
      <trkpt lat="45.9643" lon="6.47157">
        <ele>1782.8000488281</ele>
        <time>2012-12-06T13:47:48.000Z</time>
      </trkpt>
      <trkpt lat="45.96425" lon="6.47161">
        <ele>1783.1999511719</ele>
        <time>2012-12-06T13:47:55.000Z</time>
      </trkpt>
      <trkpt lat="45.96421" lon="6.47163">
        <ele>1782.8000488281</ele>
        <time>2012-12-06T13:47:58.000Z</time>
      </trkpt>
      <trkpt lat="45.96416" lon="6.47169">
        <ele>1782.4000244141</ele>
        <time>2012-12-06T13:48:03.000Z</time>
      </trkpt>
      <trkpt lat="45.96413" lon="6.47174">
        <ele>1781.8000488281</ele>
        <time>2012-12-06T13:48:06.000Z</time>
      </trkpt>
      <trkpt lat="45.96412" lon="6.47175">
        <ele>1781.8000488281</ele>
        <time>2012-12-06T13:48:07.000Z</time>
      </trkpt>
      <trkpt lat="45.96407" lon="6.4718">
        <ele>1781.4000244141</ele>
        <time>2012-12-06T13:48:11.000Z</time>
      </trkpt>
      <trkpt lat="45.96404" lon="6.47185">
        <ele>1780</ele>
        <time>2012-12-06T13:48:15.000Z</time>
      </trkpt>
      <trkpt lat="45.96393" lon="6.47201">
        <ele>1778</ele>
        <time>2012-12-06T13:48:20.000Z</time>
      </trkpt>
      <trkpt lat="45.96376" lon="6.4723">
        <ele>1774.5999755859</ele>
        <time>2012-12-06T13:48:26.000Z</time>
      </trkpt>
      <trkpt lat="45.96356" lon="6.47262">
        <ele>1772.8000488281</ele>
        <time>2012-12-06T13:48:33.000Z</time>
      </trkpt>
      <trkpt lat="45.96353" lon="6.47268">
        <ele>1772.8000488281</ele>
        <time>2012-12-06T13:48:36.000Z</time>
      </trkpt>
      <trkpt lat="45.96352" lon="6.4727">
        <ele>1772.8000488281</ele>
        <time>2012-12-06T13:48:44.000Z</time>
      </trkpt>
      <trkpt lat="45.96346" lon="6.4727">
        <ele>1772.8000488281</ele>
        <time>2012-12-06T13:48:50.000Z</time>
      </trkpt>
      <trkpt lat="45.9634" lon="6.47267">
        <ele>1771.8000488281</ele>
        <time>2012-12-06T13:48:54.000Z</time>
      </trkpt>
      <trkpt lat="45.96337" lon="6.47258">
        <ele>1769.4000244141</ele>
        <time>2012-12-06T13:48:58.000Z</time>
      </trkpt>
      <trkpt lat="45.96338" lon="6.47251">
        <ele>1768</ele>
        <time>2012-12-06T13:49:00.000Z</time>
      </trkpt>
      <trkpt lat="45.96341" lon="6.47242">
        <ele>1765.4000244141</ele>
        <time>2012-12-06T13:49:04.000Z</time>
      </trkpt>
      <trkpt lat="45.96341" lon="6.47223">
        <ele>1758.1999511719</ele>
        <time>2012-12-06T13:49:08.000Z</time>
      </trkpt>
      <trkpt lat="45.9634" lon="6.47205">
        <ele>1752</ele>
        <time>2012-12-06T13:49:11.000Z</time>
      </trkpt>
      <trkpt lat="45.96341" lon="6.47188">
        <ele>1744.4000244141</ele>
        <time>2012-12-06T13:49:14.000Z</time>
      </trkpt>
      <trkpt lat="45.96343" lon="6.47165">
        <ele>1737.1999511719</ele>
        <time>2012-12-06T13:49:18.000Z</time>
      </trkpt>
      <trkpt lat="45.96343" lon="6.47161">
        <ele>1735.1999511719</ele>
        <time>2012-12-06T13:49:19.000Z</time>
      </trkpt>
      <trkpt lat="45.96345" lon="6.47141">
        <ele>1730.8000488281</ele>
        <time>2012-12-06T13:49:24.000Z</time>
      </trkpt>
      <trkpt lat="45.96343" lon="6.47124">
        <ele>1726.5999755859</ele>
        <time>2012-12-06T13:49:29.000Z</time>
      </trkpt>
      <trkpt lat="45.96342" lon="6.47097">
        <ele>1719.8000488281</ele>
        <time>2012-12-06T13:49:33.000Z</time>
      </trkpt>
      <trkpt lat="45.96348" lon="6.47062">
        <ele>1714</ele>
        <time>2012-12-06T13:49:39.000Z</time>
      </trkpt>
      <trkpt lat="45.96349" lon="6.47057">
        <ele>1713.5999755859</ele>
        <time>2012-12-06T13:49:40.000Z</time>
      </trkpt>
      <trkpt lat="45.96343" lon="6.47029">
        <ele>1706.4000244141</ele>
        <time>2012-12-06T13:49:44.000Z</time>
      </trkpt>
      <trkpt lat="45.96342" lon="6.4699">
        <ele>1696.8000488281</ele>
        <time>2012-12-06T13:49:49.000Z</time>
      </trkpt>
      <trkpt lat="45.96342" lon="6.46958">
        <ele>1690</ele>
        <time>2012-12-06T13:49:54.000Z</time>
      </trkpt>
      <trkpt lat="45.96341" lon="6.46931">
        <ele>1685.1999511719</ele>
        <time>2012-12-06T13:49:58.000Z</time>
      </trkpt>
      <trkpt lat="45.96336" lon="6.46919">
        <ele>1683.4000244141</ele>
        <time>2012-12-06T13:50:01.000Z</time>
      </trkpt>
      <trkpt lat="45.96328" lon="6.46899">
        <ele>1681</ele>
        <time>2012-12-06T13:50:04.000Z</time>
      </trkpt>
      <trkpt lat="45.96327" lon="6.4689">
        <ele>1680</ele>
        <time>2012-12-06T13:50:05.000Z</time>
      </trkpt>
      <trkpt lat="45.96324" lon="6.46845">
        <ele>1675.5999755859</ele>
        <time>2012-12-06T13:50:11.000Z</time>
      </trkpt>
      <trkpt lat="45.96322" lon="6.46819">
        <ele>1672.8000488281</ele>
        <time>2012-12-06T13:50:16.000Z</time>
      </trkpt>
      <trkpt lat="45.96322" lon="6.46817">
        <ele>1672.1999511719</ele>
        <time>2012-12-06T13:50:19.000Z</time>
      </trkpt>
      <trkpt lat="45.96322" lon="6.46817">
        <ele>1672.1999511719</ele>
        <time>2012-12-06T13:50:26.000Z</time>
      </trkpt>
      <trkpt lat="45.96316" lon="6.46802">
        <ele>1667.4000244141</ele>
        <time>2012-12-06T13:50:29.000Z</time>
      </trkpt>
      <trkpt lat="45.96302" lon="6.46766">
        <ele>1659.8000488281</ele>
        <time>2012-12-06T13:50:32.000Z</time>
      </trkpt>
      <trkpt lat="45.96291" lon="6.46732">
        <ele>1659.8000488281</ele>
        <time>2012-12-06T13:50:35.000Z</time>
      </trkpt>
      <trkpt lat="45.96285" lon="6.46714">
        <ele>1659.1999511719</ele>
        <time>2012-12-06T13:50:38.000Z</time>
      </trkpt>
      <trkpt lat="45.96284" lon="6.46711">
        <ele>1659.1999511719</ele>
        <time>2012-12-06T13:50:39.000Z</time>
      </trkpt>
      <trkpt lat="45.96276" lon="6.4669">
        <ele>1659.8000488281</ele>
        <time>2012-12-06T13:50:44.000Z</time>
      </trkpt>
      <trkpt lat="45.96265" lon="6.46674">
        <ele>1656</ele>
        <time>2012-12-06T13:50:48.000Z</time>
      </trkpt>
      <trkpt lat="45.96255" lon="6.46653">
        <ele>1648.5999755859</ele>
        <time>2012-12-06T13:50:51.000Z</time>
      </trkpt>
      <trkpt lat="45.96252" lon="6.46645">
        <ele>1645.8000488281</ele>
        <time>2012-12-06T13:50:52.000Z</time>
      </trkpt>
      <trkpt lat="45.96244" lon="6.4662">
        <ele>1637.5999755859</ele>
        <time>2012-12-06T13:50:55.000Z</time>
      </trkpt>
      <trkpt lat="45.96235" lon="6.46585">
        <ele>1629.4000244141</ele>
        <time>2012-12-06T13:50:59.000Z</time>
      </trkpt>
      <trkpt lat="45.96232" lon="6.46541">
        <ele>1619.8000488281</ele>
        <time>2012-12-06T13:51:04.000Z</time>
      </trkpt>
      <trkpt lat="45.96233" lon="6.46531">
        <ele>1618.8000488281</ele>
        <time>2012-12-06T13:51:05.000Z</time>
      </trkpt>
      <trkpt lat="45.96236" lon="6.46504">
        <ele>1616.4000244141</ele>
        <time>2012-12-06T13:51:09.000Z</time>
      </trkpt>
      <trkpt lat="45.96237" lon="6.46495">
        <ele>1615.5999755859</ele>
        <time>2012-12-06T13:51:11.000Z</time>
      </trkpt>
      <trkpt lat="45.9625" lon="6.4647">
        <ele>1613.1999511719</ele>
        <time>2012-12-06T13:51:17.000Z</time>
      </trkpt>
      <trkpt lat="45.96256" lon="6.46467">
        <ele>1611.5999755859</ele>
        <time>2012-12-06T13:51:20.000Z</time>
      </trkpt>
      <trkpt lat="45.96274" lon="6.46469">
        <ele>1609.1999511719</ele>
        <time>2012-12-06T13:51:24.000Z</time>
      </trkpt>
      <trkpt lat="45.96277" lon="6.46469">
        <ele>1608.4000244141</ele>
        <time>2012-12-06T13:51:25.000Z</time>
      </trkpt>
      <trkpt lat="45.96295" lon="6.46466">
        <ele>1603.5999755859</ele>
        <time>2012-12-06T13:51:31.000Z</time>
      </trkpt>
      <trkpt lat="45.96302" lon="6.46462">
        <ele>1601.5999755859</ele>
        <time>2012-12-06T13:51:38.000Z</time>
      </trkpt>
      <trkpt lat="45.96308" lon="6.46461">
        <ele>1599.5999755859</ele>
        <time>2012-12-06T13:51:41.000Z</time>
      </trkpt>
      <trkpt lat="45.96315" lon="6.46452">
        <ele>1595.8000488281</ele>
        <time>2012-12-06T13:51:44.000Z</time>
      </trkpt>
      <trkpt lat="45.96318" lon="6.4644">
        <ele>1589</ele>
        <time>2012-12-06T13:51:48.000Z</time>
      </trkpt>
      <trkpt lat="45.96322" lon="6.46436">
        <ele>1587.5999755859</ele>
        <time>2012-12-06T13:51:49.000Z</time>
      </trkpt>
      <trkpt lat="45.96344" lon="6.4642">
        <ele>1581.8000488281</ele>
        <time>2012-12-06T13:51:52.000Z</time>
      </trkpt>
      <trkpt lat="45.9637" lon="6.46383">
        <ele>1578.5999755859</ele>
        <time>2012-12-06T13:51:56.000Z</time>
      </trkpt>
      <trkpt lat="45.96377" lon="6.4638">
        <ele>1578.5999755859</ele>
        <time>2012-12-06T13:51:57.000Z</time>
      </trkpt>
      <trkpt lat="45.96395" lon="6.4637">
        <ele>1577</ele>
        <time>2012-12-06T13:52:00.000Z</time>
      </trkpt>
      <trkpt lat="45.96406" lon="6.46366">
        <ele>1575.5999755859</ele>
        <time>2012-12-06T13:52:02.000Z</time>
      </trkpt>
      <trkpt lat="45.96433" lon="6.46362">
        <ele>1570.4000244141</ele>
        <time>2012-12-06T13:52:06.000Z</time>
      </trkpt>
      <trkpt lat="45.96437" lon="6.46363">
        <ele>1569.4000244141</ele>
        <time>2012-12-06T13:52:07.000Z</time>
      </trkpt>
      <trkpt lat="45.96459" lon="6.46362">
        <ele>1561.5999755859</ele>
        <time>2012-12-06T13:52:12.000Z</time>
      </trkpt>
      <trkpt lat="45.96462" lon="6.4636">
        <ele>1560.1999511719</ele>
        <time>2012-12-06T13:52:13.000Z</time>
      </trkpt>
      <trkpt lat="45.9648" lon="6.46349">
        <ele>1552.5999755859</ele>
        <time>2012-12-06T13:52:19.000Z</time>
      </trkpt>
      <trkpt lat="45.96497" lon="6.46339">
        <ele>1546.4000244141</ele>
        <time>2012-12-06T13:52:23.000Z</time>
      </trkpt>
      <trkpt lat="45.96503" lon="6.46331">
        <ele>1544</ele>
        <time>2012-12-06T13:52:25.000Z</time>
      </trkpt>
      <trkpt lat="45.96508" lon="6.46319">
        <ele>1540.5999755859</ele>
        <time>2012-12-06T13:52:28.000Z</time>
      </trkpt>
      <trkpt lat="45.9652" lon="6.46289">
        <ele>1533.4000244141</ele>
        <time>2012-12-06T13:52:35.000Z</time>
      </trkpt>
      <trkpt lat="45.96529" lon="6.46276">
        <ele>1528</ele>
        <time>2012-12-06T13:52:38.000Z</time>
      </trkpt>
      <trkpt lat="45.96538" lon="6.46269">
        <ele>1525.1999511719</ele>
        <time>2012-12-06T13:52:40.000Z</time>
      </trkpt>
      <trkpt lat="45.96553" lon="6.4624">
        <ele>1515</ele>
        <time>2012-12-06T13:52:45.000Z</time>
      </trkpt>
      <trkpt lat="45.96558" lon="6.46233">
        <ele>1513.1999511719</ele>
        <time>2012-12-06T13:52:46.000Z</time>
      </trkpt>
      <trkpt lat="45.96572" lon="6.4621">
        <ele>1504.5999755859</ele>
        <time>2012-12-06T13:52:50.000Z</time>
      </trkpt>
      <trkpt lat="45.96582" lon="6.46191">
        <ele>1497.8000488281</ele>
        <time>2012-12-06T13:52:53.000Z</time>
      </trkpt>
      <trkpt lat="45.96596" lon="6.46166">
        <ele>1488.5999755859</ele>
        <time>2012-12-06T13:52:57.000Z</time>
      </trkpt>
      <trkpt lat="45.96603" lon="6.46159">
        <ele>1485.1999511719</ele>
        <time>2012-12-06T13:52:59.000Z</time>
      </trkpt>
      <trkpt lat="45.96614" lon="6.46148">
        <ele>1481</ele>
        <time>2012-12-06T13:53:02.000Z</time>
      </trkpt>
      <trkpt lat="45.9662" lon="6.4613">
        <ele>1477.1999511719</ele>
        <time>2012-12-06T13:53:06.000Z</time>
      </trkpt>
      <trkpt lat="45.96621" lon="6.46124">
        <ele>1476.1999511719</ele>
        <time>2012-12-06T13:53:09.000Z</time>
      </trkpt>
      <trkpt lat="45.9662" lon="6.46123">
        <ele>1475.5999755859</ele>
        <time>2012-12-06T13:53:19.000Z</time>
      </trkpt>
      <trkpt lat="45.96619" lon="6.46123">
        <ele>1475.5999755859</ele>
        <time>2012-12-06T13:53:31.000Z</time>
      </trkpt>
      <trkpt lat="45.96618" lon="6.46123">
        <ele>1477.1999511719</ele>
        <time>2012-12-06T13:53:39.000Z</time>
      </trkpt>
      <trkpt lat="45.96618" lon="6.46124">
        <ele>1476.1999511719</ele>
        <time>2012-12-06T13:53:56.000Z</time>
      </trkpt>
      <trkpt lat="45.96618" lon="6.46123">
        <ele>1476.1999511719</ele>
        <time>2012-12-06T13:54:00.000Z</time>
      </trkpt>
      <trkpt lat="45.96619" lon="6.46119">
        <ele>1475.5999755859</ele>
        <time>2012-12-06T13:54:03.000Z</time>
      </trkpt>
      <trkpt lat="45.96628" lon="6.461">
        <ele>1473.8000488281</ele>
        <time>2012-12-06T13:54:10.000Z</time>
      </trkpt>
      <trkpt lat="45.9663" lon="6.46097">
        <ele>1473.1999511719</ele>
        <time>2012-12-06T13:54:11.000Z</time>
      </trkpt>
      <trkpt lat="45.96648" lon="6.46075">
        <ele>1468</ele>
        <time>2012-12-06T13:54:17.000Z</time>
      </trkpt>
      <trkpt lat="45.96655" lon="6.4606">
        <ele>1465</ele>
        <time>2012-12-06T13:54:21.000Z</time>
      </trkpt>
      <trkpt lat="45.9666" lon="6.4605">
        <ele>1463.1999511719</ele>
        <time>2012-12-06T13:54:26.000Z</time>
      </trkpt>
      <trkpt lat="45.96666" lon="6.46037">
        <ele>1459.4000244141</ele>
        <time>2012-12-06T13:54:29.000Z</time>
      </trkpt>
      <trkpt lat="45.9668" lon="6.46009">
        <ele>1452.1999511719</ele>
        <time>2012-12-06T13:54:34.000Z</time>
      </trkpt>
      <trkpt lat="45.96683" lon="6.46004">
        <ele>1450.1999511719</ele>
        <time>2012-12-06T13:54:35.000Z</time>
      </trkpt>
      <trkpt lat="45.96691" lon="6.45984">
        <ele>1446.4000244141</ele>
        <time>2012-12-06T13:54:38.000Z</time>
      </trkpt>
      <trkpt lat="45.96708" lon="6.4596">
        <ele>1441</ele>
        <time>2012-12-06T13:54:44.000Z</time>
      </trkpt>
      <trkpt lat="45.96714" lon="6.45949">
        <ele>1438.1999511719</ele>
        <time>2012-12-06T13:54:47.000Z</time>
      </trkpt>
      <trkpt lat="45.96718" lon="6.45946">
        <ele>1436.1999511719</ele>
        <time>2012-12-06T13:54:50.000Z</time>
      </trkpt>
      <trkpt lat="45.96719" lon="6.45946">
        <ele>1435.8000488281</ele>
        <time>2012-12-06T13:54:51.000Z</time>
      </trkpt>
      <trkpt lat="45.96725" lon="6.45943">
        <ele>1434.8000488281</ele>
        <time>2012-12-06T13:54:55.000Z</time>
      </trkpt>
      <trkpt lat="45.96728" lon="6.45941">
        <ele>1434.8000488281</ele>
        <time>2012-12-06T13:54:57.000Z</time>
      </trkpt>
      <trkpt lat="45.96733" lon="6.45938">
        <ele>1433.4000244141</ele>
        <time>2012-12-06T13:55:02.000Z</time>
      </trkpt>
      <trkpt lat="45.96742" lon="6.4593">
        <ele>1432.4000244141</ele>
        <time>2012-12-06T13:55:08.000Z</time>
      </trkpt>
      <trkpt lat="45.9675" lon="6.45909">
        <ele>1430</ele>
        <time>2012-12-06T13:55:15.000Z</time>
      </trkpt>
      <trkpt lat="45.96751" lon="6.45894">
        <ele>1428</ele>
        <time>2012-12-06T13:55:22.000Z</time>
      </trkpt>
      <trkpt lat="45.96751" lon="6.45891">
        <ele>1427.5999755859</ele>
        <time>2012-12-06T13:55:23.000Z</time>
      </trkpt>
      <trkpt lat="45.96757" lon="6.45875">
        <ele>1425.5999755859</ele>
        <time>2012-12-06T13:55:28.000Z</time>
      </trkpt>
      <trkpt lat="45.9676" lon="6.45857">
        <ele>1424.8000488281</ele>
        <time>2012-12-06T13:55:31.000Z</time>
      </trkpt>
      <trkpt lat="45.96779" lon="6.45838">
        <ele>1420.4000244141</ele>
        <time>2012-12-06T13:55:36.000Z</time>
      </trkpt>
      <trkpt lat="45.96815" lon="6.45831">
        <ele>1415</ele>
        <time>2012-12-06T13:55:40.000Z</time>
      </trkpt>
      <trkpt lat="45.96826" lon="6.45828">
        <ele>1413.5999755859</ele>
        <time>2012-12-06T13:55:41.000Z</time>
      </trkpt>
      <trkpt lat="45.96845" lon="6.45814">
        <ele>1410.8000488281</ele>
        <time>2012-12-06T13:55:43.000Z</time>
      </trkpt>
      <trkpt lat="45.96864" lon="6.45786">
        <ele>1406</ele>
        <time>2012-12-06T13:55:46.000Z</time>
      </trkpt>
      <trkpt lat="45.96868" lon="6.45772">
        <ele>1402.5999755859</ele>
        <time>2012-12-06T13:55:48.000Z</time>
      </trkpt>
      <trkpt lat="45.96874" lon="6.45774">
        <ele>1400.1999511719</ele>
        <time>2012-12-06T13:55:50.000Z</time>
      </trkpt>
      <trkpt lat="45.96875" lon="6.45778">
        <ele>1397.4000244141</ele>
        <time>2012-12-06T13:55:54.000Z</time>
      </trkpt>
      <trkpt lat="45.96875" lon="6.45777">
        <ele>1397.4000244141</ele>
        <time>2012-12-06T13:55:55.000Z</time>
      </trkpt>
      <trkpt lat="45.96869" lon="6.45777">
        <ele>1393</ele>
        <time>2012-12-06T13:56:05.000Z</time>
      </trkpt>
      <trkpt lat="45.96869" lon="6.45779">
        <ele>1393.4000244141</ele>
        <time>2012-12-06T13:56:17.000Z</time>
      </trkpt>
      <trkpt lat="45.9687" lon="6.45778">
        <ele>1394.4000244141</ele>
        <time>2012-12-06T13:56:42.000Z</time>
      </trkpt>
      <trkpt lat="45.96871" lon="6.45777">
        <ele>1395.4000244141</ele>
        <time>2012-12-06T13:56:49.000Z</time>
      </trkpt>
      <trkpt lat="45.96871" lon="6.45777">
        <ele>1395.4000244141</ele>
        <time>2012-12-06T13:56:51.000Z</time>
      </trkpt>
      <trkpt lat="45.96878" lon="6.45771">
        <ele>1395.8000488281</ele>
        <time>2012-12-06T13:56:54.000Z</time>
      </trkpt>
      <trkpt lat="45.96884" lon="6.4576">
        <ele>1394</ele>
        <time>2012-12-06T13:56:56.000Z</time>
      </trkpt>
      <trkpt lat="45.969" lon="6.45743">
        <ele>1390.1999511719</ele>
        <time>2012-12-06T13:56:59.000Z</time>
      </trkpt>
      <trkpt lat="45.96912" lon="6.45719">
        <ele>1381.4000244141</ele>
        <time>2012-12-06T13:57:03.000Z</time>
      </trkpt>
      <trkpt lat="45.96916" lon="6.4571">
        <ele>1380</ele>
        <time>2012-12-06T13:57:04.000Z</time>
      </trkpt>
      <trkpt lat="45.96924" lon="6.45696">
        <ele>1376.1999511719</ele>
        <time>2012-12-06T13:57:06.000Z</time>
      </trkpt>
      <trkpt lat="45.96944" lon="6.45682">
        <ele>1368</ele>
        <time>2012-12-06T13:57:09.000Z</time>
      </trkpt>
      <trkpt lat="45.96957" lon="6.45671">
        <ele>1363.1999511719</ele>
        <time>2012-12-06T13:57:11.000Z</time>
      </trkpt>
      <trkpt lat="45.96973" lon="6.45647">
        <ele>1356</ele>
        <time>2012-12-06T13:57:14.000Z</time>
      </trkpt>
      <trkpt lat="45.96985" lon="6.45629">
        <ele>1350.1999511719</ele>
        <time>2012-12-06T13:57:16.000Z</time>
      </trkpt>
      <trkpt lat="45.96997" lon="6.45606">
        <ele>1344.4000244141</ele>
        <time>2012-12-06T13:57:18.000Z</time>
      </trkpt>
      <trkpt lat="45.96997" lon="6.45577">
        <ele>1340.1999511719</ele>
        <time>2012-12-06T13:57:20.000Z</time>
      </trkpt>
      <trkpt lat="45.97007" lon="6.45558">
        <ele>1335.8000488281</ele>
        <time>2012-12-06T13:57:22.000Z</time>
      </trkpt>
      <trkpt lat="45.97011" lon="6.45532">
        <ele>1331.4000244141</ele>
        <time>2012-12-06T13:57:25.000Z</time>
      </trkpt>
      <trkpt lat="45.97015" lon="6.45517">
        <ele>1329.5999755859</ele>
        <time>2012-12-06T13:57:27.000Z</time>
      </trkpt>
      <trkpt lat="45.97027" lon="6.45481">
        <ele>1322.8000488281</ele>
        <time>2012-12-06T13:57:31.000Z</time>
      </trkpt>
      <trkpt lat="45.9703" lon="6.45466">
        <ele>1320</ele>
        <time>2012-12-06T13:57:32.000Z</time>
      </trkpt>
      <trkpt lat="45.9703" lon="6.45399">
        <ele>1309.4000244141</ele>
        <time>2012-12-06T13:57:36.000Z</time>
      </trkpt>
      <trkpt lat="45.97031" lon="6.45365">
        <ele>1304</ele>
        <time>2012-12-06T13:57:38.000Z</time>
      </trkpt>
      <trkpt lat="45.97033" lon="6.45309">
        <ele>1295.8000488281</ele>
        <time>2012-12-06T13:57:41.000Z</time>
      </trkpt>
      <trkpt lat="45.97042" lon="6.45262">
        <ele>1287.1999511719</ele>
        <time>2012-12-06T13:57:44.000Z</time>
      </trkpt>
      <trkpt lat="45.97037" lon="6.4523">
        <ele>1281.4000244141</ele>
        <time>2012-12-06T13:57:46.000Z</time>
      </trkpt>
      <trkpt lat="45.97031" lon="6.45214">
        <ele>1278.5999755859</ele>
        <time>2012-12-06T13:57:47.000Z</time>
      </trkpt>
      <trkpt lat="45.9701" lon="6.45171">
        <ele>1272.8000488281</ele>
        <time>2012-12-06T13:57:51.000Z</time>
      </trkpt>
      <trkpt lat="45.97008" lon="6.45174">
        <ele>1272.4000244141</ele>
        <time>2012-12-06T13:57:53.000Z</time>
      </trkpt>
      <trkpt lat="45.97008" lon="6.45177">
        <ele>1274.8000488281</ele>
        <time>2012-12-06T13:58:00.000Z</time>
      </trkpt>
      <trkpt lat="45.97011" lon="6.45179">
        <ele>1275.8000488281</ele>
        <time>2012-12-06T14:03:19.000Z</time>
      </trkpt>
      <trkpt lat="45.97017" lon="6.45189">
        <ele>1276.1999511719</ele>
        <time>2012-12-06T14:03:24.000Z</time>
      </trkpt>
      <trkpt lat="45.97022" lon="6.45198">
        <ele>1276.1999511719</ele>
        <time>2012-12-06T14:03:28.000Z</time>
      </trkpt>
      <trkpt lat="45.97026" lon="6.45208">
        <ele>1278.1999511719</ele>
        <time>2012-12-06T14:03:33.000Z</time>
      </trkpt>
      <trkpt lat="45.9703" lon="6.45218">
        <ele>1279.5999755859</ele>
        <time>2012-12-06T14:03:39.000Z</time>
      </trkpt>
      <trkpt lat="45.97038" lon="6.45231">
        <ele>1283.4000244141</ele>
        <time>2012-12-06T14:03:44.000Z</time>
      </trkpt>
      <trkpt lat="45.9704" lon="6.45238">
        <ele>1284.8000488281</ele>
        <time>2012-12-06T14:03:48.000Z</time>
      </trkpt>
      <trkpt lat="45.97041" lon="6.4524">
        <ele>1285.4000244141</ele>
        <time>2012-12-06T14:03:49.000Z</time>
      </trkpt>
      <trkpt lat="45.9704" lon="6.45247">
        <ele>1286.1999511719</ele>
        <time>2012-12-06T14:03:54.000Z</time>
      </trkpt>
      <trkpt lat="45.97039" lon="6.4525">
        <ele>1286.1999511719</ele>
        <time>2012-12-06T14:03:56.000Z</time>
      </trkpt>
      <trkpt lat="45.97037" lon="6.45256">
        <ele>1286.1999511719</ele>
        <time>2012-12-06T14:04:02.000Z</time>
      </trkpt>
      <trkpt lat="45.97038" lon="6.45262">
        <ele>1287.1999511719</ele>
        <time>2012-12-06T14:04:06.000Z</time>
      </trkpt>
      <trkpt lat="45.97037" lon="6.45269">
        <ele>1288.5999755859</ele>
        <time>2012-12-06T14:04:13.000Z</time>
      </trkpt>
      <trkpt lat="45.97036" lon="6.45274">
        <ele>1289.1999511719</ele>
        <time>2012-12-06T14:04:18.000Z</time>
      </trkpt>
      <trkpt lat="45.97035" lon="6.45278">
        <ele>1289.1999511719</ele>
        <time>2012-12-06T14:04:22.000Z</time>
      </trkpt>
      <trkpt lat="45.97035" lon="6.45283">
        <ele>1290.1999511719</ele>
        <time>2012-12-06T14:04:27.000Z</time>
      </trkpt>
      <trkpt lat="45.97035" lon="6.45289">
        <ele>1291</ele>
        <time>2012-12-06T14:04:32.000Z</time>
      </trkpt>
      <trkpt lat="45.97035" lon="6.45297">
        <ele>1292.5999755859</ele>
        <time>2012-12-06T14:04:38.000Z</time>
      </trkpt>
      <trkpt lat="45.97034" lon="6.45303">
        <ele>1293.4000244141</ele>
        <time>2012-12-06T14:04:44.000Z</time>
      </trkpt>
      <trkpt lat="45.97034" lon="6.45303">
        <ele>1294</ele>
        <time>2012-12-06T14:04:53.000Z</time>
      </trkpt>
      <trkpt lat="45.97034" lon="6.45306">
        <ele>1295</ele>
        <time>2012-12-06T14:04:59.000Z</time>
      </trkpt>
      <trkpt lat="45.97033" lon="6.45314">
        <ele>1296.4000244141</ele>
        <time>2012-12-06T14:05:05.000Z</time>
      </trkpt>
      <trkpt lat="45.97033" lon="6.45322">
        <ele>1298.1999511719</ele>
        <time>2012-12-06T14:05:11.000Z</time>
      </trkpt>
      <trkpt lat="45.97033" lon="6.45326">
        <ele>1299.1999511719</ele>
        <time>2012-12-06T14:05:13.000Z</time>
      </trkpt>
      <trkpt lat="45.97034" lon="6.45336">
        <ele>1301.1999511719</ele>
        <time>2012-12-06T14:05:20.000Z</time>
      </trkpt>
      <trkpt lat="45.97033" lon="6.45341">
        <ele>1301.5999755859</ele>
        <time>2012-12-06T14:05:23.000Z</time>
      </trkpt>
      <trkpt lat="45.97032" lon="6.45349">
        <ele>1302.5999755859</ele>
        <time>2012-12-06T14:05:29.000Z</time>
      </trkpt>
      <trkpt lat="45.97032" lon="6.45352">
        <ele>1302.5999755859</ele>
        <time>2012-12-06T14:05:31.000Z</time>
      </trkpt>
      <trkpt lat="45.97031" lon="6.45364">
        <ele>1303.5999755859</ele>
        <time>2012-12-06T14:05:38.000Z</time>
      </trkpt>
      <trkpt lat="45.97031" lon="6.45375">
        <ele>1303.5999755859</ele>
        <time>2012-12-06T14:05:43.000Z</time>
      </trkpt>
      <trkpt lat="45.9703" lon="6.45383">
        <ele>1303.1999511719</ele>
        <time>2012-12-06T14:05:48.000Z</time>
      </trkpt>
      <trkpt lat="45.9703" lon="6.45386">
        <ele>1303.5999755859</ele>
        <time>2012-12-06T14:05:50.000Z</time>
      </trkpt>
      <trkpt lat="45.97029" lon="6.45395">
        <ele>1304</ele>
        <time>2012-12-06T14:05:56.000Z</time>
      </trkpt>
      <trkpt lat="45.97029" lon="6.45397">
        <ele>1304</ele>
        <time>2012-12-06T14:05:57.000Z</time>
      </trkpt>
      <trkpt lat="45.97029" lon="6.45406">
        <ele>1305</ele>
        <time>2012-12-06T14:06:04.000Z</time>
      </trkpt>
      <trkpt lat="45.9703" lon="6.45416">
        <ele>1306</ele>
        <time>2012-12-06T14:06:10.000Z</time>
      </trkpt>
      <trkpt lat="45.9703" lon="6.45417">
        <ele>1306.4000244141</ele>
        <time>2012-12-06T14:06:11.000Z</time>
      </trkpt>
      <trkpt lat="45.9703" lon="6.45427">
        <ele>1308</ele>
        <time>2012-12-06T14:06:18.000Z</time>
      </trkpt>
      <trkpt lat="45.9703" lon="6.45431">
        <ele>1309.4000244141</ele>
        <time>2012-12-06T14:06:22.000Z</time>
      </trkpt>
      <trkpt lat="45.97029" lon="6.45443">
        <ele>1311.1999511719</ele>
        <time>2012-12-06T14:06:30.000Z</time>
      </trkpt>
      <trkpt lat="45.97028" lon="6.45452">
        <ele>1313.1999511719</ele>
        <time>2012-12-06T14:06:37.000Z</time>
      </trkpt>
      <trkpt lat="45.97027" lon="6.45461">
        <ele>1315.1999511719</ele>
        <time>2012-12-06T14:06:44.000Z</time>
      </trkpt>
      <trkpt lat="45.97026" lon="6.45471">
        <ele>1316.5999755859</ele>
        <time>2012-12-06T14:06:51.000Z</time>
      </trkpt>
      <trkpt lat="45.97025" lon="6.45476">
        <ele>1317.5999755859</ele>
        <time>2012-12-06T14:06:55.000Z</time>
      </trkpt>
      <trkpt lat="45.97024" lon="6.45481">
        <ele>1318.4000244141</ele>
        <time>2012-12-06T14:06:59.000Z</time>
      </trkpt>
      <trkpt lat="45.97023" lon="6.45485">
        <ele>1320</ele>
        <time>2012-12-06T14:07:04.000Z</time>
      </trkpt>
      <trkpt lat="45.97023" lon="6.4549">
        <ele>1321.4000244141</ele>
        <time>2012-12-06T14:07:08.000Z</time>
      </trkpt>
      <trkpt lat="45.97022" lon="6.45496">
        <ele>1322.8000488281</ele>
        <time>2012-12-06T14:07:12.000Z</time>
      </trkpt>
      <trkpt lat="45.97022" lon="6.45501">
        <ele>1324.1999511719</ele>
        <time>2012-12-06T14:07:16.000Z</time>
      </trkpt>
      <trkpt lat="45.97021" lon="6.45506">
        <ele>1325.1999511719</ele>
        <time>2012-12-06T14:07:20.000Z</time>
      </trkpt>
      <trkpt lat="45.97019" lon="6.45512">
        <ele>1326.1999511719</ele>
        <time>2012-12-06T14:07:27.000Z</time>
      </trkpt>
      <trkpt lat="45.97017" lon="6.45516">
        <ele>1326.5999755859</ele>
        <time>2012-12-06T14:07:30.000Z</time>
      </trkpt>
      <trkpt lat="45.97014" lon="6.45524">
        <ele>1325.5999755859</ele>
        <time>2012-12-06T14:07:36.000Z</time>
      </trkpt>
      <trkpt lat="45.97013" lon="6.45528">
        <ele>1325.5999755859</ele>
        <time>2012-12-06T14:07:39.000Z</time>
      </trkpt>
      <trkpt lat="45.97011" lon="6.45535">
        <ele>1326.5999755859</ele>
        <time>2012-12-06T14:07:44.000Z</time>
      </trkpt>
      <trkpt lat="45.97009" lon="6.45543">
        <ele>1327.1999511719</ele>
        <time>2012-12-06T14:07:49.000Z</time>
      </trkpt>
      <trkpt lat="45.97007" lon="6.45555">
        <ele>1330</ele>
        <time>2012-12-06T14:07:57.000Z</time>
      </trkpt>
      <trkpt lat="45.97005" lon="6.45563">
        <ele>1332</ele>
        <time>2012-12-06T14:08:03.000Z</time>
      </trkpt>
      <trkpt lat="45.97003" lon="6.4557">
        <ele>1333.8000488281</ele>
        <time>2012-12-06T14:08:08.000Z</time>
      </trkpt>
      <trkpt lat="45.97001" lon="6.45577">
        <ele>1334.8000488281</ele>
        <time>2012-12-06T14:08:13.000Z</time>
      </trkpt>
      <trkpt lat="45.97" lon="6.45586">
        <ele>1337.1999511719</ele>
        <time>2012-12-06T14:08:20.000Z</time>
      </trkpt>
      <trkpt lat="45.96999" lon="6.45588">
        <ele>1337.1999511719</ele>
        <time>2012-12-06T14:08:25.000Z</time>
      </trkpt>
      <trkpt lat="45.96999" lon="6.45588">
        <ele>1335.8000488281</ele>
        <time>2012-12-06T14:08:41.000Z</time>
      </trkpt>
      <trkpt lat="45.96998" lon="6.45591">
        <ele>1335.8000488281</ele>
        <time>2012-12-06T14:08:48.000Z</time>
      </trkpt>
      <trkpt lat="45.96996" lon="6.45598">
        <ele>1337.1999511719</ele>
        <time>2012-12-06T14:08:53.000Z</time>
      </trkpt>
      <trkpt lat="45.96995" lon="6.45602">
        <ele>1338.1999511719</ele>
        <time>2012-12-06T14:08:56.000Z</time>
      </trkpt>
      <trkpt lat="45.96993" lon="6.45606">
        <ele>1338.5999755859</ele>
        <time>2012-12-06T14:08:59.000Z</time>
      </trkpt>
      <trkpt lat="45.9699" lon="6.45612">
        <ele>1339.5999755859</ele>
        <time>2012-12-06T14:09:04.000Z</time>
      </trkpt>
      <trkpt lat="45.96986" lon="6.45617">
        <ele>1341</ele>
        <time>2012-12-06T14:09:10.000Z</time>
      </trkpt>
      <trkpt lat="45.96983" lon="6.45621">
        <ele>1342.5999755859</ele>
        <time>2012-12-06T14:09:14.000Z</time>
      </trkpt>
      <trkpt lat="45.96979" lon="6.45629">
        <ele>1345.4000244141</ele>
        <time>2012-12-06T14:09:20.000Z</time>
      </trkpt>
      <trkpt lat="45.9698" lon="6.45631">
        <ele>1346.8000488281</ele>
        <time>2012-12-06T14:09:24.000Z</time>
      </trkpt>
      <trkpt lat="45.96978" lon="6.45633">
        <ele>1347.8000488281</ele>
        <time>2012-12-06T14:09:27.000Z</time>
      </trkpt>
      <trkpt lat="45.96976" lon="6.45633">
        <ele>1346.8000488281</ele>
        <time>2012-12-06T14:09:31.000Z</time>
      </trkpt>
      <trkpt lat="45.96976" lon="6.45635">
        <ele>1349.1999511719</ele>
        <time>2012-12-06T14:09:35.000Z</time>
      </trkpt>
      <trkpt lat="45.96975" lon="6.45637">
        <ele>1353</ele>
        <time>2012-12-06T14:09:39.000Z</time>
      </trkpt>
      <trkpt lat="45.96971" lon="6.45641">
        <ele>1356.4000244141</ele>
        <time>2012-12-06T14:09:45.000Z</time>
      </trkpt>
      <trkpt lat="45.96969" lon="6.45644">
        <ele>1358.4000244141</ele>
        <time>2012-12-06T14:09:49.000Z</time>
      </trkpt>
      <trkpt lat="45.96967" lon="6.45645">
        <ele>1359.8000488281</ele>
        <time>2012-12-06T14:09:52.000Z</time>
      </trkpt>
      <trkpt lat="45.96964" lon="6.45649">
        <ele>1362.8000488281</ele>
        <time>2012-12-06T14:09:57.000Z</time>
      </trkpt>
      <trkpt lat="45.96962" lon="6.45653">
        <ele>1364.5999755859</ele>
        <time>2012-12-06T14:10:02.000Z</time>
      </trkpt>
      <trkpt lat="45.9696" lon="6.45659">
        <ele>1364.5999755859</ele>
        <time>2012-12-06T14:10:08.000Z</time>
      </trkpt>
      <trkpt lat="45.96956" lon="6.45665">
        <ele>1365.1999511719</ele>
        <time>2012-12-06T14:10:15.000Z</time>
      </trkpt>
      <trkpt lat="45.96952" lon="6.4567">
        <ele>1367.5999755859</ele>
        <time>2012-12-06T14:10:21.000Z</time>
      </trkpt>
      <trkpt lat="45.96947" lon="6.45674">
        <ele>1369</ele>
        <time>2012-12-06T14:10:27.000Z</time>
      </trkpt>
      <trkpt lat="45.96943" lon="6.45677">
        <ele>1369.4000244141</ele>
        <time>2012-12-06T14:10:33.000Z</time>
      </trkpt>
      <trkpt lat="45.96939" lon="6.45682">
        <ele>1371.8000488281</ele>
        <time>2012-12-06T14:10:40.000Z</time>
      </trkpt>
      <trkpt lat="45.96937" lon="6.45684">
        <ele>1372.8000488281</ele>
        <time>2012-12-06T14:10:44.000Z</time>
      </trkpt>
      <trkpt lat="45.96934" lon="6.45687">
        <ele>1373.1999511719</ele>
        <time>2012-12-06T14:10:49.000Z</time>
      </trkpt>
      <trkpt lat="45.96931" lon="6.4569">
        <ele>1373.8000488281</ele>
        <time>2012-12-06T14:10:54.000Z</time>
      </trkpt>
      <trkpt lat="45.96927" lon="6.45693">
        <ele>1374.1999511719</ele>
        <time>2012-12-06T14:11:00.000Z</time>
      </trkpt>
      <trkpt lat="45.96926" lon="6.45694">
        <ele>1374.8000488281</ele>
        <time>2012-12-06T14:11:04.000Z</time>
      </trkpt>
      <trkpt lat="45.96926" lon="6.45697">
        <ele>1375.5999755859</ele>
        <time>2012-12-06T14:11:09.000Z</time>
      </trkpt>
      <trkpt lat="45.96925" lon="6.45698">
        <ele>1376.5999755859</ele>
        <time>2012-12-06T14:11:13.000Z</time>
      </trkpt>
      <trkpt lat="45.96922" lon="6.45699">
        <ele>1376.1999511719</ele>
        <time>2012-12-06T14:11:17.000Z</time>
      </trkpt>
      <trkpt lat="45.96918" lon="6.45701">
        <ele>1376.5999755859</ele>
        <time>2012-12-06T14:11:20.000Z</time>
      </trkpt>
      <trkpt lat="45.96915" lon="6.45705">
        <ele>1376.1999511719</ele>
        <time>2012-12-06T14:11:24.000Z</time>
      </trkpt>
      <trkpt lat="45.96914" lon="6.45707">
        <ele>1374.8000488281</ele>
        <time>2012-12-06T14:11:28.000Z</time>
      </trkpt>
      <trkpt lat="45.96911" lon="6.45711">
        <ele>1374.8000488281</ele>
        <time>2012-12-06T14:11:34.000Z</time>
      </trkpt>
      <trkpt lat="45.96908" lon="6.45718">
        <ele>1374.8000488281</ele>
        <time>2012-12-06T14:11:41.000Z</time>
      </trkpt>
      <trkpt lat="45.96907" lon="6.4572">
        <ele>1375.5999755859</ele>
        <time>2012-12-06T14:11:45.000Z</time>
      </trkpt>
      <trkpt lat="45.96906" lon="6.45722">
        <ele>1377.5999755859</ele>
        <time>2012-12-06T14:11:50.000Z</time>
      </trkpt>
      <trkpt lat="45.96905" lon="6.45725">
        <ele>1378.5999755859</ele>
        <time>2012-12-06T14:11:55.000Z</time>
      </trkpt>
      <trkpt lat="45.96904" lon="6.45727">
        <ele>1379</ele>
        <time>2012-12-06T14:11:59.000Z</time>
      </trkpt>
      <trkpt lat="45.96903" lon="6.45729">
        <ele>1379.5999755859</ele>
        <time>2012-12-06T14:12:03.000Z</time>
      </trkpt>
      <trkpt lat="45.96901" lon="6.45732">
        <ele>1380.4000244141</ele>
        <time>2012-12-06T14:12:09.000Z</time>
      </trkpt>
      <trkpt lat="45.96898" lon="6.45735">
        <ele>1381.4000244141</ele>
        <time>2012-12-06T14:12:14.000Z</time>
      </trkpt>
      <trkpt lat="45.96896" lon="6.45738">
        <ele>1383.4000244141</ele>
        <time>2012-12-06T14:12:19.000Z</time>
      </trkpt>
      <trkpt lat="45.96895" lon="6.4574">
        <ele>1384.8000488281</ele>
        <time>2012-12-06T14:12:23.000Z</time>
      </trkpt>
      <trkpt lat="45.96893" lon="6.45742">
        <ele>1385.8000488281</ele>
        <time>2012-12-06T14:12:27.000Z</time>
      </trkpt>
      <trkpt lat="45.96892" lon="6.45745">
        <ele>1387.1999511719</ele>
        <time>2012-12-06T14:12:31.000Z</time>
      </trkpt>
      <trkpt lat="45.9689" lon="6.45748">
        <ele>1388.5999755859</ele>
        <time>2012-12-06T14:12:35.000Z</time>
      </trkpt>
      <trkpt lat="45.96888" lon="6.4575">
        <ele>1390.1999511719</ele>
        <time>2012-12-06T14:12:39.000Z</time>
      </trkpt>
      <trkpt lat="45.96887" lon="6.45752">
        <ele>1390.1999511719</ele>
        <time>2012-12-06T14:12:42.000Z</time>
      </trkpt>
      <trkpt lat="45.96885" lon="6.45753">
        <ele>1390.1999511719</ele>
        <time>2012-12-06T14:12:46.000Z</time>
      </trkpt>
      <trkpt lat="45.96884" lon="6.45755">
        <ele>1391.5999755859</ele>
        <time>2012-12-06T14:12:50.000Z</time>
      </trkpt>
      <trkpt lat="45.96882" lon="6.45757">
        <ele>1393</ele>
        <time>2012-12-06T14:12:54.000Z</time>
      </trkpt>
      <trkpt lat="45.96881" lon="6.45759">
        <ele>1394</ele>
        <time>2012-12-06T14:12:58.000Z</time>
      </trkpt>
      <trkpt lat="45.9688" lon="6.4576">
        <ele>1394</ele>
        <time>2012-12-06T14:13:07.000Z</time>
      </trkpt>
      <trkpt lat="45.96879" lon="6.45762">
        <ele>1395</ele>
        <time>2012-12-06T14:13:12.000Z</time>
      </trkpt>
      <trkpt lat="45.96877" lon="6.45765">
        <ele>1395.8000488281</ele>
        <time>2012-12-06T14:13:16.000Z</time>
      </trkpt>
      <trkpt lat="45.96876" lon="6.45767">
        <ele>1396.8000488281</ele>
        <time>2012-12-06T14:13:20.000Z</time>
      </trkpt>
      <trkpt lat="45.96875" lon="6.45769">
        <ele>1397.8000488281</ele>
        <time>2012-12-06T14:13:25.000Z</time>
      </trkpt>
      <trkpt lat="45.96873" lon="6.45772">
        <ele>1398.8000488281</ele>
        <time>2012-12-06T14:13:28.000Z</time>
      </trkpt>
      <trkpt lat="45.96872" lon="6.45775">
        <ele>1399.8000488281</ele>
        <time>2012-12-06T14:13:32.000Z</time>
      </trkpt>
      <trkpt lat="45.96868" lon="6.45778">
        <ele>1401.1999511719</ele>
        <time>2012-12-06T14:13:37.000Z</time>
      </trkpt>
      <trkpt lat="45.96865" lon="6.45782">
        <ele>1404.5999755859</ele>
        <time>2012-12-06T14:13:41.000Z</time>
      </trkpt>
      <trkpt lat="45.96865" lon="6.45782">
        <ele>1405</ele>
        <time>2012-12-06T14:13:45.000Z</time>
      </trkpt>
      <trkpt lat="45.96865" lon="6.45782">
        <ele>1404</ele>
        <time>2012-12-06T14:13:49.000Z</time>
      </trkpt>
      <trkpt lat="45.96864" lon="6.45783">
        <ele>1404.5999755859</ele>
        <time>2012-12-06T14:13:54.000Z</time>
      </trkpt>
      <trkpt lat="45.96863" lon="6.45786">
        <ele>1406.4000244141</ele>
        <time>2012-12-06T14:13:58.000Z</time>
      </trkpt>
      <trkpt lat="45.96861" lon="6.45788">
        <ele>1408.4000244141</ele>
        <time>2012-12-06T14:14:02.000Z</time>
      </trkpt>
      <trkpt lat="45.96858" lon="6.45791">
        <ele>1408.8000488281</ele>
        <time>2012-12-06T14:14:07.000Z</time>
      </trkpt>
      <trkpt lat="45.96855" lon="6.45796">
        <ele>1410.1999511719</ele>
        <time>2012-12-06T14:14:12.000Z</time>
      </trkpt>
      <trkpt lat="45.96852" lon="6.458">
        <ele>1410.8000488281</ele>
        <time>2012-12-06T14:14:17.000Z</time>
      </trkpt>
      <trkpt lat="45.96846" lon="6.45805">
        <ele>1412.1999511719</ele>
        <time>2012-12-06T14:14:22.000Z</time>
      </trkpt>
      <trkpt lat="45.96841" lon="6.45809">
        <ele>1413.5999755859</ele>
        <time>2012-12-06T14:14:26.000Z</time>
      </trkpt>
      <trkpt lat="45.9684" lon="6.4581">
        <ele>1413.5999755859</ele>
        <time>2012-12-06T14:14:27.000Z</time>
      </trkpt>
      <trkpt lat="45.96835" lon="6.45814">
        <ele>1414.5999755859</ele>
        <time>2012-12-06T14:14:33.000Z</time>
      </trkpt>
      <trkpt lat="45.96832" lon="6.45817">
        <ele>1416</ele>
        <time>2012-12-06T14:14:36.000Z</time>
      </trkpt>
      <trkpt lat="45.96826" lon="6.45824">
        <ele>1417</ele>
        <time>2012-12-06T14:14:42.000Z</time>
      </trkpt>
      <trkpt lat="45.96822" lon="6.45827">
        <ele>1417</ele>
        <time>2012-12-06T14:14:47.000Z</time>
      </trkpt>
      <trkpt lat="45.96814" lon="6.45834">
        <ele>1421.8000488281</ele>
        <time>2012-12-06T14:14:53.000Z</time>
      </trkpt>
      <trkpt lat="45.96806" lon="6.4584">
        <ele>1425.1999511719</ele>
        <time>2012-12-06T14:14:59.000Z</time>
      </trkpt>
      <trkpt lat="45.96802" lon="6.45842">
        <ele>1427.1999511719</ele>
        <time>2012-12-06T14:15:03.000Z</time>
      </trkpt>
      <trkpt lat="45.96799" lon="6.45841">
        <ele>1426.5999755859</ele>
        <time>2012-12-06T14:15:10.000Z</time>
      </trkpt>
      <trkpt lat="45.96796" lon="6.4584">
        <ele>1425.1999511719</ele>
        <time>2012-12-06T14:15:16.000Z</time>
      </trkpt>
      <trkpt lat="45.96793" lon="6.45841">
        <ele>1425.1999511719</ele>
        <time>2012-12-06T14:15:20.000Z</time>
      </trkpt>
      <trkpt lat="45.96789" lon="6.45844">
        <ele>1427.1999511719</ele>
        <time>2012-12-06T14:15:25.000Z</time>
      </trkpt>
      <trkpt lat="45.96782" lon="6.45847">
        <ele>1428.5999755859</ele>
        <time>2012-12-06T14:15:31.000Z</time>
      </trkpt>
      <trkpt lat="45.96779" lon="6.45848">
        <ele>1430</ele>
        <time>2012-12-06T14:15:34.000Z</time>
      </trkpt>
      <trkpt lat="45.96775" lon="6.45848">
        <ele>1430.4000244141</ele>
        <time>2012-12-06T14:15:38.000Z</time>
      </trkpt>
      <trkpt lat="45.9677" lon="6.45849">
        <ele>1432.4000244141</ele>
        <time>2012-12-06T14:15:44.000Z</time>
      </trkpt>
      <trkpt lat="45.96767" lon="6.4585">
        <ele>1432.4000244141</ele>
        <time>2012-12-06T14:15:49.000Z</time>
      </trkpt>
      <trkpt lat="45.96763" lon="6.45851">
        <ele>1432</ele>
        <time>2012-12-06T14:15:54.000Z</time>
      </trkpt>
      <trkpt lat="45.96758" lon="6.45853">
        <ele>1431.4000244141</ele>
        <time>2012-12-06T14:16:00.000Z</time>
      </trkpt>
      <trkpt lat="45.96754" lon="6.45858">
        <ele>1432</ele>
        <time>2012-12-06T14:16:05.000Z</time>
      </trkpt>
      <trkpt lat="45.9675" lon="6.45864">
        <ele>1432.4000244141</ele>
        <time>2012-12-06T14:16:11.000Z</time>
      </trkpt>
      <trkpt lat="45.96746" lon="6.45867">
        <ele>1434.4000244141</ele>
        <time>2012-12-06T14:16:17.000Z</time>
      </trkpt>
      <trkpt lat="45.96744" lon="6.45867">
        <ele>1435.8000488281</ele>
        <time>2012-12-06T14:16:21.000Z</time>
      </trkpt>
      <trkpt lat="45.96741" lon="6.45869">
        <ele>1437.1999511719</ele>
        <time>2012-12-06T14:16:24.000Z</time>
      </trkpt>
      <trkpt lat="45.96738" lon="6.4587">
        <ele>1438.1999511719</ele>
        <time>2012-12-06T14:16:29.000Z</time>
      </trkpt>
      <trkpt lat="45.96737" lon="6.4587">
        <ele>1439.1999511719</ele>
        <time>2012-12-06T14:16:34.000Z</time>
      </trkpt>
      <trkpt lat="45.96737" lon="6.45867">
        <ele>1437.1999511719</ele>
        <time>2012-12-06T14:16:44.000Z</time>
      </trkpt>
      <trkpt lat="45.96737" lon="6.45866">
        <ele>1436.8000488281</ele>
        <time>2012-12-06T14:16:53.000Z</time>
      </trkpt>
      <trkpt lat="45.96736" lon="6.45866">
        <ele>1436.1999511719</ele>
        <time>2012-12-06T14:16:59.000Z</time>
      </trkpt>
      <trkpt lat="45.96734" lon="6.45865">
        <ele>1437.1999511719</ele>
        <time>2012-12-06T14:17:11.000Z</time>
      </trkpt>
      <trkpt lat="45.96729" lon="6.45865">
        <ele>1437.1999511719</ele>
        <time>2012-12-06T14:17:17.000Z</time>
      </trkpt>
      <trkpt lat="45.96725" lon="6.45868">
        <ele>1438.5999755859</ele>
        <time>2012-12-06T14:17:22.000Z</time>
      </trkpt>
      <trkpt lat="45.96719" lon="6.45869">
        <ele>1440</ele>
        <time>2012-12-06T14:17:28.000Z</time>
      </trkpt>
      <trkpt lat="45.96712" lon="6.45869">
        <ele>1441.5999755859</ele>
        <time>2012-12-06T14:17:36.000Z</time>
      </trkpt>
      <trkpt lat="45.96708" lon="6.45869">
        <ele>1441.5999755859</ele>
        <time>2012-12-06T14:17:39.000Z</time>
      </trkpt>
      <trkpt lat="45.96699" lon="6.45872">
        <ele>1442</ele>
        <time>2012-12-06T14:17:47.000Z</time>
      </trkpt>
      <trkpt lat="45.96691" lon="6.45876">
        <ele>1443.4000244141</ele>
        <time>2012-12-06T14:17:53.000Z</time>
      </trkpt>
      <trkpt lat="45.96683" lon="6.4588">
        <ele>1444.8000488281</ele>
        <time>2012-12-06T14:18:00.000Z</time>
      </trkpt>
      <trkpt lat="45.96676" lon="6.45883">
        <ele>1446.8000488281</ele>
        <time>2012-12-06T14:18:07.000Z</time>
      </trkpt>
      <trkpt lat="45.9667" lon="6.45885">
        <ele>1447.4000244141</ele>
        <time>2012-12-06T14:18:14.000Z</time>
      </trkpt>
      <trkpt lat="45.96666" lon="6.45887">
        <ele>1449.1999511719</ele>
        <time>2012-12-06T14:18:20.000Z</time>
      </trkpt>
      <trkpt lat="45.96661" lon="6.45889">
        <ele>1451.1999511719</ele>
        <time>2012-12-06T14:18:26.000Z</time>
      </trkpt>
      <trkpt lat="45.96657" lon="6.45891">
        <ele>1453</ele>
        <time>2012-12-06T14:18:32.000Z</time>
      </trkpt>
      <trkpt lat="45.96653" lon="6.45893">
        <ele>1454.5999755859</ele>
        <time>2012-12-06T14:18:37.000Z</time>
      </trkpt>
      <trkpt lat="45.9665" lon="6.45894">
        <ele>1455.4000244141</ele>
        <time>2012-12-06T14:18:42.000Z</time>
      </trkpt>
      <trkpt lat="45.96648" lon="6.45895">
        <ele>1456.4000244141</ele>
        <time>2012-12-06T14:18:46.000Z</time>
      </trkpt>
      <trkpt lat="45.96645" lon="6.45897">
        <ele>1458.4000244141</ele>
        <time>2012-12-06T14:18:50.000Z</time>
      </trkpt>
      <trkpt lat="45.96641" lon="6.45898">
        <ele>1459.4000244141</ele>
        <time>2012-12-06T14:18:55.000Z</time>
      </trkpt>
      <trkpt lat="45.96636" lon="6.45901">
        <ele>1460.8000488281</ele>
        <time>2012-12-06T14:19:03.000Z</time>
      </trkpt>
      <trkpt lat="45.96631" lon="6.45904">
        <ele>1461.8000488281</ele>
        <time>2012-12-06T14:19:10.000Z</time>
      </trkpt>
      <trkpt lat="45.96629" lon="6.45905">
        <ele>1462.1999511719</ele>
        <time>2012-12-06T14:19:14.000Z</time>
      </trkpt>
      <trkpt lat="45.96627" lon="6.45908">
        <ele>1463.5999755859</ele>
        <time>2012-12-06T14:19:18.000Z</time>
      </trkpt>
      <trkpt lat="45.96625" lon="6.45911">
        <ele>1465</ele>
        <time>2012-12-06T14:19:23.000Z</time>
      </trkpt>
      <trkpt lat="45.96623" lon="6.45914">
        <ele>1466</ele>
        <time>2012-12-06T14:19:27.000Z</time>
      </trkpt>
      <trkpt lat="45.96619" lon="6.45921">
        <ele>1467</ele>
        <time>2012-12-06T14:19:35.000Z</time>
      </trkpt>
      <trkpt lat="45.96617" lon="6.45926">
        <ele>1468.4000244141</ele>
        <time>2012-12-06T14:19:40.000Z</time>
      </trkpt>
      <trkpt lat="45.96614" lon="6.45935">
        <ele>1469.8000488281</ele>
        <time>2012-12-06T14:19:47.000Z</time>
      </trkpt>
      <trkpt lat="45.96613" lon="6.45936">
        <ele>1469.8000488281</ele>
        <time>2012-12-06T14:19:48.000Z</time>
      </trkpt>
      <trkpt lat="45.96609" lon="6.45947">
        <ele>1470.8000488281</ele>
        <time>2012-12-06T14:19:56.000Z</time>
      </trkpt>
      <trkpt lat="45.96606" lon="6.45955">
        <ele>1470.8000488281</ele>
        <time>2012-12-06T14:20:03.000Z</time>
      </trkpt>
      <trkpt lat="45.96603" lon="6.45962">
        <ele>1471.8000488281</ele>
        <time>2012-12-06T14:20:09.000Z</time>
      </trkpt>
      <trkpt lat="45.966" lon="6.4597">
        <ele>1472.8000488281</ele>
        <time>2012-12-06T14:20:15.000Z</time>
      </trkpt>
      <trkpt lat="45.96597" lon="6.4598">
        <ele>1473.8000488281</ele>
        <time>2012-12-06T14:20:23.000Z</time>
      </trkpt>
      <trkpt lat="45.96593" lon="6.45987">
        <ele>1474.5999755859</ele>
        <time>2012-12-06T14:20:30.000Z</time>
      </trkpt>
      <trkpt lat="45.96591" lon="6.45993">
        <ele>1474.5999755859</ele>
        <time>2012-12-06T14:20:35.000Z</time>
      </trkpt>
      <trkpt lat="45.96589" lon="6.46">
        <ele>1475.5999755859</ele>
        <time>2012-12-06T14:20:42.000Z</time>
      </trkpt>
      <trkpt lat="45.96587" lon="6.46006">
        <ele>1476.5999755859</ele>
        <time>2012-12-06T14:20:48.000Z</time>
      </trkpt>
      <trkpt lat="45.96584" lon="6.46012">
        <ele>1478</ele>
        <time>2012-12-06T14:20:54.000Z</time>
      </trkpt>
      <trkpt lat="45.9658" lon="6.46021">
        <ele>1479</ele>
        <time>2012-12-06T14:21:03.000Z</time>
      </trkpt>
      <trkpt lat="45.96578" lon="6.46027">
        <ele>1480</ele>
        <time>2012-12-06T14:21:08.000Z</time>
      </trkpt>
      <trkpt lat="45.96575" lon="6.46035">
        <ele>1481</ele>
        <time>2012-12-06T14:21:14.000Z</time>
      </trkpt>
      <trkpt lat="45.96574" lon="6.46041">
        <ele>1482</ele>
        <time>2012-12-06T14:21:20.000Z</time>
      </trkpt>
      <trkpt lat="45.96573" lon="6.46042">
        <ele>1482.4000244141</ele>
        <time>2012-12-06T14:21:26.000Z</time>
      </trkpt>
      <trkpt lat="45.96573" lon="6.46045">
        <ele>1482.8000488281</ele>
        <time>2012-12-06T14:21:32.000Z</time>
      </trkpt>
      <trkpt lat="45.96571" lon="6.4605">
        <ele>1483.8000488281</ele>
        <time>2012-12-06T14:21:38.000Z</time>
      </trkpt>
      <trkpt lat="45.96571" lon="6.46053">
        <ele>1484.8000488281</ele>
        <time>2012-12-06T14:21:43.000Z</time>
      </trkpt>
      <trkpt lat="45.9657" lon="6.46053">
        <ele>1485.8000488281</ele>
        <time>2012-12-06T14:21:50.000Z</time>
      </trkpt>
      <trkpt lat="45.96569" lon="6.46053">
        <ele>1488.1999511719</ele>
        <time>2012-12-06T14:22:02.000Z</time>
      </trkpt>
      <trkpt lat="45.96567" lon="6.46055">
        <ele>1488.1999511719</ele>
        <time>2012-12-06T14:22:18.000Z</time>
      </trkpt>
      <trkpt lat="45.96566" lon="6.4606">
        <ele>1487.1999511719</ele>
        <time>2012-12-06T14:22:22.000Z</time>
      </trkpt>
      <trkpt lat="45.96563" lon="6.46068">
        <ele>1487.5999755859</ele>
        <time>2012-12-06T14:22:28.000Z</time>
      </trkpt>
      <trkpt lat="45.96561" lon="6.46074">
        <ele>1488.5999755859</ele>
        <time>2012-12-06T14:22:32.000Z</time>
      </trkpt>
      <trkpt lat="45.96559" lon="6.46084">
        <ele>1488.1999511719</ele>
        <time>2012-12-06T14:22:40.000Z</time>
      </trkpt>
      <trkpt lat="45.96559" lon="6.46091">
        <ele>1488.5999755859</ele>
        <time>2012-12-06T14:22:45.000Z</time>
      </trkpt>
      <trkpt lat="45.96557" lon="6.46099">
        <ele>1490</ele>
        <time>2012-12-06T14:22:51.000Z</time>
      </trkpt>
      <trkpt lat="45.96555" lon="6.46107">
        <ele>1491</ele>
        <time>2012-12-06T14:22:57.000Z</time>
      </trkpt>
      <trkpt lat="45.96554" lon="6.46113">
        <ele>1493</ele>
        <time>2012-12-06T14:23:02.000Z</time>
      </trkpt>
      <trkpt lat="45.96554" lon="6.46121">
        <ele>1493.4000244141</ele>
        <time>2012-12-06T14:23:08.000Z</time>
      </trkpt>
      <trkpt lat="45.96554" lon="6.46129">
        <ele>1494.8000488281</ele>
        <time>2012-12-06T14:23:12.000Z</time>
      </trkpt>
      <trkpt lat="45.96552" lon="6.46138">
        <ele>1496.8000488281</ele>
        <time>2012-12-06T14:23:17.000Z</time>
      </trkpt>
      <trkpt lat="45.9655" lon="6.46144">
        <ele>1497.8000488281</ele>
        <time>2012-12-06T14:23:22.000Z</time>
      </trkpt>
      <trkpt lat="45.9655" lon="6.46149">
        <ele>1497.8000488281</ele>
        <time>2012-12-06T14:23:26.000Z</time>
      </trkpt>
      <trkpt lat="45.96548" lon="6.46155">
        <ele>1497.1999511719</ele>
        <time>2012-12-06T14:23:31.000Z</time>
      </trkpt>
      <trkpt lat="45.96548" lon="6.46166">
        <ele>1497.1999511719</ele>
        <time>2012-12-06T14:23:38.000Z</time>
      </trkpt>
      <trkpt lat="45.96547" lon="6.46171">
        <ele>1497.8000488281</ele>
        <time>2012-12-06T14:23:41.000Z</time>
      </trkpt>
      <trkpt lat="45.96548" lon="6.46179">
        <ele>1497.8000488281</ele>
        <time>2012-12-06T14:23:46.000Z</time>
      </trkpt>
      <trkpt lat="45.96546" lon="6.46183">
        <ele>1498.8000488281</ele>
        <time>2012-12-06T14:23:51.000Z</time>
      </trkpt>
      <trkpt lat="45.96546" lon="6.46187">
        <ele>1498.1999511719</ele>
        <time>2012-12-06T14:23:54.000Z</time>
      </trkpt>
      <trkpt lat="45.96544" lon="6.4619">
        <ele>1500.1999511719</ele>
        <time>2012-12-06T14:23:58.000Z</time>
      </trkpt>
      <trkpt lat="45.96543" lon="6.46194">
        <ele>1502</ele>
        <time>2012-12-06T14:24:03.000Z</time>
      </trkpt>
      <trkpt lat="45.96542" lon="6.46199">
        <ele>1504</ele>
        <time>2012-12-06T14:24:08.000Z</time>
      </trkpt>
      <trkpt lat="45.96541" lon="6.46203">
        <ele>1505.4000244141</ele>
        <time>2012-12-06T14:24:12.000Z</time>
      </trkpt>
      <trkpt lat="45.96541" lon="6.46208">
        <ele>1507</ele>
        <time>2012-12-06T14:24:16.000Z</time>
      </trkpt>
      <trkpt lat="45.96541" lon="6.46213">
        <ele>1506</ele>
        <time>2012-12-06T14:24:20.000Z</time>
      </trkpt>
      <trkpt lat="45.9654" lon="6.46216">
        <ele>1507.8000488281</ele>
        <time>2012-12-06T14:24:24.000Z</time>
      </trkpt>
      <trkpt lat="45.9654" lon="6.4622">
        <ele>1508.8000488281</ele>
        <time>2012-12-06T14:24:28.000Z</time>
      </trkpt>
      <trkpt lat="45.96539" lon="6.46223">
        <ele>1510.1999511719</ele>
        <time>2012-12-06T14:24:32.000Z</time>
      </trkpt>
      <trkpt lat="45.96539" lon="6.46225">
        <ele>1512.1999511719</ele>
        <time>2012-12-06T14:24:36.000Z</time>
      </trkpt>
      <trkpt lat="45.96538" lon="6.46227">
        <ele>1514.1999511719</ele>
        <time>2012-12-06T14:24:40.000Z</time>
      </trkpt>
      <trkpt lat="45.96537" lon="6.46229">
        <ele>1515.5999755859</ele>
        <time>2012-12-06T14:24:43.000Z</time>
      </trkpt>
      <trkpt lat="45.96535" lon="6.46233">
        <ele>1517</ele>
        <time>2012-12-06T14:24:47.000Z</time>
      </trkpt>
      <trkpt lat="45.96534" lon="6.46237">
        <ele>1518.4000244141</ele>
        <time>2012-12-06T14:24:51.000Z</time>
      </trkpt>
      <trkpt lat="45.96531" lon="6.46243">
        <ele>1519.4000244141</ele>
        <time>2012-12-06T14:24:59.000Z</time>
      </trkpt>
      <trkpt lat="45.96529" lon="6.46247">
        <ele>1519.8000488281</ele>
        <time>2012-12-06T14:25:05.000Z</time>
      </trkpt>
      <trkpt lat="45.96526" lon="6.4625">
        <ele>1521.4000244141</ele>
        <time>2012-12-06T14:25:11.000Z</time>
      </trkpt>
      <trkpt lat="45.96524" lon="6.46255">
        <ele>1522.1999511719</ele>
        <time>2012-12-06T14:25:17.000Z</time>
      </trkpt>
      <trkpt lat="45.96523" lon="6.46258">
        <ele>1523.1999511719</ele>
        <time>2012-12-06T14:25:22.000Z</time>
      </trkpt>
      <trkpt lat="45.9652" lon="6.46262">
        <ele>1524.5999755859</ele>
        <time>2012-12-06T14:25:28.000Z</time>
      </trkpt>
      <trkpt lat="45.96519" lon="6.46264">
        <ele>1526.1999511719</ele>
        <time>2012-12-06T14:25:31.000Z</time>
      </trkpt>
      <trkpt lat="45.96517" lon="6.46266">
        <ele>1527</ele>
        <time>2012-12-06T14:25:35.000Z</time>
      </trkpt>
      <trkpt lat="45.96515" lon="6.46269">
        <ele>1529</ele>
        <time>2012-12-06T14:25:41.000Z</time>
      </trkpt>
      <trkpt lat="45.96513" lon="6.4627">
        <ele>1529.4000244141</ele>
        <time>2012-12-06T14:25:44.000Z</time>
      </trkpt>
      <trkpt lat="45.9651" lon="6.46272">
        <ele>1531.4000244141</ele>
        <time>2012-12-06T14:25:50.000Z</time>
      </trkpt>
      <trkpt lat="45.96508" lon="6.46275">
        <ele>1531.8000488281</ele>
        <time>2012-12-06T14:25:54.000Z</time>
      </trkpt>
      <trkpt lat="45.96506" lon="6.46278">
        <ele>1532.8000488281</ele>
        <time>2012-12-06T14:25:58.000Z</time>
      </trkpt>
      <trkpt lat="45.96503" lon="6.4628">
        <ele>1534.4000244141</ele>
        <time>2012-12-06T14:26:03.000Z</time>
      </trkpt>
      <trkpt lat="45.965" lon="6.46283">
        <ele>1535.1999511719</ele>
        <time>2012-12-06T14:26:09.000Z</time>
      </trkpt>
      <trkpt lat="45.96498" lon="6.46286">
        <ele>1536.1999511719</ele>
        <time>2012-12-06T14:26:16.000Z</time>
      </trkpt>
      <trkpt lat="45.96496" lon="6.46288">
        <ele>1538.5999755859</ele>
        <time>2012-12-06T14:26:22.000Z</time>
      </trkpt>
      <trkpt lat="45.96495" lon="6.46291">
        <ele>1540</ele>
        <time>2012-12-06T14:26:26.000Z</time>
      </trkpt>
      <trkpt lat="45.96493" lon="6.46291">
        <ele>1541</ele>
        <time>2012-12-06T14:26:31.000Z</time>
      </trkpt>
      <trkpt lat="45.9649" lon="6.46289">
        <ele>1542</ele>
        <time>2012-12-06T14:26:34.000Z</time>
      </trkpt>
      <trkpt lat="45.96488" lon="6.46288">
        <ele>1542</ele>
        <time>2012-12-06T14:26:38.000Z</time>
      </trkpt>
      <trkpt lat="45.96488" lon="6.46289">
        <ele>1542</ele>
        <time>2012-12-06T14:26:44.000Z</time>
      </trkpt>
      <trkpt lat="45.96488" lon="6.46291">
        <ele>1543</ele>
        <time>2012-12-06T14:27:00.000Z</time>
      </trkpt>
      <trkpt lat="45.96487" lon="6.46294">
        <ele>1543</ele>
        <time>2012-12-06T14:27:04.000Z</time>
      </trkpt>
      <trkpt lat="45.96485" lon="6.46298">
        <ele>1543</ele>
        <time>2012-12-06T14:27:08.000Z</time>
      </trkpt>
      <trkpt lat="45.96483" lon="6.46302">
        <ele>1542</ele>
        <time>2012-12-06T14:27:12.000Z</time>
      </trkpt>
      <trkpt lat="45.96481" lon="6.46303">
        <ele>1542</ele>
        <time>2012-12-06T14:27:15.000Z</time>
      </trkpt>
      <trkpt lat="45.96478" lon="6.46304">
        <ele>1544</ele>
        <time>2012-12-06T14:27:20.000Z</time>
      </trkpt>
      <trkpt lat="45.96475" lon="6.46308">
        <ele>1544.8000488281</ele>
        <time>2012-12-06T14:27:25.000Z</time>
      </trkpt>
      <trkpt lat="45.96473" lon="6.46312">
        <ele>1545.4000244141</ele>
        <time>2012-12-06T14:27:30.000Z</time>
      </trkpt>
      <trkpt lat="45.9647" lon="6.46316">
        <ele>1545.8000488281</ele>
        <time>2012-12-06T14:27:35.000Z</time>
      </trkpt>
      <trkpt lat="45.96468" lon="6.46319">
        <ele>1547.1999511719</ele>
        <time>2012-12-06T14:27:40.000Z</time>
      </trkpt>
      <trkpt lat="45.96466" lon="6.46322">
        <ele>1547.1999511719</ele>
        <time>2012-12-06T14:27:43.000Z</time>
      </trkpt>
      <trkpt lat="45.96466" lon="6.46325">
        <ele>1546.8000488281</ele>
        <time>2012-12-06T14:27:47.000Z</time>
      </trkpt>
      <trkpt lat="45.96464" lon="6.46327">
        <ele>1547.1999511719</ele>
        <time>2012-12-06T14:27:51.000Z</time>
      </trkpt>
      <trkpt lat="45.96462" lon="6.4633">
        <ele>1547.8000488281</ele>
        <time>2012-12-06T14:27:56.000Z</time>
      </trkpt>
      <trkpt lat="45.96461" lon="6.46334">
        <ele>1547.1999511719</ele>
        <time>2012-12-06T14:28:00.000Z</time>
      </trkpt>
      <trkpt lat="45.96459" lon="6.46337">
        <ele>1548.1999511719</ele>
        <time>2012-12-06T14:28:03.000Z</time>
      </trkpt>
      <trkpt lat="45.96457" lon="6.4634">
        <ele>1550.1999511719</ele>
        <time>2012-12-06T14:28:09.000Z</time>
      </trkpt>
      <trkpt lat="45.96454" lon="6.46342">
        <ele>1551.1999511719</ele>
        <time>2012-12-06T14:28:13.000Z</time>
      </trkpt>
      <trkpt lat="45.96453" lon="6.46344">
        <ele>1552</ele>
        <time>2012-12-06T14:28:17.000Z</time>
      </trkpt>
      <trkpt lat="45.96451" lon="6.46346">
        <ele>1554</ele>
        <time>2012-12-06T14:28:22.000Z</time>
      </trkpt>
      <trkpt lat="45.96448" lon="6.46351">
        <ele>1555</ele>
        <time>2012-12-06T14:28:27.000Z</time>
      </trkpt>
      <trkpt lat="45.96446" lon="6.46353">
        <ele>1555.4000244141</ele>
        <time>2012-12-06T14:28:30.000Z</time>
      </trkpt>
      <trkpt lat="45.96443" lon="6.46357">
        <ele>1554.4000244141</ele>
        <time>2012-12-06T14:28:34.000Z</time>
      </trkpt>
      <trkpt lat="45.96441" lon="6.46358">
        <ele>1556</ele>
        <time>2012-12-06T14:28:37.000Z</time>
      </trkpt>
      <trkpt lat="45.9644" lon="6.46361">
        <ele>1553.5999755859</ele>
        <time>2012-12-06T14:28:41.000Z</time>
      </trkpt>
      <trkpt lat="45.96437" lon="6.46363">
        <ele>1554.4000244141</ele>
        <time>2012-12-06T14:28:46.000Z</time>
      </trkpt>
      <trkpt lat="45.96435" lon="6.46364">
        <ele>1556</ele>
        <time>2012-12-06T14:28:50.000Z</time>
      </trkpt>
      <trkpt lat="45.9643" lon="6.46366">
        <ele>1559.8000488281</ele>
        <time>2012-12-06T14:28:57.000Z</time>
      </trkpt>
      <trkpt lat="45.96425" lon="6.46366">
        <ele>1562.1999511719</ele>
        <time>2012-12-06T14:29:04.000Z</time>
      </trkpt>
      <trkpt lat="45.9642" lon="6.46367">
        <ele>1565</ele>
        <time>2012-12-06T14:29:10.000Z</time>
      </trkpt>
      <trkpt lat="45.96414" lon="6.46366">
        <ele>1567.4000244141</ele>
        <time>2012-12-06T14:29:17.000Z</time>
      </trkpt>
      <trkpt lat="45.96407" lon="6.46366">
        <ele>1570.8000488281</ele>
        <time>2012-12-06T14:29:25.000Z</time>
      </trkpt>
      <trkpt lat="45.96398" lon="6.46367">
        <ele>1574.1999511719</ele>
        <time>2012-12-06T14:29:35.000Z</time>
      </trkpt>
      <trkpt lat="45.96392" lon="6.46371">
        <ele>1575.1999511719</ele>
        <time>2012-12-06T14:29:42.000Z</time>
      </trkpt>
      <trkpt lat="45.96387" lon="6.46374">
        <ele>1575.5999755859</ele>
        <time>2012-12-06T14:29:46.000Z</time>
      </trkpt>
      <trkpt lat="45.9638" lon="6.4638">
        <ele>1576.5999755859</ele>
        <time>2012-12-06T14:29:53.000Z</time>
      </trkpt>
      <trkpt lat="45.96374" lon="6.46387">
        <ele>1577.5999755859</ele>
        <time>2012-12-06T14:29:58.000Z</time>
      </trkpt>
      <trkpt lat="45.96368" lon="6.46394">
        <ele>1578</ele>
        <time>2012-12-06T14:30:04.000Z</time>
      </trkpt>
      <trkpt lat="45.96362" lon="6.46401">
        <ele>1579</ele>
        <time>2012-12-06T14:30:10.000Z</time>
      </trkpt>
      <trkpt lat="45.96356" lon="6.46407">
        <ele>1578.5999755859</ele>
        <time>2012-12-06T14:30:15.000Z</time>
      </trkpt>
      <trkpt lat="45.96349" lon="6.46414">
        <ele>1578.5999755859</ele>
        <time>2012-12-06T14:30:21.000Z</time>
      </trkpt>
      <trkpt lat="45.96344" lon="6.46418">
        <ele>1579.4000244141</ele>
        <time>2012-12-06T14:30:26.000Z</time>
      </trkpt>
      <trkpt lat="45.96339" lon="6.46421">
        <ele>1580</ele>
        <time>2012-12-06T14:30:31.000Z</time>
      </trkpt>
      <trkpt lat="45.96334" lon="6.46425">
        <ele>1581.4000244141</ele>
        <time>2012-12-06T14:30:38.000Z</time>
      </trkpt>
      <trkpt lat="45.96327" lon="6.46427">
        <ele>1582.8000488281</ele>
        <time>2012-12-06T14:30:46.000Z</time>
      </trkpt>
      <trkpt lat="45.96322" lon="6.46428">
        <ele>1584.1999511719</ele>
        <time>2012-12-06T14:30:54.000Z</time>
      </trkpt>
      <trkpt lat="45.96318" lon="6.46429">
        <ele>1585.1999511719</ele>
        <time>2012-12-06T14:31:00.000Z</time>
      </trkpt>
      <trkpt lat="45.96313" lon="6.4643">
        <ele>1587.1999511719</ele>
        <time>2012-12-06T14:31:06.000Z</time>
      </trkpt>
      <trkpt lat="45.96309" lon="6.46432">
        <ele>1588.1999511719</ele>
        <time>2012-12-06T14:31:12.000Z</time>
      </trkpt>
      <trkpt lat="45.96305" lon="6.46434">
        <ele>1590</ele>
        <time>2012-12-06T14:31:18.000Z</time>
      </trkpt>
      <trkpt lat="45.96301" lon="6.46435">
        <ele>1592</ele>
        <time>2012-12-06T14:31:24.000Z</time>
      </trkpt>
      <trkpt lat="45.96297" lon="6.46435">
        <ele>1594.4000244141</ele>
        <time>2012-12-06T14:31:31.000Z</time>
      </trkpt>
      <trkpt lat="45.96292" lon="6.46436">
        <ele>1595.8000488281</ele>
        <time>2012-12-06T14:31:38.000Z</time>
      </trkpt>
      <trkpt lat="45.96289" lon="6.46436">
        <ele>1596.8000488281</ele>
        <time>2012-12-06T14:31:42.000Z</time>
      </trkpt>
      <trkpt lat="45.96285" lon="6.46438">
        <ele>1598.1999511719</ele>
        <time>2012-12-06T14:31:49.000Z</time>
      </trkpt>
      <trkpt lat="45.96281" lon="6.4644">
        <ele>1600.5999755859</ele>
        <time>2012-12-06T14:31:55.000Z</time>
      </trkpt>
      <trkpt lat="45.96278" lon="6.46442">
        <ele>1601.5999755859</ele>
        <time>2012-12-06T14:32:01.000Z</time>
      </trkpt>
      <trkpt lat="45.96275" lon="6.46444">
        <ele>1602.5999755859</ele>
        <time>2012-12-06T14:32:06.000Z</time>
      </trkpt>
      <trkpt lat="45.96274" lon="6.46447">
        <ele>1603.5999755859</ele>
        <time>2012-12-06T14:32:11.000Z</time>
      </trkpt>
      <trkpt lat="45.96271" lon="6.4645">
        <ele>1605.4000244141</ele>
        <time>2012-12-06T14:32:16.000Z</time>
      </trkpt>
      <trkpt lat="45.9627" lon="6.46455">
        <ele>1606.4000244141</ele>
        <time>2012-12-06T14:32:21.000Z</time>
      </trkpt>
      <trkpt lat="45.96269" lon="6.46459">
        <ele>1607.4000244141</ele>
        <time>2012-12-06T14:32:26.000Z</time>
      </trkpt>
      <trkpt lat="45.96269" lon="6.46462">
        <ele>1607.8000488281</ele>
        <time>2012-12-06T14:32:30.000Z</time>
      </trkpt>
      <trkpt lat="45.9627" lon="6.46468">
        <ele>1608.4000244141</ele>
        <time>2012-12-06T14:32:36.000Z</time>
      </trkpt>
      <trkpt lat="45.9627" lon="6.46471">
        <ele>1608.4000244141</ele>
        <time>2012-12-06T14:32:41.000Z</time>
      </trkpt>
      <trkpt lat="45.96269" lon="6.46471">
        <ele>1608.4000244141</ele>
        <time>2012-12-06T14:32:46.000Z</time>
      </trkpt>
      <trkpt lat="45.96269" lon="6.46472">
        <ele>1609.8000488281</ele>
        <time>2012-12-06T14:33:16.000Z</time>
      </trkpt>
      <trkpt lat="45.96269" lon="6.46475">
        <ele>1610.1999511719</ele>
        <time>2012-12-06T14:33:22.000Z</time>
      </trkpt>
      <trkpt lat="45.96269" lon="6.46478">
        <ele>1610.8000488281</ele>
        <time>2012-12-06T14:33:26.000Z</time>
      </trkpt>
      <trkpt lat="45.96267" lon="6.46481">
        <ele>1611.5999755859</ele>
        <time>2012-12-06T14:33:29.000Z</time>
      </trkpt>
      <trkpt lat="45.96265" lon="6.46483">
        <ele>1613.1999511719</ele>
        <time>2012-12-06T14:33:32.000Z</time>
      </trkpt>
      <trkpt lat="45.96264" lon="6.46486">
        <ele>1614.5999755859</ele>
        <time>2012-12-06T14:33:37.000Z</time>
      </trkpt>
      <trkpt lat="45.96263" lon="6.46486">
        <ele>1615.5999755859</ele>
        <time>2012-12-06T14:33:40.000Z</time>
      </trkpt>
      <trkpt lat="45.96261" lon="6.46487">
        <ele>1617.4000244141</ele>
        <time>2012-12-06T14:33:44.000Z</time>
      </trkpt>
      <trkpt lat="45.96259" lon="6.46491">
        <ele>1619.8000488281</ele>
        <time>2012-12-06T14:33:49.000Z</time>
      </trkpt>
      <trkpt lat="45.96259" lon="6.46497">
        <ele>1620.4000244141</ele>
        <time>2012-12-06T14:33:54.000Z</time>
      </trkpt>
      <trkpt lat="45.96258" lon="6.46505">
        <ele>1620.8000488281</ele>
        <time>2012-12-06T14:34:01.000Z</time>
      </trkpt>
      <trkpt lat="45.96258" lon="6.46511">
        <ele>1621.8000488281</ele>
        <time>2012-12-06T14:34:07.000Z</time>
      </trkpt>
      <trkpt lat="45.96258" lon="6.46518">
        <ele>1622.8000488281</ele>
        <time>2012-12-06T14:34:13.000Z</time>
      </trkpt>
      <trkpt lat="45.96257" lon="6.46523">
        <ele>1623.8000488281</ele>
        <time>2012-12-06T14:34:18.000Z</time>
      </trkpt>
      <trkpt lat="45.96257" lon="6.46528">
        <ele>1625.1999511719</ele>
        <time>2012-12-06T14:34:23.000Z</time>
      </trkpt>
      <trkpt lat="45.96257" lon="6.46534">
        <ele>1626.5999755859</ele>
        <time>2012-12-06T14:34:29.000Z</time>
      </trkpt>
      <trkpt lat="45.96257" lon="6.4654">
        <ele>1629</ele>
        <time>2012-12-06T14:34:35.000Z</time>
      </trkpt>
      <trkpt lat="45.96258" lon="6.46549">
        <ele>1631.8000488281</ele>
        <time>2012-12-06T14:34:42.000Z</time>
      </trkpt>
      <trkpt lat="45.96258" lon="6.46551">
        <ele>1632.4000244141</ele>
        <time>2012-12-06T14:34:46.000Z</time>
      </trkpt>
      <trkpt lat="45.96259" lon="6.46555">
        <ele>1633.4000244141</ele>
        <time>2012-12-06T14:34:52.000Z</time>
      </trkpt>
      <trkpt lat="45.96261" lon="6.46561">
        <ele>1634.8000488281</ele>
        <time>2012-12-06T14:34:57.000Z</time>
      </trkpt>
      <trkpt lat="45.96262" lon="6.46566">
        <ele>1635.8000488281</ele>
        <time>2012-12-06T14:35:02.000Z</time>
      </trkpt>
      <trkpt lat="45.96263" lon="6.46571">
        <ele>1637.1999511719</ele>
        <time>2012-12-06T14:35:07.000Z</time>
      </trkpt>
      <trkpt lat="45.96265" lon="6.46576">
        <ele>1639</ele>
        <time>2012-12-06T14:35:12.000Z</time>
      </trkpt>
      <trkpt lat="45.96266" lon="6.46582">
        <ele>1640</ele>
        <time>2012-12-06T14:35:18.000Z</time>
      </trkpt>
      <trkpt lat="45.96267" lon="6.46589">
        <ele>1641</ele>
        <time>2012-12-06T14:35:24.000Z</time>
      </trkpt>
      <trkpt lat="45.96267" lon="6.46596">
        <ele>1642</ele>
        <time>2012-12-06T14:35:30.000Z</time>
      </trkpt>
      <trkpt lat="45.96268" lon="6.46604">
        <ele>1643.8000488281</ele>
        <time>2012-12-06T14:35:38.000Z</time>
      </trkpt>
      <trkpt lat="45.96269" lon="6.46608">
        <ele>1645.8000488281</ele>
        <time>2012-12-06T14:35:44.000Z</time>
      </trkpt>
      <trkpt lat="45.96271" lon="6.46614">
        <ele>1646.8000488281</ele>
        <time>2012-12-06T14:35:50.000Z</time>
      </trkpt>
      <trkpt lat="45.96274" lon="6.46618">
        <ele>1647.1999511719</ele>
        <time>2012-12-06T14:35:55.000Z</time>
      </trkpt>
      <trkpt lat="45.96275" lon="6.46621">
        <ele>1648.1999511719</ele>
        <time>2012-12-06T14:36:00.000Z</time>
      </trkpt>
      <trkpt lat="45.96276" lon="6.46623">
        <ele>1648.5999755859</ele>
        <time>2012-12-06T14:36:03.000Z</time>
      </trkpt>
      <trkpt lat="45.96279" lon="6.46626">
        <ele>1649.5999755859</ele>
        <time>2012-12-06T14:36:08.000Z</time>
      </trkpt>
      <trkpt lat="45.96281" lon="6.46628">
        <ele>1650.1999511719</ele>
        <time>2012-12-06T14:36:12.000Z</time>
      </trkpt>
      <trkpt lat="45.96281" lon="6.46631">
        <ele>1650.5999755859</ele>
        <time>2012-12-06T14:36:16.000Z</time>
      </trkpt>
      <trkpt lat="45.96282" lon="6.46635">
        <ele>1651.5999755859</ele>
        <time>2012-12-06T14:36:21.000Z</time>
      </trkpt>
      <trkpt lat="45.96283" lon="6.46638">
        <ele>1653</ele>
        <time>2012-12-06T14:36:25.000Z</time>
      </trkpt>
      <trkpt lat="45.96283" lon="6.46642">
        <ele>1654</ele>
        <time>2012-12-06T14:36:30.000Z</time>
      </trkpt>
      <trkpt lat="45.96284" lon="6.46645">
        <ele>1655</ele>
        <time>2012-12-06T14:36:34.000Z</time>
      </trkpt>
      <trkpt lat="45.96286" lon="6.4665">
        <ele>1655</ele>
        <time>2012-12-06T14:36:40.000Z</time>
      </trkpt>
      <trkpt lat="45.96287" lon="6.46655">
        <ele>1656</ele>
        <time>2012-12-06T14:36:45.000Z</time>
      </trkpt>
      <trkpt lat="45.96289" lon="6.46659">
        <ele>1656.8000488281</ele>
        <time>2012-12-06T14:36:50.000Z</time>
      </trkpt>
      <trkpt lat="45.9629" lon="6.46663">
        <ele>1657.4000244141</ele>
        <time>2012-12-06T14:36:54.000Z</time>
      </trkpt>
      <trkpt lat="45.96291" lon="6.46667">
        <ele>1658.4000244141</ele>
        <time>2012-12-06T14:36:59.000Z</time>
      </trkpt>
      <trkpt lat="45.96292" lon="6.46674">
        <ele>1658.8000488281</ele>
        <time>2012-12-06T14:37:06.000Z</time>
      </trkpt>
      <trkpt lat="45.96292" lon="6.46681">
        <ele>1659.1999511719</ele>
        <time>2012-12-06T14:37:12.000Z</time>
      </trkpt>
      <trkpt lat="45.96293" lon="6.46688">
        <ele>1659.8000488281</ele>
        <time>2012-12-06T14:37:18.000Z</time>
      </trkpt>
      <trkpt lat="45.96294" lon="6.46697">
        <ele>1660.1999511719</ele>
        <time>2012-12-06T14:37:25.000Z</time>
      </trkpt>
      <trkpt lat="45.96295" lon="6.46705">
        <ele>1660.8000488281</ele>
        <time>2012-12-06T14:37:31.000Z</time>
      </trkpt>
      <trkpt lat="45.96296" lon="6.46715">
        <ele>1660.1999511719</ele>
        <time>2012-12-06T14:37:38.000Z</time>
      </trkpt>
      <trkpt lat="45.96298" lon="6.4672">
        <ele>1659.1999511719</ele>
        <time>2012-12-06T14:37:42.000Z</time>
      </trkpt>
      <trkpt lat="45.96299" lon="6.46721">
        <ele>1658.8000488281</ele>
        <time>2012-12-06T14:37:43.000Z</time>
      </trkpt>
      <trkpt lat="45.96304" lon="6.46728">
        <ele>1657.8000488281</ele>
        <time>2012-12-06T14:37:47.000Z</time>
      </trkpt>
      <trkpt lat="45.96307" lon="6.46739">
        <ele>1656.8000488281</ele>
        <time>2012-12-06T14:37:53.000Z</time>
      </trkpt>
      <trkpt lat="45.96311" lon="6.46747">
        <ele>1658.8000488281</ele>
        <time>2012-12-06T14:37:58.000Z</time>
      </trkpt>
      <trkpt lat="45.96315" lon="6.46751">
        <ele>1660.8000488281</ele>
        <time>2012-12-06T14:38:03.000Z</time>
      </trkpt>
      <trkpt lat="45.96317" lon="6.46755">
        <ele>1661.1999511719</ele>
        <time>2012-12-06T14:38:08.000Z</time>
      </trkpt>
      <trkpt lat="45.96317" lon="6.46756">
        <ele>1660.1999511719</ele>
        <time>2012-12-06T14:38:09.000Z</time>
      </trkpt>
      <trkpt lat="45.96323" lon="6.46762">
        <ele>1660.8000488281</ele>
        <time>2012-12-06T14:38:15.000Z</time>
      </trkpt>
      <trkpt lat="45.96325" lon="6.46766">
        <ele>1662.1999511719</ele>
        <time>2012-12-06T14:38:20.000Z</time>
      </trkpt>
      <trkpt lat="45.96326" lon="6.46768">
        <ele>1663.5999755859</ele>
        <time>2012-12-06T14:38:25.000Z</time>
      </trkpt>
      <trkpt lat="45.96326" lon="6.46768">
        <ele>1663.5999755859</ele>
        <time>2012-12-06T14:38:31.000Z</time>
      </trkpt>
      <trkpt lat="45.96327" lon="6.4677">
        <ele>1664.5999755859</ele>
        <time>2012-12-06T14:38:36.000Z</time>
      </trkpt>
      <trkpt lat="45.96329" lon="6.46773">
        <ele>1666</ele>
        <time>2012-12-06T14:38:41.000Z</time>
      </trkpt>
      <trkpt lat="45.96331" lon="6.46776">
        <ele>1667</ele>
        <time>2012-12-06T14:38:47.000Z</time>
      </trkpt>
      <trkpt lat="45.96331" lon="6.46776">
        <ele>1668</ele>
        <time>2012-12-06T14:38:52.000Z</time>
      </trkpt>
      <trkpt lat="45.96333" lon="6.46778">
        <ele>1670.4000244141</ele>
        <time>2012-12-06T14:39:09.000Z</time>
      </trkpt>
      <trkpt lat="45.96334" lon="6.46779">
        <ele>1670.8000488281</ele>
        <time>2012-12-06T14:39:13.000Z</time>
      </trkpt>
      <trkpt lat="45.96336" lon="6.4678">
        <ele>1671.8000488281</ele>
        <time>2012-12-06T14:39:18.000Z</time>
      </trkpt>
      <trkpt lat="45.96337" lon="6.46781">
        <ele>1671.8000488281</ele>
        <time>2012-12-06T14:39:22.000Z</time>
      </trkpt>
      <trkpt lat="45.96338" lon="6.46784">
        <ele>1673.1999511719</ele>
        <time>2012-12-06T14:39:27.000Z</time>
      </trkpt>
      <trkpt lat="45.96339" lon="6.46784">
        <ele>1673.5999755859</ele>
        <time>2012-12-06T14:39:34.000Z</time>
      </trkpt>
      <trkpt lat="45.96341" lon="6.46786">
        <ele>1674.1999511719</ele>
        <time>2012-12-06T14:39:38.000Z</time>
      </trkpt>
      <trkpt lat="45.96342" lon="6.46788">
        <ele>1675.1999511719</ele>
        <time>2012-12-06T14:39:42.000Z</time>
      </trkpt>
      <trkpt lat="45.96345" lon="6.4679">
        <ele>1676</ele>
        <time>2012-12-06T14:39:47.000Z</time>
      </trkpt>
      <trkpt lat="45.96347" lon="6.46791">
        <ele>1677</ele>
        <time>2012-12-06T14:39:51.000Z</time>
      </trkpt>
      <trkpt lat="45.9635" lon="6.46792">
        <ele>1678</ele>
        <time>2012-12-06T14:39:57.000Z</time>
      </trkpt>
      <trkpt lat="45.96353" lon="6.46795">
        <ele>1679</ele>
        <time>2012-12-06T14:40:03.000Z</time>
      </trkpt>
      <trkpt lat="45.96355" lon="6.46798">
        <ele>1679.4000244141</ele>
        <time>2012-12-06T14:40:06.000Z</time>
      </trkpt>
      <trkpt lat="45.96355" lon="6.46801">
        <ele>1680.4000244141</ele>
        <time>2012-12-06T14:40:10.000Z</time>
      </trkpt>
      <trkpt lat="45.96355" lon="6.46805">
        <ele>1681.4000244141</ele>
        <time>2012-12-06T14:40:16.000Z</time>
      </trkpt>
      <trkpt lat="45.96354" lon="6.46808">
        <ele>1683.4000244141</ele>
        <time>2012-12-06T14:40:20.000Z</time>
      </trkpt>
      <trkpt lat="45.96354" lon="6.46813">
        <ele>1683.8000488281</ele>
        <time>2012-12-06T14:40:25.000Z</time>
      </trkpt>
      <trkpt lat="45.96353" lon="6.46817">
        <ele>1683.4000244141</ele>
        <time>2012-12-06T14:40:30.000Z</time>
      </trkpt>
      <trkpt lat="45.96353" lon="6.46819">
        <ele>1683.8000488281</ele>
        <time>2012-12-06T14:40:34.000Z</time>
      </trkpt>
      <trkpt lat="45.96354" lon="6.46821">
        <ele>1684.1999511719</ele>
        <time>2012-12-06T14:40:39.000Z</time>
      </trkpt>
      <trkpt lat="45.96354" lon="6.46824">
        <ele>1686.1999511719</ele>
        <time>2012-12-06T14:40:44.000Z</time>
      </trkpt>
      <trkpt lat="45.96355" lon="6.46826">
        <ele>1687.1999511719</ele>
        <time>2012-12-06T14:40:48.000Z</time>
      </trkpt>
      <trkpt lat="45.96356" lon="6.46828">
        <ele>1688.1999511719</ele>
        <time>2012-12-06T14:40:52.000Z</time>
      </trkpt>
      <trkpt lat="45.9636" lon="6.46829">
        <ele>1690</ele>
        <time>2012-12-06T14:40:59.000Z</time>
      </trkpt>
      <trkpt lat="45.96363" lon="6.46829">
        <ele>1691</ele>
        <time>2012-12-06T14:41:05.000Z</time>
      </trkpt>
      <trkpt lat="45.96365" lon="6.46829">
        <ele>1691.4000244141</ele>
        <time>2012-12-06T14:41:10.000Z</time>
      </trkpt>
      <trkpt lat="45.96368" lon="6.46829">
        <ele>1692.4000244141</ele>
        <time>2012-12-06T14:41:16.000Z</time>
      </trkpt>
      <trkpt lat="45.9637" lon="6.46828">
        <ele>1693</ele>
        <time>2012-12-06T14:41:20.000Z</time>
      </trkpt>
      <trkpt lat="45.96374" lon="6.46827">
        <ele>1693.8000488281</ele>
        <time>2012-12-06T14:41:26.000Z</time>
      </trkpt>
      <trkpt lat="45.96374" lon="6.46827">
        <ele>1695.4000244141</ele>
        <time>2012-12-06T14:41:36.000Z</time>
      </trkpt>
      <trkpt lat="45.96376" lon="6.46826">
        <ele>1694.8000488281</ele>
        <time>2012-12-06T14:41:41.000Z</time>
      </trkpt>
      <trkpt lat="45.96379" lon="6.46825">
        <ele>1693.8000488281</ele>
        <time>2012-12-06T14:41:45.000Z</time>
      </trkpt>
      <trkpt lat="45.96382" lon="6.46823">
        <ele>1694.4000244141</ele>
        <time>2012-12-06T14:41:49.000Z</time>
      </trkpt>
      <trkpt lat="45.96383" lon="6.46824">
        <ele>1693.8000488281</ele>
        <time>2012-12-06T14:41:54.000Z</time>
      </trkpt>
      <trkpt lat="45.96383" lon="6.46827">
        <ele>1695.4000244141</ele>
        <time>2012-12-06T14:42:01.000Z</time>
      </trkpt>
      <trkpt lat="45.96384" lon="6.46829">
        <ele>1696.1999511719</ele>
        <time>2012-12-06T14:42:06.000Z</time>
      </trkpt>
      <trkpt lat="45.96384" lon="6.46831">
        <ele>1695.8000488281</ele>
        <time>2012-12-06T14:42:10.000Z</time>
      </trkpt>
      <trkpt lat="45.96385" lon="6.46833">
        <ele>1697.1999511719</ele>
        <time>2012-12-06T14:42:14.000Z</time>
      </trkpt>
      <trkpt lat="45.96387" lon="6.46835">
        <ele>1699.1999511719</ele>
        <time>2012-12-06T14:42:19.000Z</time>
      </trkpt>
      <trkpt lat="45.96387" lon="6.46838">
        <ele>1700.1999511719</ele>
        <time>2012-12-06T14:42:24.000Z</time>
      </trkpt>
      <trkpt lat="45.96387" lon="6.46839">
        <ele>1700.1999511719</ele>
        <time>2012-12-06T14:42:29.000Z</time>
      </trkpt>
      <trkpt lat="45.96387" lon="6.46843">
        <ele>1702</ele>
        <time>2012-12-06T14:42:40.000Z</time>
      </trkpt>
      <trkpt lat="45.96389" lon="6.46847">
        <ele>1703</ele>
        <time>2012-12-06T14:42:47.000Z</time>
      </trkpt>
      <trkpt lat="45.96389" lon="6.4685">
        <ele>1704</ele>
        <time>2012-12-06T14:42:52.000Z</time>
      </trkpt>
      <trkpt lat="45.96389" lon="6.46852">
        <ele>1704.4000244141</ele>
        <time>2012-12-06T14:42:58.000Z</time>
      </trkpt>
      <trkpt lat="45.96389" lon="6.46854">
        <ele>1705</ele>
        <time>2012-12-06T14:43:03.000Z</time>
      </trkpt>
      <trkpt lat="45.96389" lon="6.46857">
        <ele>1706.4000244141</ele>
        <time>2012-12-06T14:43:08.000Z</time>
      </trkpt>
      <trkpt lat="45.9639" lon="6.46861">
        <ele>1708.4000244141</ele>
        <time>2012-12-06T14:43:13.000Z</time>
      </trkpt>
      <trkpt lat="45.96392" lon="6.46865">
        <ele>1708.8000488281</ele>
        <time>2012-12-06T14:43:19.000Z</time>
      </trkpt>
      <trkpt lat="45.96395" lon="6.46865">
        <ele>1709.1999511719</ele>
        <time>2012-12-06T14:43:24.000Z</time>
      </trkpt>
      <trkpt lat="45.96398" lon="6.46864">
        <ele>1709.1999511719</ele>
        <time>2012-12-06T14:43:28.000Z</time>
      </trkpt>
      <trkpt lat="45.96401" lon="6.46862">
        <ele>1709.8000488281</ele>
        <time>2012-12-06T14:43:32.000Z</time>
      </trkpt>
      <trkpt lat="45.96404" lon="6.46859">
        <ele>1710.1999511719</ele>
        <time>2012-12-06T14:43:36.000Z</time>
      </trkpt>
      <trkpt lat="45.96407" lon="6.46856">
        <ele>1711.1999511719</ele>
        <time>2012-12-06T14:43:40.000Z</time>
      </trkpt>
      <trkpt lat="45.9641" lon="6.46856">
        <ele>1712.1999511719</ele>
        <time>2012-12-06T14:43:44.000Z</time>
      </trkpt>
      <trkpt lat="45.96414" lon="6.46857">
        <ele>1713.1999511719</ele>
        <time>2012-12-06T14:43:49.000Z</time>
      </trkpt>
      <trkpt lat="45.96417" lon="6.46855">
        <ele>1713.5999755859</ele>
        <time>2012-12-06T14:43:53.000Z</time>
      </trkpt>
      <trkpt lat="45.9642" lon="6.46853">
        <ele>1713.5999755859</ele>
        <time>2012-12-06T14:43:57.000Z</time>
      </trkpt>
      <trkpt lat="45.96421" lon="6.46849">
        <ele>1714.5999755859</ele>
        <time>2012-12-06T14:44:01.000Z</time>
      </trkpt>
      <trkpt lat="45.96424" lon="6.46846">
        <ele>1715.5999755859</ele>
        <time>2012-12-06T14:44:05.000Z</time>
      </trkpt>
      <trkpt lat="45.96426" lon="6.46841">
        <ele>1717</ele>
        <time>2012-12-06T14:44:10.000Z</time>
      </trkpt>
      <trkpt lat="45.96429" lon="6.46838">
        <ele>1718</ele>
        <time>2012-12-06T14:44:14.000Z</time>
      </trkpt>
      <trkpt lat="45.96434" lon="6.46835">
        <ele>1718.4000244141</ele>
        <time>2012-12-06T14:44:19.000Z</time>
      </trkpt>
      <trkpt lat="45.96437" lon="6.46832">
        <ele>1718.4000244141</ele>
        <time>2012-12-06T14:44:23.000Z</time>
      </trkpt>
      <trkpt lat="45.96442" lon="6.46828">
        <ele>1718.4000244141</ele>
        <time>2012-12-06T14:44:29.000Z</time>
      </trkpt>
      <trkpt lat="45.96446" lon="6.46825">
        <ele>1719.4000244141</ele>
        <time>2012-12-06T14:44:33.000Z</time>
      </trkpt>
      <trkpt lat="45.96449" lon="6.46822">
        <ele>1719.8000488281</ele>
        <time>2012-12-06T14:44:38.000Z</time>
      </trkpt>
      <trkpt lat="45.96454" lon="6.46817">
        <ele>1720.4000244141</ele>
        <time>2012-12-06T14:44:42.000Z</time>
      </trkpt>
      <trkpt lat="45.96458" lon="6.46813">
        <ele>1719.4000244141</ele>
        <time>2012-12-06T14:44:47.000Z</time>
      </trkpt>
      <trkpt lat="45.96462" lon="6.4681">
        <ele>1719.4000244141</ele>
        <time>2012-12-06T14:44:53.000Z</time>
      </trkpt>
      <trkpt lat="45.96461" lon="6.46813">
        <ele>1719.4000244141</ele>
        <time>2012-12-06T14:45:05.000Z</time>
      </trkpt>
      <trkpt lat="45.96462" lon="6.46814">
        <ele>1719.8000488281</ele>
        <time>2012-12-06T14:45:12.000Z</time>
      </trkpt>
      <trkpt lat="45.96464" lon="6.46811">
        <ele>1719.4000244141</ele>
        <time>2012-12-06T14:45:18.000Z</time>
      </trkpt>
      <trkpt lat="45.96467" lon="6.46807">
        <ele>1720.8000488281</ele>
        <time>2012-12-06T14:45:25.000Z</time>
      </trkpt>
      <trkpt lat="45.9647" lon="6.46802">
        <ele>1722.8000488281</ele>
        <time>2012-12-06T14:45:32.000Z</time>
      </trkpt>
      <trkpt lat="45.96471" lon="6.46794">
        <ele>1724.1999511719</ele>
        <time>2012-12-06T14:45:38.000Z</time>
      </trkpt>
      <trkpt lat="45.96476" lon="6.46788">
        <ele>1723.5999755859</ele>
        <time>2012-12-06T14:45:44.000Z</time>
      </trkpt>
      <trkpt lat="45.96483" lon="6.46784">
        <ele>1724.1999511719</ele>
        <time>2012-12-06T14:45:50.000Z</time>
      </trkpt>
      <trkpt lat="45.96484" lon="6.46783">
        <ele>1724.1999511719</ele>
        <time>2012-12-06T14:45:51.000Z</time>
      </trkpt>
      <trkpt lat="45.96487" lon="6.46779">
        <ele>1724.1999511719</ele>
        <time>2012-12-06T14:45:57.000Z</time>
      </trkpt>
      <trkpt lat="45.96488" lon="6.46779">
        <ele>1724.1999511719</ele>
        <time>2012-12-06T14:46:04.000Z</time>
      </trkpt>
      <trkpt lat="45.96487" lon="6.4678">
        <ele>1723.5999755859</ele>
        <time>2012-12-06T14:46:12.000Z</time>
      </trkpt>
      <trkpt lat="45.96487" lon="6.46779">
        <ele>1723.1999511719</ele>
        <time>2012-12-06T14:46:22.000Z</time>
      </trkpt>
      <trkpt lat="45.96487" lon="6.46779">
        <ele>1724.1999511719</ele>
        <time>2012-12-06T14:46:28.000Z</time>
      </trkpt>
      <trkpt lat="45.96487" lon="6.46779">
        <ele>1723.5999755859</ele>
        <time>2012-12-06T14:46:35.000Z</time>
      </trkpt>
      <trkpt lat="45.96486" lon="6.4678">
        <ele>1723.1999511719</ele>
        <time>2012-12-06T14:46:43.000Z</time>
      </trkpt>
      <trkpt lat="45.96486" lon="6.46779">
        <ele>1722.8000488281</ele>
        <time>2012-12-06T14:46:49.000Z</time>
      </trkpt>
      <trkpt lat="45.96486" lon="6.4678">
        <ele>1723.1999511719</ele>
        <time>2012-12-06T14:47:01.000Z</time>
      </trkpt>
      <trkpt lat="45.96486" lon="6.4678">
        <ele>1724.5999755859</ele>
        <time>2012-12-06T14:47:12.000Z</time>
      </trkpt>
      <trkpt lat="45.96486" lon="6.4678">
        <ele>1724.1999511719</ele>
        <time>2012-12-06T14:47:21.000Z</time>
      </trkpt>
      <trkpt lat="45.96485" lon="6.46781">
        <ele>1721.8000488281</ele>
        <time>2012-12-06T14:47:28.000Z</time>
      </trkpt>
      <trkpt lat="45.96486" lon="6.46781">
        <ele>1721.8000488281</ele>
        <time>2012-12-06T14:47:36.000Z</time>
      </trkpt>
      <trkpt lat="45.96486" lon="6.46781">
        <ele>1722.1999511719</ele>
        <time>2012-12-06T14:47:48.000Z</time>
      </trkpt>
      <trkpt lat="45.96486" lon="6.46782">
        <ele>1722.8000488281</ele>
        <time>2012-12-06T14:48:01.000Z</time>
      </trkpt>
      <trkpt lat="45.96486" lon="6.46781">
        <ele>1722.1999511719</ele>
        <time>2012-12-06T14:48:14.000Z</time>
      </trkpt>
      <trkpt lat="45.96486" lon="6.46781">
        <ele>1723.1999511719</ele>
        <time>2012-12-06T14:48:22.000Z</time>
      </trkpt>
      <trkpt lat="45.96486" lon="6.4678">
        <ele>1724.1999511719</ele>
        <time>2012-12-06T14:48:33.000Z</time>
      </trkpt>
      <trkpt lat="45.96486" lon="6.4678">
        <ele>1725.1999511719</ele>
        <time>2012-12-06T14:48:43.000Z</time>
      </trkpt>
      <trkpt lat="45.96486" lon="6.4678">
        <ele>1725.5999755859</ele>
        <time>2012-12-06T14:48:48.000Z</time>
      </trkpt>
      <trkpt lat="45.96486" lon="6.46779">
        <ele>1724.5999755859</ele>
        <time>2012-12-06T14:48:54.000Z</time>
      </trkpt>
      <trkpt lat="45.96486" lon="6.46779">
        <ele>1723.5999755859</ele>
        <time>2012-12-06T14:49:03.000Z</time>
      </trkpt>
      <trkpt lat="45.96485" lon="6.46779">
        <ele>1724.1999511719</ele>
        <time>2012-12-06T14:49:11.000Z</time>
      </trkpt>
      <trkpt lat="45.96486" lon="6.46778">
        <ele>1724.5999755859</ele>
        <time>2012-12-06T14:49:15.000Z</time>
      </trkpt>
      <trkpt lat="45.96486" lon="6.46778">
        <ele>1724.5999755859</ele>
        <time>2012-12-06T14:49:23.000Z</time>
      </trkpt>
      <trkpt lat="45.96486" lon="6.46777">
        <ele>1724.1999511719</ele>
        <time>2012-12-06T14:49:28.000Z</time>
      </trkpt>
      <trkpt lat="45.96487" lon="6.46774">
        <ele>1723.1999511719</ele>
        <time>2012-12-06T14:49:33.000Z</time>
      </trkpt>
      <trkpt lat="45.9649" lon="6.46768">
        <ele>1721.1999511719</ele>
        <time>2012-12-06T14:49:38.000Z</time>
      </trkpt>
      <trkpt lat="45.96495" lon="6.46756">
        <ele>1717.4000244141</ele>
        <time>2012-12-06T14:49:41.000Z</time>
      </trkpt>
      <trkpt lat="45.96494" lon="6.46741">
        <ele>1712.5999755859</ele>
        <time>2012-12-06T14:49:45.000Z</time>
      </trkpt>
      <trkpt lat="45.96492" lon="6.46736">
        <ele>1711.1999511719</ele>
        <time>2012-12-06T14:49:47.000Z</time>
      </trkpt>
      <trkpt lat="45.96482" lon="6.46725">
        <ele>1706.4000244141</ele>
        <time>2012-12-06T14:49:53.000Z</time>
      </trkpt>
      <trkpt lat="45.96482" lon="6.46725">
        <ele>1705.4000244141</ele>
        <time>2012-12-06T14:49:59.000Z</time>
      </trkpt>
      <trkpt lat="45.96482" lon="6.46724">
        <ele>1705</ele>
        <time>2012-12-06T14:50:00.000Z</time>
      </trkpt>
      <trkpt lat="45.96486" lon="6.4671">
        <ele>1697.1999511719</ele>
        <time>2012-12-06T14:50:05.000Z</time>
      </trkpt>
      <trkpt lat="45.96488" lon="6.46701">
        <ele>1691.4000244141</ele>
        <time>2012-12-06T14:50:08.000Z</time>
      </trkpt>
      <trkpt lat="45.96491" lon="6.46693">
        <ele>1685.8000488281</ele>
        <time>2012-12-06T14:50:11.000Z</time>
      </trkpt>
      <trkpt lat="45.96493" lon="6.4668">
        <ele>1678</ele>
        <time>2012-12-06T14:50:14.000Z</time>
      </trkpt>
      <trkpt lat="45.96489" lon="6.46667">
        <ele>1672.8000488281</ele>
        <time>2012-12-06T14:50:17.000Z</time>
      </trkpt>
      <trkpt lat="45.96483" lon="6.4665">
        <ele>1666.4000244141</ele>
        <time>2012-12-06T14:50:20.000Z</time>
      </trkpt>
      <trkpt lat="45.9648" lon="6.46646">
        <ele>1665</ele>
        <time>2012-12-06T14:50:21.000Z</time>
      </trkpt>
      <trkpt lat="45.96471" lon="6.46628">
        <ele>1656.8000488281</ele>
        <time>2012-12-06T14:50:25.000Z</time>
      </trkpt>
      <trkpt lat="45.9647" lon="6.46606">
        <ele>1648.5999755859</ele>
        <time>2012-12-06T14:50:29.000Z</time>
      </trkpt>
      <trkpt lat="45.96468" lon="6.46584">
        <ele>1640</ele>
        <time>2012-12-06T14:50:33.000Z</time>
      </trkpt>
      <trkpt lat="45.96466" lon="6.4657">
        <ele>1635.1999511719</ele>
        <time>2012-12-06T14:50:36.000Z</time>
      </trkpt>
      <trkpt lat="45.96465" lon="6.46563">
        <ele>1631.8000488281</ele>
        <time>2012-12-06T14:50:38.000Z</time>
      </trkpt>
      <trkpt lat="45.96463" lon="6.4655">
        <ele>1626.5999755859</ele>
        <time>2012-12-06T14:50:41.000Z</time>
      </trkpt>
      <trkpt lat="45.96461" lon="6.46535">
        <ele>1620.8000488281</ele>
        <time>2012-12-06T14:50:44.000Z</time>
      </trkpt>
      <trkpt lat="45.96461" lon="6.46515">
        <ele>1613.1999511719</ele>
        <time>2012-12-06T14:50:48.000Z</time>
      </trkpt>
      <trkpt lat="45.96459" lon="6.46493">
        <ele>1604.4000244141</ele>
        <time>2012-12-06T14:50:52.000Z</time>
      </trkpt>
      <trkpt lat="45.96457" lon="6.46477">
        <ele>1598.1999511719</ele>
        <time>2012-12-06T14:50:55.000Z</time>
      </trkpt>
      <trkpt lat="45.96457" lon="6.46464">
        <ele>1594</ele>
        <time>2012-12-06T14:50:58.000Z</time>
      </trkpt>
      <trkpt lat="45.96459" lon="6.46453">
        <ele>1589.5999755859</ele>
        <time>2012-12-06T14:51:01.000Z</time>
      </trkpt>
      <trkpt lat="45.96462" lon="6.46433">
        <ele>1581.8000488281</ele>
        <time>2012-12-06T14:51:04.000Z</time>
      </trkpt>
      <trkpt lat="45.96466" lon="6.46414">
        <ele>1576.5999755859</ele>
        <time>2012-12-06T14:51:07.000Z</time>
      </trkpt>
      <trkpt lat="45.96468" lon="6.46403">
        <ele>1573.1999511719</ele>
        <time>2012-12-06T14:51:09.000Z</time>
      </trkpt>
      <trkpt lat="45.9647" lon="6.4639">
        <ele>1569.4000244141</ele>
        <time>2012-12-06T14:51:11.000Z</time>
      </trkpt>
      <trkpt lat="45.96479" lon="6.46364">
        <ele>1559.8000488281</ele>
        <time>2012-12-06T14:51:15.000Z</time>
      </trkpt>
      <trkpt lat="45.96481" lon="6.46357">
        <ele>1556.8000488281</ele>
        <time>2012-12-06T14:51:16.000Z</time>
      </trkpt>
      <trkpt lat="45.965" lon="6.46328">
        <ele>1545.4000244141</ele>
        <time>2012-12-06T14:51:22.000Z</time>
      </trkpt>
      <trkpt lat="45.96512" lon="6.46299">
        <ele>1537.1999511719</ele>
        <time>2012-12-06T14:51:28.000Z</time>
      </trkpt>
      <trkpt lat="45.96515" lon="6.46277">
        <ele>1534.8000488281</ele>
        <time>2012-12-06T14:51:32.000Z</time>
      </trkpt>
      <trkpt lat="45.96514" lon="6.46274">
        <ele>1534.4000244141</ele>
        <time>2012-12-06T14:51:36.000Z</time>
      </trkpt>
      <trkpt lat="45.96513" lon="6.46274">
        <ele>1533.8000488281</ele>
        <time>2012-12-06T14:51:46.000Z</time>
      </trkpt>
      <trkpt lat="45.96513" lon="6.46273">
        <ele>1533.8000488281</ele>
        <time>2012-12-06T14:51:53.000Z</time>
      </trkpt>
      <trkpt lat="45.96512" lon="6.46271">
        <ele>1533.8000488281</ele>
        <time>2012-12-06T14:51:58.000Z</time>
      </trkpt>
      <trkpt lat="45.96511" lon="6.46272">
        <ele>1532.4000244141</ele>
        <time>2012-12-06T14:52:24.000Z</time>
      </trkpt>
      <trkpt lat="45.9651" lon="6.46273">
        <ele>1533.8000488281</ele>
        <time>2012-12-06T14:52:40.000Z</time>
      </trkpt>
      <trkpt lat="45.9651" lon="6.46273">
        <ele>1534.4000244141</ele>
        <time>2012-12-06T14:52:50.000Z</time>
      </trkpt>
      <trkpt lat="45.96511" lon="6.46269">
        <ele>1532.8000488281</ele>
        <time>2012-12-06T14:53:07.000Z</time>
      </trkpt>
      <trkpt lat="45.96514" lon="6.46268">
        <ele>1532.4000244141</ele>
        <time>2012-12-06T14:53:11.000Z</time>
      </trkpt>
      <trkpt lat="45.96514" lon="6.46267">
        <ele>1533.4000244141</ele>
        <time>2012-12-06T14:53:27.000Z</time>
      </trkpt>
      <trkpt lat="45.96519" lon="6.46258">
        <ele>1531</ele>
        <time>2012-12-06T14:53:30.000Z</time>
      </trkpt>
      <trkpt lat="45.96531" lon="6.46235">
        <ele>1526.1999511719</ele>
        <time>2012-12-06T14:53:33.000Z</time>
      </trkpt>
      <trkpt lat="45.96535" lon="6.46227">
        <ele>1523.8000488281</ele>
        <time>2012-12-06T14:53:34.000Z</time>
      </trkpt>
      <trkpt lat="45.96546" lon="6.46171">
        <ele>1511.8000488281</ele>
        <time>2012-12-06T14:53:39.000Z</time>
      </trkpt>
      <trkpt lat="45.96552" lon="6.46143">
        <ele>1507.8000488281</ele>
        <time>2012-12-06T14:53:41.000Z</time>
      </trkpt>
      <trkpt lat="45.96558" lon="6.46115">
        <ele>1502.5999755859</ele>
        <time>2012-12-06T14:53:43.000Z</time>
      </trkpt>
      <trkpt lat="45.96566" lon="6.4607">
        <ele>1495.8000488281</ele>
        <time>2012-12-06T14:53:46.000Z</time>
      </trkpt>
      <trkpt lat="45.96572" lon="6.46039">
        <ele>1491</ele>
        <time>2012-12-06T14:53:48.000Z</time>
      </trkpt>
      <trkpt lat="45.96585" lon="6.4601">
        <ele>1486.8000488281</ele>
        <time>2012-12-06T14:53:50.000Z</time>
      </trkpt>
      <trkpt lat="45.96591" lon="6.45995">
        <ele>1484.4000244141</ele>
        <time>2012-12-06T14:53:51.000Z</time>
      </trkpt>
      <trkpt lat="45.96615" lon="6.45934">
        <ele>1473.1999511719</ele>
        <time>2012-12-06T14:53:55.000Z</time>
      </trkpt>
      <trkpt lat="45.96621" lon="6.45915">
        <ele>1468</ele>
        <time>2012-12-06T14:53:57.000Z</time>
      </trkpt>
      <trkpt lat="45.96623" lon="6.45907">
        <ele>1465.5999755859</ele>
        <time>2012-12-06T14:53:59.000Z</time>
      </trkpt>
      <trkpt lat="45.96623" lon="6.45906">
        <ele>1464.5999755859</ele>
        <time>2012-12-06T14:54:03.000Z</time>
      </trkpt>
      <trkpt lat="45.96624" lon="6.45905">
        <ele>1462.5999755859</ele>
        <time>2012-12-06T14:54:28.000Z</time>
      </trkpt>
      <trkpt lat="45.96635" lon="6.45898">
        <ele>1459.8000488281</ele>
        <time>2012-12-06T14:54:31.000Z</time>
      </trkpt>
      <trkpt lat="45.96652" lon="6.45884">
        <ele>1454.5999755859</ele>
        <time>2012-12-06T14:54:34.000Z</time>
      </trkpt>
      <trkpt lat="45.96666" lon="6.45867">
        <ele>1449.1999511719</ele>
        <time>2012-12-06T14:54:37.000Z</time>
      </trkpt>
      <trkpt lat="45.9668" lon="6.45859">
        <ele>1444</ele>
        <time>2012-12-06T14:54:40.000Z</time>
      </trkpt>
      <trkpt lat="45.96692" lon="6.45853">
        <ele>1441.5999755859</ele>
        <time>2012-12-06T14:54:42.000Z</time>
      </trkpt>
      <trkpt lat="45.96704" lon="6.45857">
        <ele>1438.5999755859</ele>
        <time>2012-12-06T14:54:44.000Z</time>
      </trkpt>
      <trkpt lat="45.96709" lon="6.45854">
        <ele>1438.1999511719</ele>
        <time>2012-12-06T14:54:46.000Z</time>
      </trkpt>
      <trkpt lat="45.9671" lon="6.45852">
        <ele>1438.5999755859</ele>
        <time>2012-12-06T14:54:50.000Z</time>
      </trkpt>
      <trkpt lat="45.96709" lon="6.45849">
        <ele>1439.5999755859</ele>
        <time>2012-12-06T14:54:57.000Z</time>
      </trkpt>
      <trkpt lat="45.96708" lon="6.45845">
        <ele>1439.5999755859</ele>
        <time>2012-12-06T14:55:03.000Z</time>
      </trkpt>
      <trkpt lat="45.96708" lon="6.45842">
        <ele>1439.1999511719</ele>
        <time>2012-12-06T14:55:05.000Z</time>
      </trkpt>
      <trkpt lat="45.96711" lon="6.45833">
        <ele>1437.1999511719</ele>
        <time>2012-12-06T14:55:11.000Z</time>
      </trkpt>
      <trkpt lat="45.96713" lon="6.4582">
        <ele>1435.1999511719</ele>
        <time>2012-12-06T14:55:15.000Z</time>
      </trkpt>
      <trkpt lat="45.96717" lon="6.45813">
        <ele>1432.8000488281</ele>
        <time>2012-12-06T14:55:17.000Z</time>
      </trkpt>
      <trkpt lat="45.96724" lon="6.45788">
        <ele>1426.1999511719</ele>
        <time>2012-12-06T14:55:21.000Z</time>
      </trkpt>
      <trkpt lat="45.96732" lon="6.45766">
        <ele>1420.8000488281</ele>
        <time>2012-12-06T14:55:24.000Z</time>
      </trkpt>
      <trkpt lat="45.96737" lon="6.45751">
        <ele>1417.5999755859</ele>
        <time>2012-12-06T14:55:27.000Z</time>
      </trkpt>
      <trkpt lat="45.96739" lon="6.45727">
        <ele>1412.1999511719</ele>
        <time>2012-12-06T14:55:31.000Z</time>
      </trkpt>
      <trkpt lat="45.96748" lon="6.45692">
        <ele>1404.5999755859</ele>
        <time>2012-12-06T14:55:36.000Z</time>
      </trkpt>
      <trkpt lat="45.96763" lon="6.45662">
        <ele>1397.8000488281</ele>
        <time>2012-12-06T14:55:42.000Z</time>
      </trkpt>
      <trkpt lat="45.96773" lon="6.45644">
        <ele>1392.5999755859</ele>
        <time>2012-12-06T14:55:45.000Z</time>
      </trkpt>
      <trkpt lat="45.96795" lon="6.45604">
        <ele>1381</ele>
        <time>2012-12-06T14:55:51.000Z</time>
      </trkpt>
      <trkpt lat="45.968" lon="6.45575">
        <ele>1375.5999755859</ele>
        <time>2012-12-06T14:55:55.000Z</time>
      </trkpt>
      <trkpt lat="45.96802" lon="6.45563">
        <ele>1373.1999511719</ele>
        <time>2012-12-06T14:55:57.000Z</time>
      </trkpt>
      <trkpt lat="45.96809" lon="6.45543">
        <ele>1368</ele>
        <time>2012-12-06T14:56:01.000Z</time>
      </trkpt>
      <trkpt lat="45.96813" lon="6.45537">
        <ele>1365.5999755859</ele>
        <time>2012-12-06T14:56:07.000Z</time>
      </trkpt>
      <trkpt lat="45.96814" lon="6.45533">
        <ele>1365.1999511719</ele>
        <time>2012-12-06T14:56:12.000Z</time>
      </trkpt>
      <trkpt lat="45.96815" lon="6.45529">
        <ele>1364.5999755859</ele>
        <time>2012-12-06T14:56:16.000Z</time>
      </trkpt>
      <trkpt lat="45.96815" lon="6.45523">
        <ele>1364.5999755859</ele>
        <time>2012-12-06T14:56:21.000Z</time>
      </trkpt>
      <trkpt lat="45.96816" lon="6.45516">
        <ele>1365.5999755859</ele>
        <time>2012-12-06T14:56:27.000Z</time>
      </trkpt>
      <trkpt lat="45.96816" lon="6.45511">
        <ele>1365.1999511719</ele>
        <time>2012-12-06T14:56:31.000Z</time>
      </trkpt>
      <trkpt lat="45.96817" lon="6.45505">
        <ele>1364.1999511719</ele>
        <time>2012-12-06T14:56:35.000Z</time>
      </trkpt>
      <trkpt lat="45.96818" lon="6.45499">
        <ele>1363.1999511719</ele>
        <time>2012-12-06T14:56:40.000Z</time>
      </trkpt>
      <trkpt lat="45.96822" lon="6.45487">
        <ele>1361.8000488281</ele>
        <time>2012-12-06T14:56:46.000Z</time>
      </trkpt>
      <trkpt lat="45.96823" lon="6.45481">
        <ele>1360.8000488281</ele>
        <time>2012-12-06T14:56:51.000Z</time>
      </trkpt>
      <trkpt lat="45.96824" lon="6.45475">
        <ele>1359.4000244141</ele>
        <time>2012-12-06T14:56:56.000Z</time>
      </trkpt>
      <trkpt lat="45.96825" lon="6.45472">
        <ele>1358.8000488281</ele>
        <time>2012-12-06T14:57:00.000Z</time>
      </trkpt>
      <trkpt lat="45.96825" lon="6.45466">
        <ele>1358.4000244141</ele>
        <time>2012-12-06T14:57:06.000Z</time>
      </trkpt>
      <trkpt lat="45.96827" lon="6.45459">
        <ele>1357.8000488281</ele>
        <time>2012-12-06T14:57:12.000Z</time>
      </trkpt>
      <trkpt lat="45.96827" lon="6.45457">
        <ele>1357.4000244141</ele>
        <time>2012-12-06T14:57:16.000Z</time>
      </trkpt>
      <trkpt lat="45.96828" lon="6.45453">
        <ele>1357</ele>
        <time>2012-12-06T14:57:21.000Z</time>
      </trkpt>
      <trkpt lat="45.96829" lon="6.45447">
        <ele>1356.4000244141</ele>
        <time>2012-12-06T14:57:26.000Z</time>
      </trkpt>
      <trkpt lat="45.9683" lon="6.45438">
        <ele>1355</ele>
        <time>2012-12-06T14:57:31.000Z</time>
      </trkpt>
      <trkpt lat="45.96834" lon="6.45417">
        <ele>1350.1999511719</ele>
        <time>2012-12-06T14:57:38.000Z</time>
      </trkpt>
      <trkpt lat="45.96837" lon="6.45407">
        <ele>1347.8000488281</ele>
        <time>2012-12-06T14:57:43.000Z</time>
      </trkpt>
      <trkpt lat="45.96838" lon="6.45401">
        <ele>1346.4000244141</ele>
        <time>2012-12-06T14:57:48.000Z</time>
      </trkpt>
      <trkpt lat="45.96841" lon="6.45389">
        <ele>1344</ele>
        <time>2012-12-06T14:57:57.000Z</time>
      </trkpt>
      <trkpt lat="45.96842" lon="6.45382">
        <ele>1343.4000244141</ele>
        <time>2012-12-06T14:58:01.000Z</time>
      </trkpt>
      <trkpt lat="45.96842" lon="6.45377">
        <ele>1342.5999755859</ele>
        <time>2012-12-06T14:58:05.000Z</time>
      </trkpt>
      <trkpt lat="45.96842" lon="6.45374">
        <ele>1342.5999755859</ele>
        <time>2012-12-06T14:58:13.000Z</time>
      </trkpt>
      <trkpt lat="45.96842" lon="6.45369">
        <ele>1342</ele>
        <time>2012-12-06T14:58:17.000Z</time>
      </trkpt>
      <trkpt lat="45.96842" lon="6.45361">
        <ele>1341.5999755859</ele>
        <time>2012-12-06T14:58:23.000Z</time>
      </trkpt>
      <trkpt lat="45.96843" lon="6.45354">
        <ele>1340.1999511719</ele>
        <time>2012-12-06T14:58:29.000Z</time>
      </trkpt>
      <trkpt lat="45.96843" lon="6.45351">
        <ele>1340.1999511719</ele>
        <time>2012-12-06T14:58:33.000Z</time>
      </trkpt>
      <trkpt lat="45.96844" lon="6.45348">
        <ele>1339.1999511719</ele>
        <time>2012-12-06T14:58:38.000Z</time>
      </trkpt>
      <trkpt lat="45.96845" lon="6.45342">
        <ele>1337.8000488281</ele>
        <time>2012-12-06T14:58:43.000Z</time>
      </trkpt>
      <trkpt lat="45.96846" lon="6.45335">
        <ele>1336.8000488281</ele>
        <time>2012-12-06T14:58:48.000Z</time>
      </trkpt>
      <trkpt lat="45.96847" lon="6.45329">
        <ele>1335.8000488281</ele>
        <time>2012-12-06T14:58:53.000Z</time>
      </trkpt>
      <trkpt lat="45.96851" lon="6.45313">
        <ele>1332.4000244141</ele>
        <time>2012-12-06T14:59:00.000Z</time>
      </trkpt>
      <trkpt lat="45.96853" lon="6.45292">
        <ele>1328</ele>
        <time>2012-12-06T14:59:09.000Z</time>
      </trkpt>
      <trkpt lat="45.96853" lon="6.45281">
        <ele>1325.5999755859</ele>
        <time>2012-12-06T14:59:15.000Z</time>
      </trkpt>
      <trkpt lat="45.96852" lon="6.45276">
        <ele>1324.8000488281</ele>
        <time>2012-12-06T14:59:19.000Z</time>
      </trkpt>
      <trkpt lat="45.96852" lon="6.45274">
        <ele>1324.1999511719</ele>
        <time>2012-12-06T14:59:20.000Z</time>
      </trkpt>
      <trkpt lat="45.96852" lon="6.45269">
        <ele>1323.1999511719</ele>
        <time>2012-12-06T14:59:25.000Z</time>
      </trkpt>
      <trkpt lat="45.96852" lon="6.45263">
        <ele>1321.8000488281</ele>
        <time>2012-12-06T14:59:30.000Z</time>
      </trkpt>
      <trkpt lat="45.96851" lon="6.45254">
        <ele>1320.4000244141</ele>
        <time>2012-12-06T14:59:37.000Z</time>
      </trkpt>
      <trkpt lat="45.96851" lon="6.45249">
        <ele>1319.4000244141</ele>
        <time>2012-12-06T14:59:41.000Z</time>
      </trkpt>
      <trkpt lat="45.96851" lon="6.45245">
        <ele>1319</ele>
        <time>2012-12-06T14:59:45.000Z</time>
      </trkpt>
      <trkpt lat="45.96851" lon="6.4524">
        <ele>1318</ele>
        <time>2012-12-06T14:59:49.000Z</time>
      </trkpt>
      <trkpt lat="45.96851" lon="6.45235">
        <ele>1317</ele>
        <time>2012-12-06T14:59:52.000Z</time>
      </trkpt>
      <trkpt lat="45.96852" lon="6.45215">
        <ele>1313.1999511719</ele>
        <time>2012-12-06T15:00:01.000Z</time>
      </trkpt>
      <trkpt lat="45.96856" lon="6.45201">
        <ele>1309.8000488281</ele>
        <time>2012-12-06T15:00:05.000Z</time>
      </trkpt>
      <trkpt lat="45.96856" lon="6.45183">
        <ele>1304.5999755859</ele>
        <time>2012-12-06T15:00:10.000Z</time>
      </trkpt>
      <trkpt lat="45.96854" lon="6.45166">
        <ele>1299.8000488281</ele>
        <time>2012-12-06T15:00:14.000Z</time>
      </trkpt>
      <trkpt lat="45.96853" lon="6.45159">
        <ele>1297.8000488281</ele>
        <time>2012-12-06T15:00:16.000Z</time>
      </trkpt>
      <trkpt lat="45.96856" lon="6.45151">
        <ele>1295.4000244141</ele>
        <time>2012-12-06T15:00:20.000Z</time>
      </trkpt>
      <trkpt lat="45.96857" lon="6.45151">
        <ele>1295.4000244141</ele>
        <time>2012-12-06T15:00:21.000Z</time>
      </trkpt>
      <trkpt lat="45.96859" lon="6.45151">
        <ele>1293.4000244141</ele>
        <time>2012-12-06T15:00:28.000Z</time>
      </trkpt>
      <trkpt lat="45.9686" lon="6.45132">
        <ele>1287.8000488281</ele>
        <time>2012-12-06T15:00:32.000Z</time>
      </trkpt>
      <trkpt lat="45.96863" lon="6.45122">
        <ele>1284.4000244141</ele>
        <time>2012-12-06T15:00:34.000Z</time>
      </trkpt>
      <trkpt lat="45.96868" lon="6.45103">
        <ele>1277.5999755859</ele>
        <time>2012-12-06T15:00:38.000Z</time>
      </trkpt>
      <trkpt lat="45.96874" lon="6.45088">
        <ele>1272.4000244141</ele>
        <time>2012-12-06T15:00:42.000Z</time>
      </trkpt>
      <trkpt lat="45.96881" lon="6.45074">
        <ele>1267.5999755859</ele>
        <time>2012-12-06T15:00:45.000Z</time>
      </trkpt>
      <trkpt lat="45.96883" lon="6.45068">
        <ele>1265.5999755859</ele>
        <time>2012-12-06T15:00:46.000Z</time>
      </trkpt>
      <trkpt lat="45.96885" lon="6.45051">
        <ele>1262.1999511719</ele>
        <time>2012-12-06T15:00:49.000Z</time>
      </trkpt>
      <trkpt lat="45.96888" lon="6.45048">
        <ele>1260.8000488281</ele>
        <time>2012-12-06T15:00:52.000Z</time>
      </trkpt>
      <trkpt lat="45.96889" lon="6.45046">
        <ele>1260.4000244141</ele>
        <time>2012-12-06T15:00:58.000Z</time>
      </trkpt>
      <trkpt lat="45.96891" lon="6.45038">
        <ele>1258.8000488281</ele>
        <time>2012-12-06T15:01:03.000Z</time>
      </trkpt>
      <trkpt lat="45.96891" lon="6.45036">
        <ele>1258</ele>
        <time>2012-12-06T15:01:06.000Z</time>
      </trkpt>
      <trkpt lat="45.96892" lon="6.45033">
        <ele>1258</ele>
        <time>2012-12-06T15:01:12.000Z</time>
      </trkpt>
      <trkpt lat="45.96892" lon="6.45033">
        <ele>1257</ele>
        <time>2012-12-06T15:01:18.000Z</time>
      </trkpt>
      <trkpt lat="45.96894" lon="6.4503">
        <ele>1256.4000244141</ele>
        <time>2012-12-06T15:01:22.000Z</time>
      </trkpt>
      <trkpt lat="45.96896" lon="6.45026">
        <ele>1256</ele>
        <time>2012-12-06T15:01:26.000Z</time>
      </trkpt>
      <trkpt lat="45.96898" lon="6.45021">
        <ele>1255.5999755859</ele>
        <time>2012-12-06T15:01:30.000Z</time>
      </trkpt>
      <trkpt lat="45.96901" lon="6.45013">
        <ele>1255</ele>
        <time>2012-12-06T15:01:34.000Z</time>
      </trkpt>
      <trkpt lat="45.96904" lon="6.45011">
        <ele>1254.5999755859</ele>
        <time>2012-12-06T15:01:38.000Z</time>
      </trkpt>
      <trkpt lat="45.96905" lon="6.45011">
        <ele>1252.5999755859</ele>
        <time>2012-12-06T15:01:53.000Z</time>
      </trkpt>
      <trkpt lat="45.96905" lon="6.45011">
        <ele>1252.1999511719</ele>
        <time>2012-12-06T15:01:59.000Z</time>
      </trkpt>
      <trkpt lat="45.96904" lon="6.45009">
        <ele>1251.5999755859</ele>
        <time>2012-12-06T15:02:12.000Z</time>
      </trkpt>
      <trkpt lat="45.96903" lon="6.45009">
        <ele>1251.1999511719</ele>
        <time>2012-12-06T15:02:26.000Z</time>
      </trkpt>
      <trkpt lat="45.96903" lon="6.45009">
        <ele>1251.5999755859</ele>
        <time>2012-12-06T15:02:28.000Z</time>
      </trkpt>
    </trkseg>
  </trk>
</gpx>